<?xml version="1.0" encoding="UTF-8" standalone="no" ?>
<gpx xmlns="http://www.topografix.com/GPX/1/1" xmlns:xsi="http://www.w3.org/2001/XMLSchema-instance" xsi:schemaLocation="http://www.topografix.com/GPX/1/1 http://www.topografix.com/GPX/1/1/gpx.xsd" version="1.1" creator="VisuGPX - https://www.visugpx.com">
  <metadata>
    <name>Sortie_cyclo_08_06_2013 (Lannion-67 kms)</name>
    <desc><![CDATA[Circuit assez plat.]]></desc>
  </metadata>
  <trk>
    <name><![CDATA[08-JUIN-13 18:25:16]]></name>
    <trkseg>
      <trkpt lat="48.74701" lon="-3.45491">
        <ele>58.3</ele>
        <time>2013-06-08T13:34:11Z</time>
      </trkpt>
      <trkpt lat="48.747" lon="-3.45492">
        <ele>58.3</ele>
        <time>2013-06-08T13:34:34Z</time>
      </trkpt>
      <trkpt lat="48.74699" lon="-3.45492">
        <ele>58.78</ele>
        <time>2013-06-08T13:34:57Z</time>
      </trkpt>
      <trkpt lat="48.74699" lon="-3.4549">
        <ele>58.3</ele>
        <time>2013-06-08T13:35:17Z</time>
      </trkpt>
      <trkpt lat="48.74697" lon="-3.45494">
        <ele>58.78</ele>
        <time>2013-06-08T13:35:34Z</time>
      </trkpt>
      <trkpt lat="48.74698" lon="-3.45499">
        <ele>58.78</ele>
        <time>2013-06-08T13:35:49Z</time>
      </trkpt>
      <trkpt lat="48.74689" lon="-3.45523">
        <ele>58.3</ele>
        <time>2013-06-08T13:35:56Z</time>
      </trkpt>
      <trkpt lat="48.74685" lon="-3.45522">
        <ele>58.3</ele>
        <time>2013-06-08T13:35:57Z</time>
      </trkpt>
      <trkpt lat="48.7468" lon="-3.45518">
        <ele>57.82</ele>
        <time>2013-06-08T13:35:58Z</time>
      </trkpt>
      <trkpt lat="48.74676" lon="-3.45513">
        <ele>58.3</ele>
        <time>2013-06-08T13:35:59Z</time>
      </trkpt>
      <trkpt lat="48.74672" lon="-3.45508">
        <ele>58.3</ele>
        <time>2013-06-08T13:36:00Z</time>
      </trkpt>
      <trkpt lat="48.74667" lon="-3.45503">
        <ele>58.3</ele>
        <time>2013-06-08T13:36:01Z</time>
      </trkpt>
      <trkpt lat="48.74658" lon="-3.45492">
        <ele>58.3</ele>
        <time>2013-06-08T13:36:03Z</time>
      </trkpt>
      <trkpt lat="48.74635" lon="-3.45472">
        <ele>56.37</ele>
        <time>2013-06-08T13:36:07Z</time>
      </trkpt>
      <trkpt lat="48.74629" lon="-3.45471">
        <ele>56.37</ele>
        <time>2013-06-08T13:36:08Z</time>
      </trkpt>
      <trkpt lat="48.74623" lon="-3.45475">
        <ele>55.41</ele>
        <time>2013-06-08T13:36:09Z</time>
      </trkpt>
      <trkpt lat="48.74618" lon="-3.45482">
        <ele>54.45</ele>
        <time>2013-06-08T13:36:10Z</time>
      </trkpt>
      <trkpt lat="48.74614" lon="-3.4549">
        <ele>53.01</ele>
        <time>2013-06-08T13:36:11Z</time>
      </trkpt>
      <trkpt lat="48.74611" lon="-3.45498">
        <ele>52.05</ele>
        <time>2013-06-08T13:36:12Z</time>
      </trkpt>
      <trkpt lat="48.74604" lon="-3.45512">
        <ele>50.61</ele>
        <time>2013-06-08T13:36:15Z</time>
      </trkpt>
      <trkpt lat="48.74602" lon="-3.45514">
        <ele>50.61</ele>
        <time>2013-06-08T13:36:16Z</time>
      </trkpt>
      <trkpt lat="48.746" lon="-3.45515">
        <ele>49.65</ele>
        <time>2013-06-08T13:36:32Z</time>
      </trkpt>
      <trkpt lat="48.74598" lon="-3.45516">
        <ele>49.65</ele>
        <time>2013-06-08T13:36:34Z</time>
      </trkpt>
      <trkpt lat="48.74596" lon="-3.45516">
        <ele>49.65</ele>
        <time>2013-06-08T13:36:35Z</time>
      </trkpt>
      <trkpt lat="48.74593" lon="-3.45517">
        <ele>49.65</ele>
        <time>2013-06-08T13:36:36Z</time>
      </trkpt>
      <trkpt lat="48.7459" lon="-3.45515">
        <ele>49.65</ele>
        <time>2013-06-08T13:36:37Z</time>
      </trkpt>
      <trkpt lat="48.74586" lon="-3.45513">
        <ele>49.65</ele>
        <time>2013-06-08T13:36:38Z</time>
      </trkpt>
      <trkpt lat="48.74582" lon="-3.45509">
        <ele>49.16</ele>
        <time>2013-06-08T13:36:39Z</time>
      </trkpt>
      <trkpt lat="48.74577" lon="-3.45503">
        <ele>49.16</ele>
        <time>2013-06-08T13:36:40Z</time>
      </trkpt>
      <trkpt lat="48.74573" lon="-3.45497">
        <ele>48.68</ele>
        <time>2013-06-08T13:36:41Z</time>
      </trkpt>
      <trkpt lat="48.74568" lon="-3.4549">
        <ele>48.2</ele>
        <time>2013-06-08T13:36:42Z</time>
      </trkpt>
      <trkpt lat="48.74564" lon="-3.45483">
        <ele>47.72</ele>
        <time>2013-06-08T13:36:43Z</time>
      </trkpt>
      <trkpt lat="48.74522" lon="-3.45404">
        <ele>45.8</ele>
        <time>2013-06-08T13:36:51Z</time>
      </trkpt>
      <trkpt lat="48.74496" lon="-3.45368">
        <ele>46.28</ele>
        <time>2013-06-08T13:36:57Z</time>
      </trkpt>
      <trkpt lat="48.74484" lon="-3.45353">
        <ele>48.68</ele>
        <time>2013-06-08T13:37:02Z</time>
      </trkpt>
      <trkpt lat="48.74454" lon="-3.45311">
        <ele>51.57</ele>
        <time>2013-06-08T13:37:15Z</time>
      </trkpt>
      <trkpt lat="48.74421" lon="-3.4527">
        <ele>54.93</ele>
        <time>2013-06-08T13:37:28Z</time>
      </trkpt>
      <trkpt lat="48.74407" lon="-3.45246">
        <ele>56.86</ele>
        <time>2013-06-08T13:37:35Z</time>
      </trkpt>
      <trkpt lat="48.74407" lon="-3.45241">
        <ele>56.37</ele>
        <time>2013-06-08T13:37:36Z</time>
      </trkpt>
      <trkpt lat="48.74408" lon="-3.45235">
        <ele>56.37</ele>
        <time>2013-06-08T13:37:37Z</time>
      </trkpt>
      <trkpt lat="48.74409" lon="-3.4523">
        <ele>56.86</ele>
        <time>2013-06-08T13:37:38Z</time>
      </trkpt>
      <trkpt lat="48.74412" lon="-3.45225">
        <ele>56.86</ele>
        <time>2013-06-08T13:37:39Z</time>
      </trkpt>
      <trkpt lat="48.74414" lon="-3.45221">
        <ele>56.86</ele>
        <time>2013-06-08T13:37:40Z</time>
      </trkpt>
      <trkpt lat="48.74417" lon="-3.45217">
        <ele>56.86</ele>
        <time>2013-06-08T13:37:41Z</time>
      </trkpt>
      <trkpt lat="48.74421" lon="-3.45214">
        <ele>56.86</ele>
        <time>2013-06-08T13:37:42Z</time>
      </trkpt>
      <trkpt lat="48.74424" lon="-3.45211">
        <ele>56.86</ele>
        <time>2013-06-08T13:37:43Z</time>
      </trkpt>
      <trkpt lat="48.74428" lon="-3.45208">
        <ele>57.34</ele>
        <time>2013-06-08T13:37:44Z</time>
      </trkpt>
      <trkpt lat="48.74498" lon="-3.45163">
        <ele>58.3</ele>
        <time>2013-06-08T13:38:02Z</time>
      </trkpt>
      <trkpt lat="48.74562" lon="-3.45119">
        <ele>59.26</ele>
        <time>2013-06-08T13:38:18Z</time>
      </trkpt>
      <trkpt lat="48.74595" lon="-3.45099">
        <ele>60.22</ele>
        <time>2013-06-08T13:38:26Z</time>
      </trkpt>
      <trkpt lat="48.74599" lon="-3.45098">
        <ele>60.22</ele>
        <time>2013-06-08T13:38:27Z</time>
      </trkpt>
      <trkpt lat="48.74643" lon="-3.45073">
        <ele>62.62</ele>
        <time>2013-06-08T13:38:38Z</time>
      </trkpt>
      <trkpt lat="48.74655" lon="-3.45064">
        <ele>63.58</ele>
        <time>2013-06-08T13:38:41Z</time>
      </trkpt>
      <trkpt lat="48.74694" lon="-3.45022">
        <ele>66.47</ele>
        <time>2013-06-08T13:38:54Z</time>
      </trkpt>
      <trkpt lat="48.74731" lon="-3.44986">
        <ele>70.31</ele>
        <time>2013-06-08T13:39:05Z</time>
      </trkpt>
      <trkpt lat="48.74763" lon="-3.44942">
        <ele>73.2</ele>
        <time>2013-06-08T13:39:17Z</time>
      </trkpt>
      <trkpt lat="48.74787" lon="-3.44897">
        <ele>74.16</ele>
        <time>2013-06-08T13:39:27Z</time>
      </trkpt>
      <trkpt lat="48.74791" lon="-3.44894">
        <ele>74.16</ele>
        <time>2013-06-08T13:39:28Z</time>
      </trkpt>
      <trkpt lat="48.74794" lon="-3.4489">
        <ele>74.64</ele>
        <time>2013-06-08T13:39:29Z</time>
      </trkpt>
      <trkpt lat="48.74798" lon="-3.44887">
        <ele>74.64</ele>
        <time>2013-06-08T13:39:30Z</time>
      </trkpt>
      <trkpt lat="48.74801" lon="-3.44883">
        <ele>74.64</ele>
        <time>2013-06-08T13:39:31Z</time>
      </trkpt>
      <trkpt lat="48.74804" lon="-3.44877">
        <ele>74.64</ele>
        <time>2013-06-08T13:39:32Z</time>
      </trkpt>
      <trkpt lat="48.74867" lon="-3.44796">
        <ele>75.6</ele>
        <time>2013-06-08T13:39:50Z</time>
      </trkpt>
      <trkpt lat="48.74905" lon="-3.44749">
        <ele>75.6</ele>
        <time>2013-06-08T13:40:00Z</time>
      </trkpt>
      <trkpt lat="48.74974" lon="-3.44676">
        <ele>76.08</ele>
        <time>2013-06-08T13:40:17Z</time>
      </trkpt>
      <trkpt lat="48.7504" lon="-3.44617">
        <ele>78</ele>
        <time>2013-06-08T13:40:33Z</time>
      </trkpt>
      <trkpt lat="48.75084" lon="-3.44584">
        <ele>81.37</ele>
        <time>2013-06-08T13:40:44Z</time>
      </trkpt>
      <trkpt lat="48.75123" lon="-3.44536">
        <ele>82.33</ele>
        <time>2013-06-08T13:40:56Z</time>
      </trkpt>
      <trkpt lat="48.75125" lon="-3.4453">
        <ele>82.81</ele>
        <time>2013-06-08T13:40:57Z</time>
      </trkpt>
      <trkpt lat="48.75173" lon="-3.44431">
        <ele>84.73</ele>
        <time>2013-06-08T13:41:15Z</time>
      </trkpt>
      <trkpt lat="48.75176" lon="-3.44427">
        <ele>84.73</ele>
        <time>2013-06-08T13:41:16Z</time>
      </trkpt>
      <trkpt lat="48.75209" lon="-3.44371">
        <ele>84.73</ele>
        <time>2013-06-08T13:41:27Z</time>
      </trkpt>
      <trkpt lat="48.75211" lon="-3.44366">
        <ele>84.25</ele>
        <time>2013-06-08T13:41:28Z</time>
      </trkpt>
      <trkpt lat="48.75215" lon="-3.44361">
        <ele>84.25</ele>
        <time>2013-06-08T13:41:29Z</time>
      </trkpt>
      <trkpt lat="48.75281" lon="-3.44269">
        <ele>85.21</ele>
        <time>2013-06-08T13:41:48Z</time>
      </trkpt>
      <trkpt lat="48.75323" lon="-3.44178">
        <ele>85.69</ele>
        <time>2013-06-08T13:42:04Z</time>
      </trkpt>
      <trkpt lat="48.75366" lon="-3.44064">
        <ele>86.66</ele>
        <time>2013-06-08T13:42:22Z</time>
      </trkpt>
      <trkpt lat="48.75368" lon="-3.44057">
        <ele>86.18</ele>
        <time>2013-06-08T13:42:23Z</time>
      </trkpt>
      <trkpt lat="48.75369" lon="-3.4405">
        <ele>85.69</ele>
        <time>2013-06-08T13:42:24Z</time>
      </trkpt>
      <trkpt lat="48.75368" lon="-3.44042">
        <ele>85.21</ele>
        <time>2013-06-08T13:42:25Z</time>
      </trkpt>
      <trkpt lat="48.75367" lon="-3.44034">
        <ele>85.21</ele>
        <time>2013-06-08T13:42:26Z</time>
      </trkpt>
      <trkpt lat="48.75366" lon="-3.43901">
        <ele>83.77</ele>
        <time>2013-06-08T13:42:40Z</time>
      </trkpt>
      <trkpt lat="48.75385" lon="-3.43794">
        <ele>83.77</ele>
        <time>2013-06-08T13:42:52Z</time>
      </trkpt>
      <trkpt lat="48.75411" lon="-3.43645">
        <ele>81.85</ele>
        <time>2013-06-08T13:43:10Z</time>
      </trkpt>
      <trkpt lat="48.75442" lon="-3.43494">
        <ele>79.93</ele>
        <time>2013-06-08T13:43:27Z</time>
      </trkpt>
      <trkpt lat="48.75445" lon="-3.43456">
        <ele>79.93</ele>
        <time>2013-06-08T13:43:31Z</time>
      </trkpt>
      <trkpt lat="48.75442" lon="-3.4339">
        <ele>80.89</ele>
        <time>2013-06-08T13:43:39Z</time>
      </trkpt>
      <trkpt lat="48.75442" lon="-3.43382">
        <ele>80.89</ele>
        <time>2013-06-08T13:43:40Z</time>
      </trkpt>
      <trkpt lat="48.75435" lon="-3.43276">
        <ele>81.85</ele>
        <time>2013-06-08T13:43:53Z</time>
      </trkpt>
      <trkpt lat="48.75434" lon="-3.43269">
        <ele>82.33</ele>
        <time>2013-06-08T13:43:54Z</time>
      </trkpt>
      <trkpt lat="48.75432" lon="-3.43253">
        <ele>82.33</ele>
        <time>2013-06-08T13:43:56Z</time>
      </trkpt>
      <trkpt lat="48.75421" lon="-3.43173">
        <ele>83.77</ele>
        <time>2013-06-08T13:44:06Z</time>
      </trkpt>
      <trkpt lat="48.75408" lon="-3.43135">
        <ele>81.85</ele>
        <time>2013-06-08T13:44:11Z</time>
      </trkpt>
      <trkpt lat="48.75404" lon="-3.43129">
        <ele>81.37</ele>
        <time>2013-06-08T13:44:12Z</time>
      </trkpt>
      <trkpt lat="48.754" lon="-3.43122">
        <ele>81.37</ele>
        <time>2013-06-08T13:44:13Z</time>
      </trkpt>
      <trkpt lat="48.75395" lon="-3.43116">
        <ele>80.89</ele>
        <time>2013-06-08T13:44:14Z</time>
      </trkpt>
      <trkpt lat="48.7539" lon="-3.43111">
        <ele>80.89</ele>
        <time>2013-06-08T13:44:15Z</time>
      </trkpt>
      <trkpt lat="48.75385" lon="-3.43106">
        <ele>80.89</ele>
        <time>2013-06-08T13:44:16Z</time>
      </trkpt>
      <trkpt lat="48.75378" lon="-3.43101">
        <ele>80.41</ele>
        <time>2013-06-08T13:44:17Z</time>
      </trkpt>
      <trkpt lat="48.75332" lon="-3.43069">
        <ele>79.93</ele>
        <time>2013-06-08T13:44:23Z</time>
      </trkpt>
      <trkpt lat="48.75325" lon="-3.43061">
        <ele>78.97</ele>
        <time>2013-06-08T13:44:24Z</time>
      </trkpt>
      <trkpt lat="48.75319" lon="-3.43053">
        <ele>78.97</ele>
        <time>2013-06-08T13:44:25Z</time>
      </trkpt>
      <trkpt lat="48.75314" lon="-3.43043">
        <ele>78.97</ele>
        <time>2013-06-08T13:44:26Z</time>
      </trkpt>
      <trkpt lat="48.7531" lon="-3.43033">
        <ele>78.97</ele>
        <time>2013-06-08T13:44:27Z</time>
      </trkpt>
      <trkpt lat="48.75305" lon="-3.43013">
        <ele>79.93</ele>
        <time>2013-06-08T13:44:29Z</time>
      </trkpt>
      <trkpt lat="48.75303" lon="-3.43004">
        <ele>78.97</ele>
        <time>2013-06-08T13:44:30Z</time>
      </trkpt>
      <trkpt lat="48.75285" lon="-3.42896">
        <ele>81.85</ele>
        <time>2013-06-08T13:44:44Z</time>
      </trkpt>
      <trkpt lat="48.75282" lon="-3.42881">
        <ele>81.85</ele>
        <time>2013-06-08T13:44:46Z</time>
      </trkpt>
      <trkpt lat="48.75253" lon="-3.42774">
        <ele>83.77</ele>
        <time>2013-06-08T13:45:01Z</time>
      </trkpt>
      <trkpt lat="48.75228" lon="-3.42666">
        <ele>86.66</ele>
        <time>2013-06-08T13:45:17Z</time>
      </trkpt>
      <trkpt lat="48.75224" lon="-3.42626">
        <ele>89.06</ele>
        <time>2013-06-08T13:45:23Z</time>
      </trkpt>
      <trkpt lat="48.75221" lon="-3.42584">
        <ele>90.02</ele>
        <time>2013-06-08T13:45:29Z</time>
      </trkpt>
      <trkpt lat="48.7522" lon="-3.42578">
        <ele>90.5</ele>
        <time>2013-06-08T13:45:30Z</time>
      </trkpt>
      <trkpt lat="48.75215" lon="-3.4253">
        <ele>91.46</ele>
        <time>2013-06-08T13:45:37Z</time>
      </trkpt>
      <trkpt lat="48.75214" lon="-3.42523">
        <ele>91.46</ele>
        <time>2013-06-08T13:45:38Z</time>
      </trkpt>
      <trkpt lat="48.75212" lon="-3.42517">
        <ele>91.46</ele>
        <time>2013-06-08T13:45:39Z</time>
      </trkpt>
      <trkpt lat="48.7521" lon="-3.42512">
        <ele>91.46</ele>
        <time>2013-06-08T13:45:40Z</time>
      </trkpt>
      <trkpt lat="48.75208" lon="-3.42508">
        <ele>91.94</ele>
        <time>2013-06-08T13:45:41Z</time>
      </trkpt>
      <trkpt lat="48.75207" lon="-3.42504">
        <ele>91.46</ele>
        <time>2013-06-08T13:45:42Z</time>
      </trkpt>
      <trkpt lat="48.75205" lon="-3.42502">
        <ele>91.94</ele>
        <time>2013-06-08T13:45:43Z</time>
      </trkpt>
      <trkpt lat="48.75203" lon="-3.42498">
        <ele>92.42</ele>
        <time>2013-06-08T13:45:44Z</time>
      </trkpt>
      <trkpt lat="48.75201" lon="-3.42493">
        <ele>92.9</ele>
        <time>2013-06-08T13:45:45Z</time>
      </trkpt>
      <trkpt lat="48.75199" lon="-3.42488">
        <ele>92.9</ele>
        <time>2013-06-08T13:45:46Z</time>
      </trkpt>
      <trkpt lat="48.75198" lon="-3.42481">
        <ele>92.9</ele>
        <time>2013-06-08T13:45:47Z</time>
      </trkpt>
      <trkpt lat="48.75197" lon="-3.42475">
        <ele>93.39</ele>
        <time>2013-06-08T13:45:48Z</time>
      </trkpt>
      <trkpt lat="48.75195" lon="-3.42469">
        <ele>92.9</ele>
        <time>2013-06-08T13:45:49Z</time>
      </trkpt>
      <trkpt lat="48.75189" lon="-3.42438">
        <ele>93.87</ele>
        <time>2013-06-08T13:45:54Z</time>
      </trkpt>
      <trkpt lat="48.75168" lon="-3.42307">
        <ele>94.83</ele>
        <time>2013-06-08T13:46:12Z</time>
      </trkpt>
      <trkpt lat="48.75158" lon="-3.4222">
        <ele>93.87</ele>
        <time>2013-06-08T13:46:22Z</time>
      </trkpt>
      <trkpt lat="48.75153" lon="-3.42192">
        <ele>91.94</ele>
        <time>2013-06-08T13:46:25Z</time>
      </trkpt>
      <trkpt lat="48.75141" lon="-3.42038">
        <ele>88.58</ele>
        <time>2013-06-08T13:46:41Z</time>
      </trkpt>
      <trkpt lat="48.75137" lon="-3.4193">
        <ele>87.62</ele>
        <time>2013-06-08T13:46:51Z</time>
      </trkpt>
      <trkpt lat="48.75135" lon="-3.4192">
        <ele>87.14</ele>
        <time>2013-06-08T13:46:52Z</time>
      </trkpt>
      <trkpt lat="48.75132" lon="-3.4191">
        <ele>87.14</ele>
        <time>2013-06-08T13:46:53Z</time>
      </trkpt>
      <trkpt lat="48.75128" lon="-3.41901">
        <ele>86.66</ele>
        <time>2013-06-08T13:46:54Z</time>
      </trkpt>
      <trkpt lat="48.75123" lon="-3.41894">
        <ele>85.69</ele>
        <time>2013-06-08T13:46:55Z</time>
      </trkpt>
      <trkpt lat="48.75118" lon="-3.41887">
        <ele>85.21</ele>
        <time>2013-06-08T13:46:56Z</time>
      </trkpt>
      <trkpt lat="48.75112" lon="-3.41882">
        <ele>84.73</ele>
        <time>2013-06-08T13:46:57Z</time>
      </trkpt>
      <trkpt lat="48.75108" lon="-3.41878">
        <ele>84.25</ele>
        <time>2013-06-08T13:46:58Z</time>
      </trkpt>
      <trkpt lat="48.75095" lon="-3.41862">
        <ele>83.77</ele>
        <time>2013-06-08T13:47:03Z</time>
      </trkpt>
      <trkpt lat="48.75095" lon="-3.41856">
        <ele>84.25</ele>
        <time>2013-06-08T13:47:04Z</time>
      </trkpt>
      <trkpt lat="48.75097" lon="-3.4185">
        <ele>84.25</ele>
        <time>2013-06-08T13:47:05Z</time>
      </trkpt>
      <trkpt lat="48.75106" lon="-3.41828">
        <ele>86.18</ele>
        <time>2013-06-08T13:47:09Z</time>
      </trkpt>
      <trkpt lat="48.75117" lon="-3.41804">
        <ele>86.18</ele>
        <time>2013-06-08T13:47:13Z</time>
      </trkpt>
      <trkpt lat="48.75148" lon="-3.4169">
        <ele>89.54</ele>
        <time>2013-06-08T13:47:30Z</time>
      </trkpt>
      <trkpt lat="48.75164" lon="-3.41526">
        <ele>88.1</ele>
        <time>2013-06-08T13:47:50Z</time>
      </trkpt>
      <trkpt lat="48.75168" lon="-3.41489">
        <ele>87.14</ele>
        <time>2013-06-08T13:47:54Z</time>
      </trkpt>
      <trkpt lat="48.75182" lon="-3.41406">
        <ele>86.18</ele>
        <time>2013-06-08T13:48:03Z</time>
      </trkpt>
      <trkpt lat="48.75188" lon="-3.41378">
        <ele>84.25</ele>
        <time>2013-06-08T13:48:06Z</time>
      </trkpt>
      <trkpt lat="48.75195" lon="-3.41337">
        <ele>82.81</ele>
        <time>2013-06-08T13:48:10Z</time>
      </trkpt>
      <trkpt lat="48.75226" lon="-3.41213">
        <ele>79.45</ele>
        <time>2013-06-08T13:48:21Z</time>
      </trkpt>
      <trkpt lat="48.75236" lon="-3.41192">
        <ele>78.48</ele>
        <time>2013-06-08T13:48:23Z</time>
      </trkpt>
      <trkpt lat="48.75251" lon="-3.41161">
        <ele>76.56</ele>
        <time>2013-06-08T13:48:26Z</time>
      </trkpt>
      <trkpt lat="48.75289" lon="-3.41061">
        <ele>75.6</ele>
        <time>2013-06-08T13:48:37Z</time>
      </trkpt>
      <trkpt lat="48.75294" lon="-3.41032">
        <ele>77.04</ele>
        <time>2013-06-08T13:48:41Z</time>
      </trkpt>
      <trkpt lat="48.75321" lon="-3.4096">
        <ele>80.41</ele>
        <time>2013-06-08T13:48:53Z</time>
      </trkpt>
      <trkpt lat="48.75344" lon="-3.409">
        <ele>83.77</ele>
        <time>2013-06-08T13:49:03Z</time>
      </trkpt>
      <trkpt lat="48.75346" lon="-3.40893">
        <ele>83.77</ele>
        <time>2013-06-08T13:49:04Z</time>
      </trkpt>
      <trkpt lat="48.75356" lon="-3.40869">
        <ele>85.21</ele>
        <time>2013-06-08T13:49:08Z</time>
      </trkpt>
      <trkpt lat="48.75396" lon="-3.40778">
        <ele>86.18</ele>
        <time>2013-06-08T13:49:24Z</time>
      </trkpt>
      <trkpt lat="48.75398" lon="-3.40772">
        <ele>86.18</ele>
        <time>2013-06-08T13:49:25Z</time>
      </trkpt>
      <trkpt lat="48.75417" lon="-3.40727">
        <ele>89.54</ele>
        <time>2013-06-08T13:49:35Z</time>
      </trkpt>
      <trkpt lat="48.75441" lon="-3.40642">
        <ele>91.94</ele>
        <time>2013-06-08T13:49:50Z</time>
      </trkpt>
      <trkpt lat="48.75471" lon="-3.40543">
        <ele>93.87</ele>
        <time>2013-06-08T13:50:06Z</time>
      </trkpt>
      <trkpt lat="48.75473" lon="-3.40537">
        <ele>93.87</ele>
        <time>2013-06-08T13:50:07Z</time>
      </trkpt>
      <trkpt lat="48.75503" lon="-3.40438">
        <ele>95.31</ele>
        <time>2013-06-08T13:50:23Z</time>
      </trkpt>
      <trkpt lat="48.75544" lon="-3.4034">
        <ele>97.71</ele>
        <time>2013-06-08T13:50:39Z</time>
      </trkpt>
      <trkpt lat="48.75565" lon="-3.40303">
        <ele>98.19</ele>
        <time>2013-06-08T13:50:46Z</time>
      </trkpt>
      <trkpt lat="48.75609" lon="-3.40215">
        <ele>100.11</ele>
        <time>2013-06-08T13:51:01Z</time>
      </trkpt>
      <trkpt lat="48.7565" lon="-3.40106">
        <ele>101.08</ele>
        <time>2013-06-08T13:51:18Z</time>
      </trkpt>
      <trkpt lat="48.75677" lon="-3.40032">
        <ele>104.92</ele>
        <time>2013-06-08T13:51:30Z</time>
      </trkpt>
      <trkpt lat="48.75679" lon="-3.40026">
        <ele>103.96</ele>
        <time>2013-06-08T13:51:31Z</time>
      </trkpt>
      <trkpt lat="48.75683" lon="-3.40014">
        <ele>103.48</ele>
        <time>2013-06-08T13:51:33Z</time>
      </trkpt>
      <trkpt lat="48.75719" lon="-3.39887">
        <ele>104.92</ele>
        <time>2013-06-08T13:51:52Z</time>
      </trkpt>
      <trkpt lat="48.75735" lon="-3.39833">
        <ele>105.88</ele>
        <time>2013-06-08T13:52:00Z</time>
      </trkpt>
      <trkpt lat="48.75804" lon="-3.3974">
        <ele>106.36</ele>
        <time>2013-06-08T13:52:19Z</time>
      </trkpt>
      <trkpt lat="48.75882" lon="-3.3965">
        <ele>107.81</ele>
        <time>2013-06-08T13:52:39Z</time>
      </trkpt>
      <trkpt lat="48.75947" lon="-3.39575">
        <ele>105.4</ele>
        <time>2013-06-08T13:52:55Z</time>
      </trkpt>
      <trkpt lat="48.76018" lon="-3.39481">
        <ele>104.44</ele>
        <time>2013-06-08T13:53:12Z</time>
      </trkpt>
      <trkpt lat="48.76093" lon="-3.39421">
        <ele>102.04</ele>
        <time>2013-06-08T13:53:27Z</time>
      </trkpt>
      <trkpt lat="48.76161" lon="-3.39344">
        <ele>101.08</ele>
        <time>2013-06-08T13:53:42Z</time>
      </trkpt>
      <trkpt lat="48.76235" lon="-3.39237">
        <ele>100.11</ele>
        <time>2013-06-08T13:54:00Z</time>
      </trkpt>
      <trkpt lat="48.76297" lon="-3.39128">
        <ele>98.19</ele>
        <time>2013-06-08T13:54:17Z</time>
      </trkpt>
      <trkpt lat="48.76367" lon="-3.39004">
        <ele>97.23</ele>
        <time>2013-06-08T13:54:36Z</time>
      </trkpt>
      <trkpt lat="48.76412" lon="-3.38886">
        <ele>96.75</ele>
        <time>2013-06-08T13:54:52Z</time>
      </trkpt>
      <trkpt lat="48.76455" lon="-3.3874">
        <ele>95.79</ele>
        <time>2013-06-08T13:55:10Z</time>
      </trkpt>
      <trkpt lat="48.76499" lon="-3.38579">
        <ele>95.31</ele>
        <time>2013-06-08T13:55:30Z</time>
      </trkpt>
      <trkpt lat="48.76542" lon="-3.38428">
        <ele>95.31</ele>
        <time>2013-06-08T13:55:49Z</time>
      </trkpt>
      <trkpt lat="48.76555" lon="-3.38381">
        <ele>94.83</ele>
        <time>2013-06-08T13:55:55Z</time>
      </trkpt>
      <trkpt lat="48.76601" lon="-3.38214">
        <ele>93.87</ele>
        <time>2013-06-08T13:56:16Z</time>
      </trkpt>
      <trkpt lat="48.76627" lon="-3.38121">
        <ele>91.94</ele>
        <time>2013-06-08T13:56:27Z</time>
      </trkpt>
      <trkpt lat="48.76678" lon="-3.37948">
        <ele>91.94</ele>
        <time>2013-06-08T13:56:47Z</time>
      </trkpt>
      <trkpt lat="48.76726" lon="-3.37786">
        <ele>92.9</ele>
        <time>2013-06-08T13:57:08Z</time>
      </trkpt>
      <trkpt lat="48.76774" lon="-3.37628">
        <ele>91.46</ele>
        <time>2013-06-08T13:57:28Z</time>
      </trkpt>
      <trkpt lat="48.76827" lon="-3.37456">
        <ele>89.54</ele>
        <time>2013-06-08T13:57:48Z</time>
      </trkpt>
      <trkpt lat="48.76884" lon="-3.37296">
        <ele>89.54</ele>
        <time>2013-06-08T13:58:09Z</time>
      </trkpt>
      <trkpt lat="48.76922" lon="-3.37148">
        <ele>88.58</ele>
        <time>2013-06-08T13:58:27Z</time>
      </trkpt>
      <trkpt lat="48.76975" lon="-3.37015">
        <ele>88.1</ele>
        <time>2013-06-08T13:58:45Z</time>
      </trkpt>
      <trkpt lat="48.77028" lon="-3.36922">
        <ele>89.54</ele>
        <time>2013-06-08T13:59:00Z</time>
      </trkpt>
      <trkpt lat="48.77064" lon="-3.36848">
        <ele>92.42</ele>
        <time>2013-06-08T13:59:12Z</time>
      </trkpt>
      <trkpt lat="48.77123" lon="-3.36768">
        <ele>94.35</ele>
        <time>2013-06-08T13:59:28Z</time>
      </trkpt>
      <trkpt lat="48.77173" lon="-3.36678">
        <ele>93.87</ele>
        <time>2013-06-08T13:59:42Z</time>
      </trkpt>
      <trkpt lat="48.7719" lon="-3.36603">
        <ele>96.27</ele>
        <time>2013-06-08T13:59:54Z</time>
      </trkpt>
      <trkpt lat="48.77193" lon="-3.36592">
        <ele>97.23</ele>
        <time>2013-06-08T13:59:56Z</time>
      </trkpt>
      <trkpt lat="48.77195" lon="-3.36587">
        <ele>97.23</ele>
        <time>2013-06-08T13:59:57Z</time>
      </trkpt>
      <trkpt lat="48.77197" lon="-3.36582">
        <ele>98.19</ele>
        <time>2013-06-08T13:59:58Z</time>
      </trkpt>
      <trkpt lat="48.77201" lon="-3.36578">
        <ele>98.19</ele>
        <time>2013-06-08T13:59:59Z</time>
      </trkpt>
      <trkpt lat="48.77205" lon="-3.36575">
        <ele>97.23</ele>
        <time>2013-06-08T14:00:00Z</time>
      </trkpt>
      <trkpt lat="48.77209" lon="-3.36572">
        <ele>97.71</ele>
        <time>2013-06-08T14:00:01Z</time>
      </trkpt>
      <trkpt lat="48.77214" lon="-3.36568">
        <ele>97.23</ele>
        <time>2013-06-08T14:00:02Z</time>
      </trkpt>
      <trkpt lat="48.77218" lon="-3.36564">
        <ele>96.75</ele>
        <time>2013-06-08T14:00:03Z</time>
      </trkpt>
      <trkpt lat="48.77222" lon="-3.36559">
        <ele>96.75</ele>
        <time>2013-06-08T14:00:04Z</time>
      </trkpt>
      <trkpt lat="48.77227" lon="-3.36553">
        <ele>96.27</ele>
        <time>2013-06-08T14:00:05Z</time>
      </trkpt>
      <trkpt lat="48.77292" lon="-3.36448">
        <ele>96.75</ele>
        <time>2013-06-08T14:00:23Z</time>
      </trkpt>
      <trkpt lat="48.77345" lon="-3.36319">
        <ele>97.71</ele>
        <time>2013-06-08T14:00:42Z</time>
      </trkpt>
      <trkpt lat="48.77404" lon="-3.36197">
        <ele>97.71</ele>
        <time>2013-06-08T14:01:00Z</time>
      </trkpt>
      <trkpt lat="48.77413" lon="-3.36178">
        <ele>99.15</ele>
        <time>2013-06-08T14:01:03Z</time>
      </trkpt>
      <trkpt lat="48.77424" lon="-3.36154">
        <ele>97.23</ele>
        <time>2013-06-08T14:01:07Z</time>
      </trkpt>
      <trkpt lat="48.77478" lon="-3.36028">
        <ele>99.15</ele>
        <time>2013-06-08T14:01:26Z</time>
      </trkpt>
      <trkpt lat="48.77517" lon="-3.359">
        <ele>100.6</ele>
        <time>2013-06-08T14:01:45Z</time>
      </trkpt>
      <trkpt lat="48.77569" lon="-3.35778">
        <ele>98.67</ele>
        <time>2013-06-08T14:02:03Z</time>
      </trkpt>
      <trkpt lat="48.77615" lon="-3.35635">
        <ele>99.15</ele>
        <time>2013-06-08T14:02:23Z</time>
      </trkpt>
      <trkpt lat="48.77659" lon="-3.35512">
        <ele>98.67</ele>
        <time>2013-06-08T14:02:40Z</time>
      </trkpt>
      <trkpt lat="48.7771" lon="-3.35389">
        <ele>98.19</ele>
        <time>2013-06-08T14:02:57Z</time>
      </trkpt>
      <trkpt lat="48.77752" lon="-3.35266">
        <ele>98.67</ele>
        <time>2013-06-08T14:03:14Z</time>
      </trkpt>
      <trkpt lat="48.77792" lon="-3.35105">
        <ele>99.63</ele>
        <time>2013-06-08T14:03:35Z</time>
      </trkpt>
      <trkpt lat="48.77807" lon="-3.34997">
        <ele>99.15</ele>
        <time>2013-06-08T14:03:47Z</time>
      </trkpt>
      <trkpt lat="48.77828" lon="-3.34862">
        <ele>97.23</ele>
        <time>2013-06-08T14:04:01Z</time>
      </trkpt>
      <trkpt lat="48.77872" lon="-3.34693">
        <ele>97.23</ele>
        <time>2013-06-08T14:04:19Z</time>
      </trkpt>
      <trkpt lat="48.77901" lon="-3.34545">
        <ele>98.67</ele>
        <time>2013-06-08T14:04:36Z</time>
      </trkpt>
      <trkpt lat="48.7794" lon="-3.34403">
        <ele>99.15</ele>
        <time>2013-06-08T14:04:52Z</time>
      </trkpt>
      <trkpt lat="48.77961" lon="-3.34346">
        <ele>97.71</ele>
        <time>2013-06-08T14:04:59Z</time>
      </trkpt>
      <trkpt lat="48.77963" lon="-3.34339">
        <ele>97.71</ele>
        <time>2013-06-08T14:05:00Z</time>
      </trkpt>
      <trkpt lat="48.77967" lon="-3.34331">
        <ele>98.19</ele>
        <time>2013-06-08T14:05:01Z</time>
      </trkpt>
      <trkpt lat="48.77986" lon="-3.34286">
        <ele>97.23</ele>
        <time>2013-06-08T14:05:07Z</time>
      </trkpt>
      <trkpt lat="48.78012" lon="-3.34154">
        <ele>97.23</ele>
        <time>2013-06-08T14:05:23Z</time>
      </trkpt>
      <trkpt lat="48.78024" lon="-3.34064">
        <ele>101.08</ele>
        <time>2013-06-08T14:05:35Z</time>
      </trkpt>
      <trkpt lat="48.78026" lon="-3.34058">
        <ele>101.56</ele>
        <time>2013-06-08T14:05:36Z</time>
      </trkpt>
      <trkpt lat="48.78027" lon="-3.34051">
        <ele>100.6</ele>
        <time>2013-06-08T14:05:37Z</time>
      </trkpt>
      <trkpt lat="48.78029" lon="-3.34044">
        <ele>101.08</ele>
        <time>2013-06-08T14:05:38Z</time>
      </trkpt>
      <trkpt lat="48.78035" lon="-3.34024">
        <ele>101.56</ele>
        <time>2013-06-08T14:05:41Z</time>
      </trkpt>
      <trkpt lat="48.7804" lon="-3.34005">
        <ele>102.04</ele>
        <time>2013-06-08T14:05:44Z</time>
      </trkpt>
      <trkpt lat="48.78043" lon="-3.33984">
        <ele>102.04</ele>
        <time>2013-06-08T14:05:47Z</time>
      </trkpt>
      <trkpt lat="48.78069" lon="-3.33857">
        <ele>99.63</ele>
        <time>2013-06-08T14:06:02Z</time>
      </trkpt>
      <trkpt lat="48.7808" lon="-3.33798">
        <ele>96.75</ele>
        <time>2013-06-08T14:06:07Z</time>
      </trkpt>
      <trkpt lat="48.7812" lon="-3.33655">
        <ele>96.27</ele>
        <time>2013-06-08T14:06:21Z</time>
      </trkpt>
      <trkpt lat="48.78163" lon="-3.33532">
        <ele>98.67</ele>
        <time>2013-06-08T14:06:37Z</time>
      </trkpt>
      <trkpt lat="48.7822" lon="-3.33446">
        <ele>100.11</ele>
        <time>2013-06-08T14:06:53Z</time>
      </trkpt>
      <trkpt lat="48.7825" lon="-3.33411">
        <ele>101.08</ele>
        <time>2013-06-08T14:07:01Z</time>
      </trkpt>
      <trkpt lat="48.78254" lon="-3.33405">
        <ele>101.56</ele>
        <time>2013-06-08T14:07:02Z</time>
      </trkpt>
      <trkpt lat="48.78313" lon="-3.3329">
        <ele>102.52</ele>
        <time>2013-06-08T14:07:21Z</time>
      </trkpt>
      <trkpt lat="48.78373" lon="-3.3316">
        <ele>103.48</ele>
        <time>2013-06-08T14:07:40Z</time>
      </trkpt>
      <trkpt lat="48.78428" lon="-3.33031">
        <ele>100.6</ele>
        <time>2013-06-08T14:07:55Z</time>
      </trkpt>
      <trkpt lat="48.78466" lon="-3.32952">
        <ele>100.11</ele>
        <time>2013-06-08T14:08:05Z</time>
      </trkpt>
      <trkpt lat="48.7847" lon="-3.32946">
        <ele>100.6</ele>
        <time>2013-06-08T14:08:06Z</time>
      </trkpt>
      <trkpt lat="48.78475" lon="-3.32941">
        <ele>101.08</ele>
        <time>2013-06-08T14:08:07Z</time>
      </trkpt>
      <trkpt lat="48.78488" lon="-3.32928">
        <ele>101.08</ele>
        <time>2013-06-08T14:08:10Z</time>
      </trkpt>
      <trkpt lat="48.78491" lon="-3.32922">
        <ele>101.08</ele>
        <time>2013-06-08T14:08:11Z</time>
      </trkpt>
      <trkpt lat="48.78492" lon="-3.32915">
        <ele>100.6</ele>
        <time>2013-06-08T14:08:12Z</time>
      </trkpt>
      <trkpt lat="48.78496" lon="-3.32901">
        <ele>99.63</ele>
        <time>2013-06-08T14:08:14Z</time>
      </trkpt>
      <trkpt lat="48.785" lon="-3.32895">
        <ele>100.11</ele>
        <time>2013-06-08T14:08:15Z</time>
      </trkpt>
      <trkpt lat="48.78504" lon="-3.32891">
        <ele>100.11</ele>
        <time>2013-06-08T14:08:16Z</time>
      </trkpt>
      <trkpt lat="48.78512" lon="-3.32883">
        <ele>101.08</ele>
        <time>2013-06-08T14:08:18Z</time>
      </trkpt>
      <trkpt lat="48.78516" lon="-3.32877">
        <ele>101.56</ele>
        <time>2013-06-08T14:08:19Z</time>
      </trkpt>
      <trkpt lat="48.7852" lon="-3.3287">
        <ele>101.08</ele>
        <time>2013-06-08T14:08:20Z</time>
      </trkpt>
      <trkpt lat="48.78573" lon="-3.32771">
        <ele>100.6</ele>
        <time>2013-06-08T14:08:35Z</time>
      </trkpt>
      <trkpt lat="48.78575" lon="-3.32763">
        <ele>101.08</ele>
        <time>2013-06-08T14:08:36Z</time>
      </trkpt>
      <trkpt lat="48.78578" lon="-3.32755">
        <ele>100.11</ele>
        <time>2013-06-08T14:08:37Z</time>
      </trkpt>
      <trkpt lat="48.7858" lon="-3.32747">
        <ele>100.11</ele>
        <time>2013-06-08T14:08:38Z</time>
      </trkpt>
      <trkpt lat="48.78606" lon="-3.32658">
        <ele>99.15</ele>
        <time>2013-06-08T14:08:48Z</time>
      </trkpt>
      <trkpt lat="48.78631" lon="-3.32613">
        <ele>96.75</ele>
        <time>2013-06-08T14:08:54Z</time>
      </trkpt>
      <trkpt lat="48.78703" lon="-3.32541">
        <ele>95.31</ele>
        <time>2013-06-08T14:09:07Z</time>
      </trkpt>
      <trkpt lat="48.78731" lon="-3.32517">
        <ele>93.87</ele>
        <time>2013-06-08T14:09:12Z</time>
      </trkpt>
      <trkpt lat="48.78742" lon="-3.32507">
        <ele>93.39</ele>
        <time>2013-06-08T14:09:14Z</time>
      </trkpt>
      <trkpt lat="48.78822" lon="-3.32399">
        <ele>90.98</ele>
        <time>2013-06-08T14:09:31Z</time>
      </trkpt>
      <trkpt lat="48.78913" lon="-3.32266">
        <ele>89.54</ele>
        <time>2013-06-08T14:09:51Z</time>
      </trkpt>
      <trkpt lat="48.79009" lon="-3.32153">
        <ele>89.06</ele>
        <time>2013-06-08T14:10:11Z</time>
      </trkpt>
      <trkpt lat="48.79088" lon="-3.3206">
        <ele>87.62</ele>
        <time>2013-06-08T14:10:28Z</time>
      </trkpt>
      <trkpt lat="48.7918" lon="-3.31935">
        <ele>86.66</ele>
        <time>2013-06-08T14:10:49Z</time>
      </trkpt>
      <trkpt lat="48.79258" lon="-3.31797">
        <ele>85.69</ele>
        <time>2013-06-08T14:11:10Z</time>
      </trkpt>
      <trkpt lat="48.79311" lon="-3.31685">
        <ele>86.66</ele>
        <time>2013-06-08T14:11:26Z</time>
      </trkpt>
      <trkpt lat="48.7938" lon="-3.31544">
        <ele>84.73</ele>
        <time>2013-06-08T14:11:46Z</time>
      </trkpt>
      <trkpt lat="48.79452" lon="-3.31461">
        <ele>85.21</ele>
        <time>2013-06-08T14:12:02Z</time>
      </trkpt>
      <trkpt lat="48.79566" lon="-3.31396">
        <ele>83.77</ele>
        <time>2013-06-08T14:12:22Z</time>
      </trkpt>
      <trkpt lat="48.79687" lon="-3.31325">
        <ele>83.77</ele>
        <time>2013-06-08T14:12:44Z</time>
      </trkpt>
      <trkpt lat="48.79699" lon="-3.31313">
        <ele>84.73</ele>
        <time>2013-06-08T14:12:47Z</time>
      </trkpt>
      <trkpt lat="48.79703" lon="-3.31309">
        <ele>84.25</ele>
        <time>2013-06-08T14:12:48Z</time>
      </trkpt>
      <trkpt lat="48.79711" lon="-3.31299">
        <ele>82.33</ele>
        <time>2013-06-08T14:12:57Z</time>
      </trkpt>
      <trkpt lat="48.79712" lon="-3.31298">
        <ele>82.81</ele>
        <time>2013-06-08T14:12:59Z</time>
      </trkpt>
      <trkpt lat="48.79718" lon="-3.31294">
        <ele>82.81</ele>
        <time>2013-06-08T14:13:02Z</time>
      </trkpt>
      <trkpt lat="48.79722" lon="-3.31293">
        <ele>82.81</ele>
        <time>2013-06-08T14:13:03Z</time>
      </trkpt>
      <trkpt lat="48.79729" lon="-3.31292">
        <ele>84.73</ele>
        <time>2013-06-08T14:13:05Z</time>
      </trkpt>
      <trkpt lat="48.79734" lon="-3.31291">
        <ele>84.73</ele>
        <time>2013-06-08T14:13:06Z</time>
      </trkpt>
      <trkpt lat="48.79738" lon="-3.3129">
        <ele>85.21</ele>
        <time>2013-06-08T14:13:07Z</time>
      </trkpt>
      <trkpt lat="48.79743" lon="-3.31288">
        <ele>84.73</ele>
        <time>2013-06-08T14:13:08Z</time>
      </trkpt>
      <trkpt lat="48.79747" lon="-3.31285">
        <ele>85.21</ele>
        <time>2013-06-08T14:13:09Z</time>
      </trkpt>
      <trkpt lat="48.79752" lon="-3.31282">
        <ele>84.73</ele>
        <time>2013-06-08T14:13:10Z</time>
      </trkpt>
      <trkpt lat="48.79835" lon="-3.31213">
        <ele>86.66</ele>
        <time>2013-06-08T14:13:29Z</time>
      </trkpt>
      <trkpt lat="48.79913" lon="-3.31145">
        <ele>87.14</ele>
        <time>2013-06-08T14:13:46Z</time>
      </trkpt>
      <trkpt lat="48.80023" lon="-3.31076">
        <ele>85.21</ele>
        <time>2013-06-08T14:14:05Z</time>
      </trkpt>
      <trkpt lat="48.80122" lon="-3.31002">
        <ele>82.33</ele>
        <time>2013-06-08T14:14:22Z</time>
      </trkpt>
      <trkpt lat="48.80212" lon="-3.30936">
        <ele>82.81</ele>
        <time>2013-06-08T14:14:38Z</time>
      </trkpt>
      <trkpt lat="48.80309" lon="-3.30877">
        <ele>81.85</ele>
        <time>2013-06-08T14:14:55Z</time>
      </trkpt>
      <trkpt lat="48.80421" lon="-3.30822">
        <ele>79.93</ele>
        <time>2013-06-08T14:15:14Z</time>
      </trkpt>
      <trkpt lat="48.80547" lon="-3.30744">
        <ele>79.93</ele>
        <time>2013-06-08T14:15:36Z</time>
      </trkpt>
      <trkpt lat="48.80641" lon="-3.30621">
        <ele>78.48</ele>
        <time>2013-06-08T14:15:56Z</time>
      </trkpt>
      <trkpt lat="48.80695" lon="-3.30518">
        <ele>77.52</ele>
        <time>2013-06-08T14:16:10Z</time>
      </trkpt>
      <trkpt lat="48.80697" lon="-3.3051">
        <ele>77.52</ele>
        <time>2013-06-08T14:16:11Z</time>
      </trkpt>
      <trkpt lat="48.80721" lon="-3.30426">
        <ele>78</ele>
        <time>2013-06-08T14:16:21Z</time>
      </trkpt>
      <trkpt lat="48.80763" lon="-3.30299">
        <ele>77.04</ele>
        <time>2013-06-08T14:16:37Z</time>
      </trkpt>
      <trkpt lat="48.80788" lon="-3.30251">
        <ele>77.04</ele>
        <time>2013-06-08T14:16:44Z</time>
      </trkpt>
      <trkpt lat="48.80792" lon="-3.30244">
        <ele>76.56</ele>
        <time>2013-06-08T14:16:45Z</time>
      </trkpt>
      <trkpt lat="48.80808" lon="-3.30217">
        <ele>76.56</ele>
        <time>2013-06-08T14:16:49Z</time>
      </trkpt>
      <trkpt lat="48.80858" lon="-3.30095">
        <ele>74.64</ele>
        <time>2013-06-08T14:17:05Z</time>
      </trkpt>
      <trkpt lat="48.80924" lon="-3.3001">
        <ele>74.64</ele>
        <time>2013-06-08T14:17:20Z</time>
      </trkpt>
      <trkpt lat="48.80958" lon="-3.29967">
        <ele>74.64</ele>
        <time>2013-06-08T14:17:28Z</time>
      </trkpt>
      <trkpt lat="48.81026" lon="-3.2982">
        <ele>72.24</ele>
        <time>2013-06-08T14:17:47Z</time>
      </trkpt>
      <trkpt lat="48.81067" lon="-3.29726">
        <ele>70.31</ele>
        <time>2013-06-08T14:17:59Z</time>
      </trkpt>
      <trkpt lat="48.81072" lon="-3.2972">
        <ele>70.31</ele>
        <time>2013-06-08T14:18:00Z</time>
      </trkpt>
      <trkpt lat="48.81086" lon="-3.29703">
        <ele>70.79</ele>
        <time>2013-06-08T14:18:03Z</time>
      </trkpt>
      <trkpt lat="48.81092" lon="-3.29699">
        <ele>70.79</ele>
        <time>2013-06-08T14:18:04Z</time>
      </trkpt>
      <trkpt lat="48.81168" lon="-3.29638">
        <ele>68.87</ele>
        <time>2013-06-08T14:18:19Z</time>
      </trkpt>
      <trkpt lat="48.81172" lon="-3.29633">
        <ele>69.35</ele>
        <time>2013-06-08T14:18:20Z</time>
      </trkpt>
      <trkpt lat="48.81175" lon="-3.29627">
        <ele>68.39</ele>
        <time>2013-06-08T14:18:21Z</time>
      </trkpt>
      <trkpt lat="48.81176" lon="-3.29619">
        <ele>67.91</ele>
        <time>2013-06-08T14:18:22Z</time>
      </trkpt>
      <trkpt lat="48.81177" lon="-3.29611">
        <ele>67.91</ele>
        <time>2013-06-08T14:18:23Z</time>
      </trkpt>
      <trkpt lat="48.81177" lon="-3.29603">
        <ele>67.91</ele>
        <time>2013-06-08T14:18:24Z</time>
      </trkpt>
      <trkpt lat="48.81178" lon="-3.29573">
        <ele>65.99</ele>
        <time>2013-06-08T14:18:32Z</time>
      </trkpt>
      <trkpt lat="48.81178" lon="-3.29574">
        <ele>66.47</ele>
        <time>2013-06-08T14:18:37Z</time>
      </trkpt>
      <trkpt lat="48.8118" lon="-3.29567">
        <ele>66.95</ele>
        <time>2013-06-08T14:18:40Z</time>
      </trkpt>
      <trkpt lat="48.81181" lon="-3.29565">
        <ele>66.95</ele>
        <time>2013-06-08T14:18:41Z</time>
      </trkpt>
      <trkpt lat="48.81199" lon="-3.29557">
        <ele>66.47</ele>
        <time>2013-06-08T14:18:55Z</time>
      </trkpt>
      <trkpt lat="48.81204" lon="-3.29561">
        <ele>66.95</ele>
        <time>2013-06-08T14:19:15Z</time>
      </trkpt>
      <trkpt lat="48.81201" lon="-3.29563">
        <ele>66.95</ele>
        <time>2013-06-08T14:19:39Z</time>
      </trkpt>
      <trkpt lat="48.81201" lon="-3.29564">
        <ele>67.43</ele>
        <time>2013-06-08T14:20:00Z</time>
      </trkpt>
      <trkpt lat="48.81196" lon="-3.29564">
        <ele>67.43</ele>
        <time>2013-06-08T14:20:28Z</time>
      </trkpt>
      <trkpt lat="48.81197" lon="-3.29563">
        <ele>67.43</ele>
        <time>2013-06-08T14:20:52Z</time>
      </trkpt>
      <trkpt lat="48.81196" lon="-3.2956">
        <ele>68.39</ele>
        <time>2013-06-08T14:21:18Z</time>
      </trkpt>
      <trkpt lat="48.81195" lon="-3.29561">
        <ele>67.91</ele>
        <time>2013-06-08T14:21:43Z</time>
      </trkpt>
      <trkpt lat="48.81194" lon="-3.29561">
        <ele>68.39</ele>
        <time>2013-06-08T14:22:05Z</time>
      </trkpt>
      <trkpt lat="48.81195" lon="-3.29561">
        <ele>68.39</ele>
        <time>2013-06-08T14:22:27Z</time>
      </trkpt>
      <trkpt lat="48.81196" lon="-3.29559">
        <ele>68.39</ele>
        <time>2013-06-08T14:22:28Z</time>
      </trkpt>
      <trkpt lat="48.81197" lon="-3.29557">
        <ele>68.87</ele>
        <time>2013-06-08T14:22:29Z</time>
      </trkpt>
      <trkpt lat="48.81198" lon="-3.29554">
        <ele>68.39</ele>
        <time>2013-06-08T14:22:30Z</time>
      </trkpt>
      <trkpt lat="48.81199" lon="-3.29551">
        <ele>68.87</ele>
        <time>2013-06-08T14:22:31Z</time>
      </trkpt>
      <trkpt lat="48.812" lon="-3.2955">
        <ele>68.87</ele>
        <time>2013-06-08T14:22:32Z</time>
      </trkpt>
      <trkpt lat="48.812" lon="-3.29549">
        <ele>68.87</ele>
        <time>2013-06-08T14:22:33Z</time>
      </trkpt>
      <trkpt lat="48.81201" lon="-3.29549">
        <ele>68.87</ele>
        <time>2013-06-08T14:22:34Z</time>
      </trkpt>
      <trkpt lat="48.81202" lon="-3.29549">
        <ele>68.87</ele>
        <time>2013-06-08T14:22:35Z</time>
      </trkpt>
      <trkpt lat="48.81233" lon="-3.29542">
        <ele>68.87</ele>
        <time>2013-06-08T14:22:44Z</time>
      </trkpt>
      <trkpt lat="48.81253" lon="-3.29544">
        <ele>69.35</ele>
        <time>2013-06-08T14:22:48Z</time>
      </trkpt>
      <trkpt lat="48.81258" lon="-3.29542">
        <ele>69.35</ele>
        <time>2013-06-08T14:22:49Z</time>
      </trkpt>
      <trkpt lat="48.81263" lon="-3.29539">
        <ele>68.39</ele>
        <time>2013-06-08T14:22:50Z</time>
      </trkpt>
      <trkpt lat="48.81278" lon="-3.29532">
        <ele>68.87</ele>
        <time>2013-06-08T14:22:53Z</time>
      </trkpt>
      <trkpt lat="48.81284" lon="-3.29529">
        <ele>68.39</ele>
        <time>2013-06-08T14:22:54Z</time>
      </trkpt>
      <trkpt lat="48.81354" lon="-3.29467">
        <ele>68.39</ele>
        <time>2013-06-08T14:23:08Z</time>
      </trkpt>
      <trkpt lat="48.81421" lon="-3.29354">
        <ele>66.95</ele>
        <time>2013-06-08T14:23:24Z</time>
      </trkpt>
      <trkpt lat="48.81458" lon="-3.29263">
        <ele>66.95</ele>
        <time>2013-06-08T14:23:36Z</time>
      </trkpt>
      <trkpt lat="48.81462" lon="-3.29246">
        <ele>66.47</ele>
        <time>2013-06-08T14:23:38Z</time>
      </trkpt>
      <trkpt lat="48.81464" lon="-3.29238">
        <ele>65.99</ele>
        <time>2013-06-08T14:23:39Z</time>
      </trkpt>
      <trkpt lat="48.81472" lon="-3.29099">
        <ele>65.99</ele>
        <time>2013-06-08T14:23:55Z</time>
      </trkpt>
      <trkpt lat="48.81496" lon="-3.2896">
        <ele>65.99</ele>
        <time>2013-06-08T14:24:11Z</time>
      </trkpt>
      <trkpt lat="48.81535" lon="-3.28795">
        <ele>64.55</ele>
        <time>2013-06-08T14:24:30Z</time>
      </trkpt>
      <trkpt lat="48.8155" lon="-3.28734">
        <ele>65.03</ele>
        <time>2013-06-08T14:24:37Z</time>
      </trkpt>
      <trkpt lat="48.81567" lon="-3.28588">
        <ele>65.51</ele>
        <time>2013-06-08T14:24:54Z</time>
      </trkpt>
      <trkpt lat="48.81587" lon="-3.28474">
        <ele>66.95</ele>
        <time>2013-06-08T14:25:09Z</time>
      </trkpt>
      <trkpt lat="48.81592" lon="-3.28446">
        <ele>67.91</ele>
        <time>2013-06-08T14:25:13Z</time>
      </trkpt>
      <trkpt lat="48.81597" lon="-3.28325">
        <ele>68.87</ele>
        <time>2013-06-08T14:25:29Z</time>
      </trkpt>
      <trkpt lat="48.81604" lon="-3.28203">
        <ele>69.83</ele>
        <time>2013-06-08T14:25:45Z</time>
      </trkpt>
      <trkpt lat="48.81636" lon="-3.28089">
        <ele>70.31</ele>
        <time>2013-06-08T14:26:01Z</time>
      </trkpt>
      <trkpt lat="48.81683" lon="-3.27969">
        <ele>71.27</ele>
        <time>2013-06-08T14:26:19Z</time>
      </trkpt>
      <trkpt lat="48.81723" lon="-3.2789">
        <ele>70.31</ele>
        <time>2013-06-08T14:26:32Z</time>
      </trkpt>
      <trkpt lat="48.81763" lon="-3.27766">
        <ele>69.35</ele>
        <time>2013-06-08T14:26:49Z</time>
      </trkpt>
      <trkpt lat="48.81807" lon="-3.2761">
        <ele>68.87</ele>
        <time>2013-06-08T14:27:09Z</time>
      </trkpt>
      <trkpt lat="48.81855" lon="-3.27467">
        <ele>68.87</ele>
        <time>2013-06-08T14:27:29Z</time>
      </trkpt>
      <trkpt lat="48.81872" lon="-3.27352">
        <ele>70.79</ele>
        <time>2013-06-08T14:27:45Z</time>
      </trkpt>
      <trkpt lat="48.81873" lon="-3.27233">
        <ele>72.24</ele>
        <time>2013-06-08T14:28:01Z</time>
      </trkpt>
      <trkpt lat="48.81879" lon="-3.2709">
        <ele>70.79</ele>
        <time>2013-06-08T14:28:19Z</time>
      </trkpt>
      <trkpt lat="48.81865" lon="-3.26962">
        <ele>72.24</ele>
        <time>2013-06-08T14:28:34Z</time>
      </trkpt>
      <trkpt lat="48.81862" lon="-3.2692">
        <ele>70.31</ele>
        <time>2013-06-08T14:28:39Z</time>
      </trkpt>
      <trkpt lat="48.8187" lon="-3.26864">
        <ele>70.79</ele>
        <time>2013-06-08T14:28:46Z</time>
      </trkpt>
      <trkpt lat="48.81915" lon="-3.26775">
        <ele>71.27</ele>
        <time>2013-06-08T14:29:00Z</time>
      </trkpt>
      <trkpt lat="48.8198" lon="-3.26669">
        <ele>70.31</ele>
        <time>2013-06-08T14:29:18Z</time>
      </trkpt>
      <trkpt lat="48.82" lon="-3.26631">
        <ele>69.35</ele>
        <time>2013-06-08T14:29:24Z</time>
      </trkpt>
      <trkpt lat="48.82017" lon="-3.26524">
        <ele>67.43</ele>
        <time>2013-06-08T14:29:37Z</time>
      </trkpt>
      <trkpt lat="48.82018" lon="-3.26499">
        <ele>67.43</ele>
        <time>2013-06-08T14:29:40Z</time>
      </trkpt>
      <trkpt lat="48.82018" lon="-3.2649">
        <ele>67.43</ele>
        <time>2013-06-08T14:29:41Z</time>
      </trkpt>
      <trkpt lat="48.82017" lon="-3.26481">
        <ele>66.95</ele>
        <time>2013-06-08T14:29:42Z</time>
      </trkpt>
      <trkpt lat="48.82015" lon="-3.26473">
        <ele>66.47</ele>
        <time>2013-06-08T14:29:43Z</time>
      </trkpt>
      <trkpt lat="48.82013" lon="-3.26464">
        <ele>66.95</ele>
        <time>2013-06-08T14:29:44Z</time>
      </trkpt>
      <trkpt lat="48.8201" lon="-3.26456">
        <ele>66.95</ele>
        <time>2013-06-08T14:29:45Z</time>
      </trkpt>
      <trkpt lat="48.82007" lon="-3.26448">
        <ele>66.95</ele>
        <time>2013-06-08T14:29:46Z</time>
      </trkpt>
      <trkpt lat="48.81984" lon="-3.26338">
        <ele>67.91</ele>
        <time>2013-06-08T14:30:00Z</time>
      </trkpt>
      <trkpt lat="48.81973" lon="-3.26207">
        <ele>71.76</ele>
        <time>2013-06-08T14:30:18Z</time>
      </trkpt>
      <trkpt lat="48.81976" lon="-3.26185">
        <ele>71.76</ele>
        <time>2013-06-08T14:30:21Z</time>
      </trkpt>
      <trkpt lat="48.82015" lon="-3.26081">
        <ele>71.76</ele>
        <time>2013-06-08T14:30:37Z</time>
      </trkpt>
      <trkpt lat="48.82025" lon="-3.26052">
        <ele>71.76</ele>
        <time>2013-06-08T14:30:41Z</time>
      </trkpt>
      <trkpt lat="48.82026" lon="-3.26044">
        <ele>71.76</ele>
        <time>2013-06-08T14:30:42Z</time>
      </trkpt>
      <trkpt lat="48.82027" lon="-3.26036">
        <ele>71.27</ele>
        <time>2013-06-08T14:30:43Z</time>
      </trkpt>
      <trkpt lat="48.82029" lon="-3.2601">
        <ele>71.27</ele>
        <time>2013-06-08T14:30:46Z</time>
      </trkpt>
      <trkpt lat="48.82027" lon="-3.2594">
        <ele>70.79</ele>
        <time>2013-06-08T14:30:54Z</time>
      </trkpt>
      <trkpt lat="48.82028" lon="-3.25931">
        <ele>70.31</ele>
        <time>2013-06-08T14:30:55Z</time>
      </trkpt>
      <trkpt lat="48.8203" lon="-3.25922">
        <ele>70.31</ele>
        <time>2013-06-08T14:30:56Z</time>
      </trkpt>
      <trkpt lat="48.82032" lon="-3.25914">
        <ele>70.79</ele>
        <time>2013-06-08T14:30:57Z</time>
      </trkpt>
      <trkpt lat="48.82034" lon="-3.25906">
        <ele>70.79</ele>
        <time>2013-06-08T14:30:58Z</time>
      </trkpt>
      <trkpt lat="48.82037" lon="-3.25898">
        <ele>70.31</ele>
        <time>2013-06-08T14:30:59Z</time>
      </trkpt>
      <trkpt lat="48.8204" lon="-3.25891">
        <ele>70.31</ele>
        <time>2013-06-08T14:31:00Z</time>
      </trkpt>
      <trkpt lat="48.82072" lon="-3.25833">
        <ele>70.79</ele>
        <time>2013-06-08T14:31:09Z</time>
      </trkpt>
      <trkpt lat="48.82133" lon="-3.25712">
        <ele>69.35</ele>
        <time>2013-06-08T14:31:28Z</time>
      </trkpt>
      <trkpt lat="48.82144" lon="-3.25694">
        <ele>70.79</ele>
        <time>2013-06-08T14:31:31Z</time>
      </trkpt>
      <trkpt lat="48.82205" lon="-3.25579">
        <ele>68.87</ele>
        <time>2013-06-08T14:31:49Z</time>
      </trkpt>
      <trkpt lat="48.82226" lon="-3.25535">
        <ele>68.39</ele>
        <time>2013-06-08T14:31:55Z</time>
      </trkpt>
      <trkpt lat="48.82278" lon="-3.25409">
        <ele>66.47</ele>
        <time>2013-06-08T14:32:12Z</time>
      </trkpt>
      <trkpt lat="48.82327" lon="-3.25296">
        <ele>65.51</ele>
        <time>2013-06-08T14:32:28Z</time>
      </trkpt>
      <trkpt lat="48.82379" lon="-3.252">
        <ele>66.47</ele>
        <time>2013-06-08T14:32:46Z</time>
      </trkpt>
      <trkpt lat="48.82439" lon="-3.25136">
        <ele>67.91</ele>
        <time>2013-06-08T14:33:01Z</time>
      </trkpt>
      <trkpt lat="48.82517" lon="-3.25072">
        <ele>67.91</ele>
        <time>2013-06-08T14:33:18Z</time>
      </trkpt>
      <trkpt lat="48.82594" lon="-3.25051">
        <ele>68.39</ele>
        <time>2013-06-08T14:33:33Z</time>
      </trkpt>
      <trkpt lat="48.82628" lon="-3.25033">
        <ele>71.76</ele>
        <time>2013-06-08T14:33:40Z</time>
      </trkpt>
      <trkpt lat="48.82689" lon="-3.24965">
        <ele>70.31</ele>
        <time>2013-06-08T14:33:56Z</time>
      </trkpt>
      <trkpt lat="48.82755" lon="-3.2487">
        <ele>70.79</ele>
        <time>2013-06-08T14:34:15Z</time>
      </trkpt>
      <trkpt lat="48.82822" lon="-3.24752">
        <ele>69.35</ele>
        <time>2013-06-08T14:34:35Z</time>
      </trkpt>
      <trkpt lat="48.82883" lon="-3.2463">
        <ele>68.39</ele>
        <time>2013-06-08T14:34:54Z</time>
      </trkpt>
      <trkpt lat="48.82944" lon="-3.24509">
        <ele>68.39</ele>
        <time>2013-06-08T14:35:13Z</time>
      </trkpt>
      <trkpt lat="48.83007" lon="-3.24369">
        <ele>69.83</ele>
        <time>2013-06-08T14:35:34Z</time>
      </trkpt>
      <trkpt lat="48.83055" lon="-3.24256">
        <ele>67.43</ele>
        <time>2013-06-08T14:35:50Z</time>
      </trkpt>
      <trkpt lat="48.83058" lon="-3.2425">
        <ele>67.43</ele>
        <time>2013-06-08T14:35:51Z</time>
      </trkpt>
      <trkpt lat="48.83124" lon="-3.24148">
        <ele>64.55</ele>
        <time>2013-06-08T14:36:07Z</time>
      </trkpt>
      <trkpt lat="48.83129" lon="-3.24131">
        <ele>64.07</ele>
        <time>2013-06-08T14:36:09Z</time>
      </trkpt>
      <trkpt lat="48.83132" lon="-3.24122">
        <ele>64.07</ele>
        <time>2013-06-08T14:36:10Z</time>
      </trkpt>
      <trkpt lat="48.83133" lon="-3.24113">
        <ele>63.58</ele>
        <time>2013-06-08T14:36:11Z</time>
      </trkpt>
      <trkpt lat="48.83134" lon="-3.24103">
        <ele>63.1</ele>
        <time>2013-06-08T14:36:12Z</time>
      </trkpt>
      <trkpt lat="48.83135" lon="-3.24093">
        <ele>63.58</ele>
        <time>2013-06-08T14:36:13Z</time>
      </trkpt>
      <trkpt lat="48.83135" lon="-3.23929">
        <ele>60.7</ele>
        <time>2013-06-08T14:36:30Z</time>
      </trkpt>
      <trkpt lat="48.83123" lon="-3.23754">
        <ele>59.26</ele>
        <time>2013-06-08T14:36:49Z</time>
      </trkpt>
      <trkpt lat="48.83124" lon="-3.23745">
        <ele>59.74</ele>
        <time>2013-06-08T14:36:50Z</time>
      </trkpt>
      <trkpt lat="48.83126" lon="-3.23736">
        <ele>59.74</ele>
        <time>2013-06-08T14:36:51Z</time>
      </trkpt>
      <trkpt lat="48.83128" lon="-3.23728">
        <ele>59.74</ele>
        <time>2013-06-08T14:36:52Z</time>
      </trkpt>
      <trkpt lat="48.83131" lon="-3.2372">
        <ele>60.22</ele>
        <time>2013-06-08T14:36:53Z</time>
      </trkpt>
      <trkpt lat="48.83135" lon="-3.23712">
        <ele>59.74</ele>
        <time>2013-06-08T14:36:54Z</time>
      </trkpt>
      <trkpt lat="48.83139" lon="-3.23705">
        <ele>59.74</ele>
        <time>2013-06-08T14:36:55Z</time>
      </trkpt>
      <trkpt lat="48.83144" lon="-3.23699">
        <ele>59.74</ele>
        <time>2013-06-08T14:36:56Z</time>
      </trkpt>
      <trkpt lat="48.83148" lon="-3.23692">
        <ele>59.26</ele>
        <time>2013-06-08T14:36:57Z</time>
      </trkpt>
      <trkpt lat="48.83218" lon="-3.23579">
        <ele>59.26</ele>
        <time>2013-06-08T14:37:15Z</time>
      </trkpt>
      <trkpt lat="48.83225" lon="-3.23534">
        <ele>60.22</ele>
        <time>2013-06-08T14:37:24Z</time>
      </trkpt>
      <trkpt lat="48.83222" lon="-3.23533">
        <ele>59.74</ele>
        <time>2013-06-08T14:37:25Z</time>
      </trkpt>
      <trkpt lat="48.83219" lon="-3.23533">
        <ele>59.74</ele>
        <time>2013-06-08T14:37:26Z</time>
      </trkpt>
      <trkpt lat="48.83157" lon="-3.23524">
        <ele>59.74</ele>
        <time>2013-06-08T14:37:38Z</time>
      </trkpt>
      <trkpt lat="48.83094" lon="-3.23533">
        <ele>58.78</ele>
        <time>2013-06-08T14:37:48Z</time>
      </trkpt>
      <trkpt lat="48.83074" lon="-3.2353">
        <ele>60.22</ele>
        <time>2013-06-08T14:37:51Z</time>
      </trkpt>
      <trkpt lat="48.83009" lon="-3.23506">
        <ele>57.82</ele>
        <time>2013-06-08T14:38:00Z</time>
      </trkpt>
      <trkpt lat="48.82956" lon="-3.23497">
        <ele>54.45</ele>
        <time>2013-06-08T14:38:06Z</time>
      </trkpt>
      <trkpt lat="48.82937" lon="-3.23494">
        <ele>53.01</ele>
        <time>2013-06-08T14:38:08Z</time>
      </trkpt>
      <trkpt lat="48.82885" lon="-3.23488">
        <ele>49.65</ele>
        <time>2013-06-08T14:38:13Z</time>
      </trkpt>
      <trkpt lat="48.82875" lon="-3.23487">
        <ele>49.16</ele>
        <time>2013-06-08T14:38:14Z</time>
      </trkpt>
      <trkpt lat="48.82832" lon="-3.23482">
        <ele>45.32</ele>
        <time>2013-06-08T14:38:18Z</time>
      </trkpt>
      <trkpt lat="48.82821" lon="-3.2348">
        <ele>45.32</ele>
        <time>2013-06-08T14:38:19Z</time>
      </trkpt>
      <trkpt lat="48.82765" lon="-3.23473">
        <ele>41.47</ele>
        <time>2013-06-08T14:38:24Z</time>
      </trkpt>
      <trkpt lat="48.82753" lon="-3.23471">
        <ele>41.47</ele>
        <time>2013-06-08T14:38:25Z</time>
      </trkpt>
      <trkpt lat="48.82665" lon="-3.23458">
        <ele>41.95</ele>
        <time>2013-06-08T14:38:35Z</time>
      </trkpt>
      <trkpt lat="48.82609" lon="-3.23451">
        <ele>44.84</ele>
        <time>2013-06-08T14:38:45Z</time>
      </trkpt>
      <trkpt lat="48.82568" lon="-3.23446">
        <ele>46.76</ele>
        <time>2013-06-08T14:38:53Z</time>
      </trkpt>
      <trkpt lat="48.82558" lon="-3.23444">
        <ele>47.24</ele>
        <time>2013-06-08T14:38:55Z</time>
      </trkpt>
      <trkpt lat="48.82553" lon="-3.23444">
        <ele>47.24</ele>
        <time>2013-06-08T14:38:56Z</time>
      </trkpt>
      <trkpt lat="48.82457" lon="-3.23432">
        <ele>50.61</ele>
        <time>2013-06-08T14:39:14Z</time>
      </trkpt>
      <trkpt lat="48.82354" lon="-3.23431">
        <ele>52.05</ele>
        <time>2013-06-08T14:39:33Z</time>
      </trkpt>
      <trkpt lat="48.82263" lon="-3.23457">
        <ele>53.97</ele>
        <time>2013-06-08T14:39:50Z</time>
      </trkpt>
      <trkpt lat="48.82171" lon="-3.23511">
        <ele>56.37</ele>
        <time>2013-06-08T14:40:08Z</time>
      </trkpt>
      <trkpt lat="48.82072" lon="-3.23579">
        <ele>56.37</ele>
        <time>2013-06-08T14:40:26Z</time>
      </trkpt>
      <trkpt lat="48.81962" lon="-3.23655">
        <ele>54.45</ele>
        <time>2013-06-08T14:40:42Z</time>
      </trkpt>
      <trkpt lat="48.81831" lon="-3.23745">
        <ele>52.53</ele>
        <time>2013-06-08T14:40:59Z</time>
      </trkpt>
      <trkpt lat="48.81789" lon="-3.23766">
        <ele>51.57</ele>
        <time>2013-06-08T14:41:04Z</time>
      </trkpt>
      <trkpt lat="48.81781" lon="-3.23767">
        <ele>52.05</ele>
        <time>2013-06-08T14:41:05Z</time>
      </trkpt>
      <trkpt lat="48.81772" lon="-3.23766">
        <ele>52.53</ele>
        <time>2013-06-08T14:41:06Z</time>
      </trkpt>
      <trkpt lat="48.81674" lon="-3.23746">
        <ele>52.53</ele>
        <time>2013-06-08T14:41:20Z</time>
      </trkpt>
      <trkpt lat="48.81578" lon="-3.23778">
        <ele>54.93</ele>
        <time>2013-06-08T14:41:35Z</time>
      </trkpt>
      <trkpt lat="48.81488" lon="-3.23785">
        <ele>56.86</ele>
        <time>2013-06-08T14:41:50Z</time>
      </trkpt>
      <trkpt lat="48.81403" lon="-3.23794">
        <ele>58.3</ele>
        <time>2013-06-08T14:42:05Z</time>
      </trkpt>
      <trkpt lat="48.81309" lon="-3.23811">
        <ele>58.78</ele>
        <time>2013-06-08T14:42:22Z</time>
      </trkpt>
      <trkpt lat="48.81228" lon="-3.238">
        <ele>61.66</ele>
        <time>2013-06-08T14:42:36Z</time>
      </trkpt>
      <trkpt lat="48.81222" lon="-3.23796">
        <ele>60.7</ele>
        <time>2013-06-08T14:42:37Z</time>
      </trkpt>
      <trkpt lat="48.81217" lon="-3.23792">
        <ele>61.18</ele>
        <time>2013-06-08T14:42:38Z</time>
      </trkpt>
      <trkpt lat="48.81212" lon="-3.23787">
        <ele>60.7</ele>
        <time>2013-06-08T14:42:39Z</time>
      </trkpt>
      <trkpt lat="48.81207" lon="-3.23782">
        <ele>61.18</ele>
        <time>2013-06-08T14:42:40Z</time>
      </trkpt>
      <trkpt lat="48.81203" lon="-3.23776">
        <ele>61.18</ele>
        <time>2013-06-08T14:42:41Z</time>
      </trkpt>
      <trkpt lat="48.81198" lon="-3.23769">
        <ele>61.66</ele>
        <time>2013-06-08T14:42:42Z</time>
      </trkpt>
      <trkpt lat="48.81128" lon="-3.23711">
        <ele>61.66</ele>
        <time>2013-06-08T14:42:56Z</time>
      </trkpt>
      <trkpt lat="48.81044" lon="-3.23664">
        <ele>64.07</ele>
        <time>2013-06-08T14:43:11Z</time>
      </trkpt>
      <trkpt lat="48.80951" lon="-3.23632">
        <ele>65.03</ele>
        <time>2013-06-08T14:43:27Z</time>
      </trkpt>
      <trkpt lat="48.80856" lon="-3.2355">
        <ele>62.62</ele>
        <time>2013-06-08T14:43:42Z</time>
      </trkpt>
      <trkpt lat="48.80768" lon="-3.23467">
        <ele>62.14</ele>
        <time>2013-06-08T14:43:57Z</time>
      </trkpt>
      <trkpt lat="48.80747" lon="-3.23462">
        <ele>63.58</ele>
        <time>2013-06-08T14:44:01Z</time>
      </trkpt>
      <trkpt lat="48.80741" lon="-3.23462">
        <ele>63.58</ele>
        <time>2013-06-08T14:44:02Z</time>
      </trkpt>
      <trkpt lat="48.80735" lon="-3.23463">
        <ele>64.07</ele>
        <time>2013-06-08T14:44:03Z</time>
      </trkpt>
      <trkpt lat="48.80644" lon="-3.23505">
        <ele>65.99</ele>
        <time>2013-06-08T14:44:20Z</time>
      </trkpt>
      <trkpt lat="48.80541" lon="-3.23565">
        <ele>66.47</ele>
        <time>2013-06-08T14:44:38Z</time>
      </trkpt>
      <trkpt lat="48.80436" lon="-3.23657">
        <ele>65.99</ele>
        <time>2013-06-08T14:44:56Z</time>
      </trkpt>
      <trkpt lat="48.80336" lon="-3.23746">
        <ele>67.43</ele>
        <time>2013-06-08T14:45:13Z</time>
      </trkpt>
      <trkpt lat="48.80225" lon="-3.23843">
        <ele>67.43</ele>
        <time>2013-06-08T14:45:32Z</time>
      </trkpt>
      <trkpt lat="48.80124" lon="-3.23923">
        <ele>65.51</ele>
        <time>2013-06-08T14:45:47Z</time>
      </trkpt>
      <trkpt lat="48.80036" lon="-3.23954">
        <ele>65.51</ele>
        <time>2013-06-08T14:45:59Z</time>
      </trkpt>
      <trkpt lat="48.79936" lon="-3.2394">
        <ele>66.95</ele>
        <time>2013-06-08T14:46:14Z</time>
      </trkpt>
      <trkpt lat="48.79916" lon="-3.23937">
        <ele>67.43</ele>
        <time>2013-06-08T14:46:17Z</time>
      </trkpt>
      <trkpt lat="48.79909" lon="-3.23937">
        <ele>67.43</ele>
        <time>2013-06-08T14:46:18Z</time>
      </trkpt>
      <trkpt lat="48.79902" lon="-3.23936">
        <ele>67.43</ele>
        <time>2013-06-08T14:46:19Z</time>
      </trkpt>
      <trkpt lat="48.79806" lon="-3.23903">
        <ele>68.87</ele>
        <time>2013-06-08T14:46:35Z</time>
      </trkpt>
      <trkpt lat="48.79756" lon="-3.23887">
        <ele>67.43</ele>
        <time>2013-06-08T14:46:44Z</time>
      </trkpt>
      <trkpt lat="48.79737" lon="-3.23888">
        <ele>67.43</ele>
        <time>2013-06-08T14:46:52Z</time>
      </trkpt>
      <trkpt lat="48.79734" lon="-3.23884">
        <ele>67.91</ele>
        <time>2013-06-08T14:46:53Z</time>
      </trkpt>
      <trkpt lat="48.79731" lon="-3.23877">
        <ele>68.39</ele>
        <time>2013-06-08T14:46:54Z</time>
      </trkpt>
      <trkpt lat="48.79728" lon="-3.2387">
        <ele>67.91</ele>
        <time>2013-06-08T14:46:55Z</time>
      </trkpt>
      <trkpt lat="48.79726" lon="-3.23861">
        <ele>67.43</ele>
        <time>2013-06-08T14:46:56Z</time>
      </trkpt>
      <trkpt lat="48.79717" lon="-3.23823">
        <ele>66.95</ele>
        <time>2013-06-08T14:47:00Z</time>
      </trkpt>
      <trkpt lat="48.79711" lon="-3.23782">
        <ele>65.03</ele>
        <time>2013-06-08T14:47:04Z</time>
      </trkpt>
      <trkpt lat="48.79697" lon="-3.23733">
        <ele>61.66</ele>
        <time>2013-06-08T14:47:09Z</time>
      </trkpt>
      <trkpt lat="48.79681" lon="-3.23693">
        <ele>62.14</ele>
        <time>2013-06-08T14:47:13Z</time>
      </trkpt>
      <trkpt lat="48.79675" lon="-3.23686">
        <ele>63.1</ele>
        <time>2013-06-08T14:47:14Z</time>
      </trkpt>
      <trkpt lat="48.79669" lon="-3.23682">
        <ele>62.62</ele>
        <time>2013-06-08T14:47:15Z</time>
      </trkpt>
      <trkpt lat="48.79661" lon="-3.23681">
        <ele>61.18</ele>
        <time>2013-06-08T14:47:16Z</time>
      </trkpt>
      <trkpt lat="48.79652" lon="-3.2368">
        <ele>61.66</ele>
        <time>2013-06-08T14:47:17Z</time>
      </trkpt>
      <trkpt lat="48.79644" lon="-3.23681">
        <ele>61.18</ele>
        <time>2013-06-08T14:47:18Z</time>
      </trkpt>
      <trkpt lat="48.79549" lon="-3.23682">
        <ele>59.26</ele>
        <time>2013-06-08T14:47:30Z</time>
      </trkpt>
      <trkpt lat="48.79541" lon="-3.23677">
        <ele>59.26</ele>
        <time>2013-06-08T14:47:31Z</time>
      </trkpt>
      <trkpt lat="48.79534" lon="-3.23671">
        <ele>59.26</ele>
        <time>2013-06-08T14:47:32Z</time>
      </trkpt>
      <trkpt lat="48.79506" lon="-3.23642">
        <ele>57.82</ele>
        <time>2013-06-08T14:47:36Z</time>
      </trkpt>
      <trkpt lat="48.79443" lon="-3.23592">
        <ele>54.45</ele>
        <time>2013-06-08T14:47:44Z</time>
      </trkpt>
      <trkpt lat="48.79425" lon="-3.23584">
        <ele>53.49</ele>
        <time>2013-06-08T14:47:46Z</time>
      </trkpt>
      <trkpt lat="48.79387" lon="-3.2357">
        <ele>49.65</ele>
        <time>2013-06-08T14:47:50Z</time>
      </trkpt>
      <trkpt lat="48.79367" lon="-3.23564">
        <ele>47.24</ele>
        <time>2013-06-08T14:47:52Z</time>
      </trkpt>
      <trkpt lat="48.79357" lon="-3.23564">
        <ele>47.24</ele>
        <time>2013-06-08T14:47:53Z</time>
      </trkpt>
      <trkpt lat="48.79346" lon="-3.23564">
        <ele>46.76</ele>
        <time>2013-06-08T14:47:54Z</time>
      </trkpt>
      <trkpt lat="48.79336" lon="-3.23565">
        <ele>46.28</ele>
        <time>2013-06-08T14:47:55Z</time>
      </trkpt>
      <trkpt lat="48.79326" lon="-3.23567">
        <ele>45.8</ele>
        <time>2013-06-08T14:47:56Z</time>
      </trkpt>
      <trkpt lat="48.79316" lon="-3.23572">
        <ele>45.32</ele>
        <time>2013-06-08T14:47:57Z</time>
      </trkpt>
      <trkpt lat="48.79306" lon="-3.23579">
        <ele>43.88</ele>
        <time>2013-06-08T14:47:58Z</time>
      </trkpt>
      <trkpt lat="48.79297" lon="-3.23587">
        <ele>43.4</ele>
        <time>2013-06-08T14:47:59Z</time>
      </trkpt>
      <trkpt lat="48.79267" lon="-3.2361">
        <ele>42.44</ele>
        <time>2013-06-08T14:48:02Z</time>
      </trkpt>
      <trkpt lat="48.79256" lon="-3.23615">
        <ele>41.95</ele>
        <time>2013-06-08T14:48:03Z</time>
      </trkpt>
      <trkpt lat="48.79245" lon="-3.23617">
        <ele>40.99</ele>
        <time>2013-06-08T14:48:04Z</time>
      </trkpt>
      <trkpt lat="48.79233" lon="-3.23616">
        <ele>40.51</ele>
        <time>2013-06-08T14:48:05Z</time>
      </trkpt>
      <trkpt lat="48.79222" lon="-3.23614">
        <ele>40.99</ele>
        <time>2013-06-08T14:48:06Z</time>
      </trkpt>
      <trkpt lat="48.7921" lon="-3.2361">
        <ele>40.03</ele>
        <time>2013-06-08T14:48:07Z</time>
      </trkpt>
      <trkpt lat="48.79199" lon="-3.23605">
        <ele>38.59</ele>
        <time>2013-06-08T14:48:08Z</time>
      </trkpt>
      <trkpt lat="48.79143" lon="-3.23581">
        <ele>37.15</ele>
        <time>2013-06-08T14:48:13Z</time>
      </trkpt>
      <trkpt lat="48.79109" lon="-3.23566">
        <ele>33.3</ele>
        <time>2013-06-08T14:48:16Z</time>
      </trkpt>
      <trkpt lat="48.79054" lon="-3.23534">
        <ele>31.38</ele>
        <time>2013-06-08T14:48:21Z</time>
      </trkpt>
      <trkpt lat="48.79045" lon="-3.23523">
        <ele>31.86</ele>
        <time>2013-06-08T14:48:22Z</time>
      </trkpt>
      <trkpt lat="48.79038" lon="-3.2351">
        <ele>32.34</ele>
        <time>2013-06-08T14:48:23Z</time>
      </trkpt>
      <trkpt lat="48.79033" lon="-3.23495">
        <ele>30.9</ele>
        <time>2013-06-08T14:48:24Z</time>
      </trkpt>
      <trkpt lat="48.7903" lon="-3.23479">
        <ele>29.46</ele>
        <time>2013-06-08T14:48:25Z</time>
      </trkpt>
      <trkpt lat="48.79028" lon="-3.23463">
        <ele>28.98</ele>
        <time>2013-06-08T14:48:26Z</time>
      </trkpt>
      <trkpt lat="48.79028" lon="-3.23447">
        <ele>28.5</ele>
        <time>2013-06-08T14:48:27Z</time>
      </trkpt>
      <trkpt lat="48.7903" lon="-3.23431">
        <ele>28.02</ele>
        <time>2013-06-08T14:48:28Z</time>
      </trkpt>
      <trkpt lat="48.79033" lon="-3.23417">
        <ele>27.05</ele>
        <time>2013-06-08T14:48:29Z</time>
      </trkpt>
      <trkpt lat="48.79043" lon="-3.23359">
        <ele>23.69</ele>
        <time>2013-06-08T14:48:33Z</time>
      </trkpt>
      <trkpt lat="48.79056" lon="-3.2329">
        <ele>20.81</ele>
        <time>2013-06-08T14:48:38Z</time>
      </trkpt>
      <trkpt lat="48.7906" lon="-3.23278">
        <ele>20.81</ele>
        <time>2013-06-08T14:48:39Z</time>
      </trkpt>
      <trkpt lat="48.79065" lon="-3.23266">
        <ele>19.84</ele>
        <time>2013-06-08T14:48:40Z</time>
      </trkpt>
      <trkpt lat="48.7907" lon="-3.23255">
        <ele>18.88</ele>
        <time>2013-06-08T14:48:41Z</time>
      </trkpt>
      <trkpt lat="48.79076" lon="-3.23244">
        <ele>18.4</ele>
        <time>2013-06-08T14:48:42Z</time>
      </trkpt>
      <trkpt lat="48.79081" lon="-3.23234">
        <ele>17.92</ele>
        <time>2013-06-08T14:48:43Z</time>
      </trkpt>
      <trkpt lat="48.79091" lon="-3.23212">
        <ele>18.4</ele>
        <time>2013-06-08T14:48:45Z</time>
      </trkpt>
      <trkpt lat="48.79094" lon="-3.232">
        <ele>19.36</ele>
        <time>2013-06-08T14:48:46Z</time>
      </trkpt>
      <trkpt lat="48.79096" lon="-3.23188">
        <ele>20.81</ele>
        <time>2013-06-08T14:48:47Z</time>
      </trkpt>
      <trkpt lat="48.79096" lon="-3.23177">
        <ele>19.36</ele>
        <time>2013-06-08T14:48:48Z</time>
      </trkpt>
      <trkpt lat="48.79096" lon="-3.23167">
        <ele>17.92</ele>
        <time>2013-06-08T14:48:49Z</time>
      </trkpt>
      <trkpt lat="48.79088" lon="-3.23049">
        <ele>14.56</ele>
        <time>2013-06-08T14:49:02Z</time>
      </trkpt>
      <trkpt lat="48.79086" lon="-3.23038">
        <ele>13.6</ele>
        <time>2013-06-08T14:49:04Z</time>
      </trkpt>
      <trkpt lat="48.79086" lon="-3.23031">
        <ele>14.08</ele>
        <time>2013-06-08T14:49:05Z</time>
      </trkpt>
      <trkpt lat="48.79087" lon="-3.23024">
        <ele>13.6</ele>
        <time>2013-06-08T14:49:06Z</time>
      </trkpt>
      <trkpt lat="48.7909" lon="-3.23017">
        <ele>14.08</ele>
        <time>2013-06-08T14:49:07Z</time>
      </trkpt>
      <trkpt lat="48.79114" lon="-3.22942">
        <ele>11.67</ele>
        <time>2013-06-08T14:49:16Z</time>
      </trkpt>
      <trkpt lat="48.79115" lon="-3.22932">
        <ele>11.67</ele>
        <time>2013-06-08T14:49:17Z</time>
      </trkpt>
      <trkpt lat="48.79115" lon="-3.22921">
        <ele>11.67</ele>
        <time>2013-06-08T14:49:18Z</time>
      </trkpt>
      <trkpt lat="48.79114" lon="-3.22911">
        <ele>11.19</ele>
        <time>2013-06-08T14:49:19Z</time>
      </trkpt>
      <trkpt lat="48.79112" lon="-3.22901">
        <ele>10.23</ele>
        <time>2013-06-08T14:49:20Z</time>
      </trkpt>
      <trkpt lat="48.79109" lon="-3.22891">
        <ele>10.71</ele>
        <time>2013-06-08T14:49:21Z</time>
      </trkpt>
      <trkpt lat="48.79105" lon="-3.22883">
        <ele>10.71</ele>
        <time>2013-06-08T14:49:22Z</time>
      </trkpt>
      <trkpt lat="48.79101" lon="-3.22875">
        <ele>11.19</ele>
        <time>2013-06-08T14:49:23Z</time>
      </trkpt>
      <trkpt lat="48.79096" lon="-3.22868">
        <ele>11.19</ele>
        <time>2013-06-08T14:49:24Z</time>
      </trkpt>
      <trkpt lat="48.79091" lon="-3.22862">
        <ele>10.71</ele>
        <time>2013-06-08T14:49:25Z</time>
      </trkpt>
      <trkpt lat="48.79052" lon="-3.22799">
        <ele>10.23</ele>
        <time>2013-06-08T14:49:34Z</time>
      </trkpt>
      <trkpt lat="48.79026" lon="-3.22774">
        <ele>9.75</ele>
        <time>2013-06-08T14:49:39Z</time>
      </trkpt>
      <trkpt lat="48.79016" lon="-3.22766">
        <ele>9.75</ele>
        <time>2013-06-08T14:49:41Z</time>
      </trkpt>
      <trkpt lat="48.7894" lon="-3.22668">
        <ele>10.23</ele>
        <time>2013-06-08T14:49:57Z</time>
      </trkpt>
      <trkpt lat="48.78876" lon="-3.22581">
        <ele>11.19</ele>
        <time>2013-06-08T14:50:11Z</time>
      </trkpt>
      <trkpt lat="48.78867" lon="-3.2257">
        <ele>9.75</ele>
        <time>2013-06-08T14:50:13Z</time>
      </trkpt>
      <trkpt lat="48.78832" lon="-3.22534">
        <ele>10.23</ele>
        <time>2013-06-08T14:50:20Z</time>
      </trkpt>
      <trkpt lat="48.78827" lon="-3.2253">
        <ele>9.75</ele>
        <time>2013-06-08T14:50:21Z</time>
      </trkpt>
      <trkpt lat="48.78818" lon="-3.2252">
        <ele>10.71</ele>
        <time>2013-06-08T14:50:23Z</time>
      </trkpt>
      <trkpt lat="48.78813" lon="-3.22514">
        <ele>10.71</ele>
        <time>2013-06-08T14:50:24Z</time>
      </trkpt>
      <trkpt lat="48.78808" lon="-3.22509">
        <ele>10.71</ele>
        <time>2013-06-08T14:50:25Z</time>
      </trkpt>
      <trkpt lat="48.78735" lon="-3.22437">
        <ele>9.27</ele>
        <time>2013-06-08T14:50:39Z</time>
      </trkpt>
      <trkpt lat="48.78625" lon="-3.22347">
        <ele>10.23</ele>
        <time>2013-06-08T14:50:58Z</time>
      </trkpt>
      <trkpt lat="48.78537" lon="-3.22278">
        <ele>10.23</ele>
        <time>2013-06-08T14:51:14Z</time>
      </trkpt>
      <trkpt lat="48.78492" lon="-3.2225">
        <ele>11.19</ele>
        <time>2013-06-08T14:51:23Z</time>
      </trkpt>
      <trkpt lat="48.78487" lon="-3.22249">
        <ele>10.71</ele>
        <time>2013-06-08T14:51:24Z</time>
      </trkpt>
      <trkpt lat="48.78482" lon="-3.22249">
        <ele>10.71</ele>
        <time>2013-06-08T14:51:25Z</time>
      </trkpt>
      <trkpt lat="48.78478" lon="-3.22251">
        <ele>11.19</ele>
        <time>2013-06-08T14:51:26Z</time>
      </trkpt>
      <trkpt lat="48.78473" lon="-3.22253">
        <ele>11.67</ele>
        <time>2013-06-08T14:51:27Z</time>
      </trkpt>
      <trkpt lat="48.78468" lon="-3.22254">
        <ele>11.67</ele>
        <time>2013-06-08T14:51:28Z</time>
      </trkpt>
      <trkpt lat="48.78445" lon="-3.22262">
        <ele>13.12</ele>
        <time>2013-06-08T14:51:33Z</time>
      </trkpt>
      <trkpt lat="48.78441" lon="-3.22265">
        <ele>13.6</ele>
        <time>2013-06-08T14:51:34Z</time>
      </trkpt>
      <trkpt lat="48.78437" lon="-3.22268">
        <ele>13.6</ele>
        <time>2013-06-08T14:51:35Z</time>
      </trkpt>
      <trkpt lat="48.78433" lon="-3.2227">
        <ele>14.08</ele>
        <time>2013-06-08T14:51:36Z</time>
      </trkpt>
      <trkpt lat="48.78429" lon="-3.22271">
        <ele>14.56</ele>
        <time>2013-06-08T14:51:37Z</time>
      </trkpt>
      <trkpt lat="48.78425" lon="-3.22269">
        <ele>15.04</ele>
        <time>2013-06-08T14:51:38Z</time>
      </trkpt>
      <trkpt lat="48.78421" lon="-3.22267">
        <ele>15.04</ele>
        <time>2013-06-08T14:51:39Z</time>
      </trkpt>
      <trkpt lat="48.78416" lon="-3.22264">
        <ele>15.04</ele>
        <time>2013-06-08T14:51:40Z</time>
      </trkpt>
      <trkpt lat="48.7841" lon="-3.22263">
        <ele>14.56</ele>
        <time>2013-06-08T14:51:41Z</time>
      </trkpt>
      <trkpt lat="48.78404" lon="-3.22263">
        <ele>13.6</ele>
        <time>2013-06-08T14:51:42Z</time>
      </trkpt>
      <trkpt lat="48.78398" lon="-3.22264">
        <ele>13.12</ele>
        <time>2013-06-08T14:51:43Z</time>
      </trkpt>
      <trkpt lat="48.78391" lon="-3.22266">
        <ele>13.6</ele>
        <time>2013-06-08T14:51:44Z</time>
      </trkpt>
      <trkpt lat="48.78319" lon="-3.22293">
        <ele>15.04</ele>
        <time>2013-06-08T14:51:57Z</time>
      </trkpt>
      <trkpt lat="48.7822" lon="-3.22326">
        <ele>15.04</ele>
        <time>2013-06-08T14:52:13Z</time>
      </trkpt>
      <trkpt lat="48.7813" lon="-3.22354">
        <ele>16.48</ele>
        <time>2013-06-08T14:52:27Z</time>
      </trkpt>
      <trkpt lat="48.78035" lon="-3.22325">
        <ele>15.52</ele>
        <time>2013-06-08T14:52:41Z</time>
      </trkpt>
      <trkpt lat="48.7794" lon="-3.22302">
        <ele>18.4</ele>
        <time>2013-06-08T14:52:57Z</time>
      </trkpt>
      <trkpt lat="48.7787" lon="-3.22338">
        <ele>20.32</ele>
        <time>2013-06-08T14:53:10Z</time>
      </trkpt>
      <trkpt lat="48.7779" lon="-3.22415">
        <ele>22.73</ele>
        <time>2013-06-08T14:53:28Z</time>
      </trkpt>
      <trkpt lat="48.77704" lon="-3.22486">
        <ele>25.61</ele>
        <time>2013-06-08T14:53:47Z</time>
      </trkpt>
      <trkpt lat="48.77674" lon="-3.22494">
        <ele>27.53</ele>
        <time>2013-06-08T14:53:53Z</time>
      </trkpt>
      <trkpt lat="48.77669" lon="-3.22495">
        <ele>27.53</ele>
        <time>2013-06-08T14:53:54Z</time>
      </trkpt>
      <trkpt lat="48.77602" lon="-3.22493">
        <ele>29.46</ele>
        <time>2013-06-08T14:54:07Z</time>
      </trkpt>
      <trkpt lat="48.77533" lon="-3.22467">
        <ele>28.98</ele>
        <time>2013-06-08T14:54:19Z</time>
      </trkpt>
      <trkpt lat="48.77527" lon="-3.22466">
        <ele>28.98</ele>
        <time>2013-06-08T14:54:20Z</time>
      </trkpt>
      <trkpt lat="48.77521" lon="-3.22465">
        <ele>29.46</ele>
        <time>2013-06-08T14:54:21Z</time>
      </trkpt>
      <trkpt lat="48.77443" lon="-3.22484">
        <ele>29.94</ele>
        <time>2013-06-08T14:54:34Z</time>
      </trkpt>
      <trkpt lat="48.77437" lon="-3.22488">
        <ele>30.42</ele>
        <time>2013-06-08T14:54:35Z</time>
      </trkpt>
      <trkpt lat="48.77432" lon="-3.22494">
        <ele>30.42</ele>
        <time>2013-06-08T14:54:36Z</time>
      </trkpt>
      <trkpt lat="48.77384" lon="-3.2259">
        <ele>29.46</ele>
        <time>2013-06-08T14:54:48Z</time>
      </trkpt>
      <trkpt lat="48.77375" lon="-3.22647">
        <ele>30.9</ele>
        <time>2013-06-08T14:54:54Z</time>
      </trkpt>
      <trkpt lat="48.7737" lon="-3.22804">
        <ele>33.78</ele>
        <time>2013-06-08T14:55:11Z</time>
      </trkpt>
      <trkpt lat="48.77368" lon="-3.2295">
        <ele>35.23</ele>
        <time>2013-06-08T14:55:28Z</time>
      </trkpt>
      <trkpt lat="48.77361" lon="-3.22999">
        <ele>35.71</ele>
        <time>2013-06-08T14:55:34Z</time>
      </trkpt>
      <trkpt lat="48.77347" lon="-3.23042">
        <ele>36.19</ele>
        <time>2013-06-08T14:55:40Z</time>
      </trkpt>
      <trkpt lat="48.77346" lon="-3.23049">
        <ele>36.67</ele>
        <time>2013-06-08T14:55:41Z</time>
      </trkpt>
      <trkpt lat="48.77345" lon="-3.23056">
        <ele>36.67</ele>
        <time>2013-06-08T14:55:42Z</time>
      </trkpt>
      <trkpt lat="48.77343" lon="-3.23074">
        <ele>37.63</ele>
        <time>2013-06-08T14:55:45Z</time>
      </trkpt>
      <trkpt lat="48.77341" lon="-3.2308">
        <ele>38.11</ele>
        <time>2013-06-08T14:55:46Z</time>
      </trkpt>
      <trkpt lat="48.77339" lon="-3.23085">
        <ele>38.11</ele>
        <time>2013-06-08T14:55:47Z</time>
      </trkpt>
      <trkpt lat="48.77336" lon="-3.23091">
        <ele>38.11</ele>
        <time>2013-06-08T14:55:48Z</time>
      </trkpt>
      <trkpt lat="48.77333" lon="-3.23097">
        <ele>37.63</ele>
        <time>2013-06-08T14:55:49Z</time>
      </trkpt>
      <trkpt lat="48.77327" lon="-3.23111">
        <ele>38.11</ele>
        <time>2013-06-08T14:55:51Z</time>
      </trkpt>
      <trkpt lat="48.77295" lon="-3.23239">
        <ele>39.07</ele>
        <time>2013-06-08T14:56:07Z</time>
      </trkpt>
      <trkpt lat="48.77275" lon="-3.23376">
        <ele>39.07</ele>
        <time>2013-06-08T14:56:21Z</time>
      </trkpt>
      <trkpt lat="48.77242" lon="-3.23481">
        <ele>39.07</ele>
        <time>2013-06-08T14:56:34Z</time>
      </trkpt>
      <trkpt lat="48.77203" lon="-3.23537">
        <ele>40.51</ele>
        <time>2013-06-08T14:56:43Z</time>
      </trkpt>
      <trkpt lat="48.77199" lon="-3.23544">
        <ele>40.51</ele>
        <time>2013-06-08T14:56:44Z</time>
      </trkpt>
      <trkpt lat="48.77193" lon="-3.23559">
        <ele>40.51</ele>
        <time>2013-06-08T14:56:46Z</time>
      </trkpt>
      <trkpt lat="48.77189" lon="-3.23565">
        <ele>40.99</ele>
        <time>2013-06-08T14:56:47Z</time>
      </trkpt>
      <trkpt lat="48.77184" lon="-3.23569">
        <ele>40.51</ele>
        <time>2013-06-08T14:56:48Z</time>
      </trkpt>
      <trkpt lat="48.77178" lon="-3.23572">
        <ele>40.99</ele>
        <time>2013-06-08T14:56:49Z</time>
      </trkpt>
      <trkpt lat="48.77172" lon="-3.23575">
        <ele>40.51</ele>
        <time>2013-06-08T14:56:50Z</time>
      </trkpt>
      <trkpt lat="48.77167" lon="-3.2358">
        <ele>40.51</ele>
        <time>2013-06-08T14:56:51Z</time>
      </trkpt>
      <trkpt lat="48.77161" lon="-3.23585">
        <ele>40.51</ele>
        <time>2013-06-08T14:56:52Z</time>
      </trkpt>
      <trkpt lat="48.77156" lon="-3.2359">
        <ele>40.51</ele>
        <time>2013-06-08T14:56:53Z</time>
      </trkpt>
      <trkpt lat="48.77132" lon="-3.23622">
        <ele>41.47</ele>
        <time>2013-06-08T14:56:58Z</time>
      </trkpt>
      <trkpt lat="48.77129" lon="-3.2363">
        <ele>41.47</ele>
        <time>2013-06-08T14:56:59Z</time>
      </trkpt>
      <trkpt lat="48.77083" lon="-3.23765">
        <ele>43.88</ele>
        <time>2013-06-08T14:57:16Z</time>
      </trkpt>
      <trkpt lat="48.7708" lon="-3.23775">
        <ele>43.88</ele>
        <time>2013-06-08T14:57:17Z</time>
      </trkpt>
      <trkpt lat="48.77077" lon="-3.23784">
        <ele>43.4</ele>
        <time>2013-06-08T14:57:18Z</time>
      </trkpt>
      <trkpt lat="48.77073" lon="-3.23794">
        <ele>42.92</ele>
        <time>2013-06-08T14:57:19Z</time>
      </trkpt>
      <trkpt lat="48.77068" lon="-3.23804">
        <ele>42.44</ele>
        <time>2013-06-08T14:57:20Z</time>
      </trkpt>
      <trkpt lat="48.77062" lon="-3.23814">
        <ele>41.95</ele>
        <time>2013-06-08T14:57:21Z</time>
      </trkpt>
      <trkpt lat="48.77007" lon="-3.23893">
        <ele>38.59</ele>
        <time>2013-06-08T14:57:29Z</time>
      </trkpt>
      <trkpt lat="48.76945" lon="-3.23984">
        <ele>35.71</ele>
        <time>2013-06-08T14:57:39Z</time>
      </trkpt>
      <trkpt lat="48.76942" lon="-3.2399">
        <ele>35.71</ele>
        <time>2013-06-08T14:57:40Z</time>
      </trkpt>
      <trkpt lat="48.76939" lon="-3.23996">
        <ele>35.23</ele>
        <time>2013-06-08T14:57:41Z</time>
      </trkpt>
      <trkpt lat="48.76938" lon="-3.24">
        <ele>34.74</ele>
        <time>2013-06-08T14:57:42Z</time>
      </trkpt>
      <trkpt lat="48.76937" lon="-3.24003">
        <ele>34.74</ele>
        <time>2013-06-08T14:57:43Z</time>
      </trkpt>
      <trkpt lat="48.76937" lon="-3.24007">
        <ele>34.74</ele>
        <time>2013-06-08T14:57:44Z</time>
      </trkpt>
      <trkpt lat="48.76937" lon="-3.24011">
        <ele>34.74</ele>
        <time>2013-06-08T14:57:45Z</time>
      </trkpt>
      <trkpt lat="48.76938" lon="-3.24014">
        <ele>34.74</ele>
        <time>2013-06-08T14:57:46Z</time>
      </trkpt>
      <trkpt lat="48.7694" lon="-3.24016">
        <ele>35.23</ele>
        <time>2013-06-08T14:57:47Z</time>
      </trkpt>
      <trkpt lat="48.76942" lon="-3.24017">
        <ele>35.23</ele>
        <time>2013-06-08T14:57:48Z</time>
      </trkpt>
      <trkpt lat="48.76944" lon="-3.24017">
        <ele>35.23</ele>
        <time>2013-06-08T14:57:49Z</time>
      </trkpt>
      <trkpt lat="48.76949" lon="-3.24025">
        <ele>35.71</ele>
        <time>2013-06-08T14:57:58Z</time>
      </trkpt>
      <trkpt lat="48.76948" lon="-3.24029">
        <ele>35.23</ele>
        <time>2013-06-08T14:57:59Z</time>
      </trkpt>
      <trkpt lat="48.76946" lon="-3.24033">
        <ele>35.71</ele>
        <time>2013-06-08T14:58:00Z</time>
      </trkpt>
      <trkpt lat="48.76943" lon="-3.24038">
        <ele>35.71</ele>
        <time>2013-06-08T14:58:01Z</time>
      </trkpt>
      <trkpt lat="48.7694" lon="-3.24042">
        <ele>35.23</ele>
        <time>2013-06-08T14:58:02Z</time>
      </trkpt>
      <trkpt lat="48.76935" lon="-3.24046">
        <ele>35.23</ele>
        <time>2013-06-08T14:58:03Z</time>
      </trkpt>
      <trkpt lat="48.76865" lon="-3.24121">
        <ele>35.23</ele>
        <time>2013-06-08T14:58:17Z</time>
      </trkpt>
      <trkpt lat="48.76775" lon="-3.24233">
        <ele>33.78</ele>
        <time>2013-06-08T14:58:34Z</time>
      </trkpt>
      <trkpt lat="48.76663" lon="-3.24376">
        <ele>34.26</ele>
        <time>2013-06-08T14:58:54Z</time>
      </trkpt>
      <trkpt lat="48.76542" lon="-3.2453">
        <ele>32.82</ele>
        <time>2013-06-08T14:59:15Z</time>
      </trkpt>
      <trkpt lat="48.76419" lon="-3.24688">
        <ele>32.34</ele>
        <time>2013-06-08T14:59:36Z</time>
      </trkpt>
      <trkpt lat="48.76324" lon="-3.24808">
        <ele>30.9</ele>
        <time>2013-06-08T14:59:52Z</time>
      </trkpt>
      <trkpt lat="48.76211" lon="-3.24952">
        <ele>30.9</ele>
        <time>2013-06-08T15:00:10Z</time>
      </trkpt>
      <trkpt lat="48.76084" lon="-3.25114">
        <ele>28.5</ele>
        <time>2013-06-08T15:00:30Z</time>
      </trkpt>
      <trkpt lat="48.75995" lon="-3.25233">
        <ele>25.61</ele>
        <time>2013-06-08T15:00:43Z</time>
      </trkpt>
      <trkpt lat="48.75956" lon="-3.25318">
        <ele>23.21</ele>
        <time>2013-06-08T15:00:50Z</time>
      </trkpt>
      <trkpt lat="48.75928" lon="-3.25439">
        <ele>19.84</ele>
        <time>2013-06-08T15:00:58Z</time>
      </trkpt>
      <trkpt lat="48.75919" lon="-3.25486">
        <ele>18.4</ele>
        <time>2013-06-08T15:01:01Z</time>
      </trkpt>
      <trkpt lat="48.75873" lon="-3.25669">
        <ele>16</ele>
        <time>2013-06-08T15:01:14Z</time>
      </trkpt>
      <trkpt lat="48.75816" lon="-3.25853">
        <ele>17.44</ele>
        <time>2013-06-08T15:01:32Z</time>
      </trkpt>
      <trkpt lat="48.75753" lon="-3.25992">
        <ele>17.44</ele>
        <time>2013-06-08T15:01:47Z</time>
      </trkpt>
      <trkpt lat="48.75714" lon="-3.2603">
        <ele>17.44</ele>
        <time>2013-06-08T15:01:53Z</time>
      </trkpt>
      <trkpt lat="48.75598" lon="-3.26065">
        <ele>15.04</ele>
        <time>2013-06-08T15:02:07Z</time>
      </trkpt>
      <trkpt lat="48.75589" lon="-3.26066">
        <ele>15.04</ele>
        <time>2013-06-08T15:02:08Z</time>
      </trkpt>
      <trkpt lat="48.75468" lon="-3.26088">
        <ele>13.6</ele>
        <time>2013-06-08T15:02:22Z</time>
      </trkpt>
      <trkpt lat="48.75336" lon="-3.26111">
        <ele>13.12</ele>
        <time>2013-06-08T15:02:40Z</time>
      </trkpt>
      <trkpt lat="48.75302" lon="-3.26119">
        <ele>12.63</ele>
        <time>2013-06-08T15:02:45Z</time>
      </trkpt>
      <trkpt lat="48.75297" lon="-3.26122">
        <ele>12.63</ele>
        <time>2013-06-08T15:02:46Z</time>
      </trkpt>
      <trkpt lat="48.75293" lon="-3.26126">
        <ele>12.15</ele>
        <time>2013-06-08T15:02:47Z</time>
      </trkpt>
      <trkpt lat="48.75291" lon="-3.2613">
        <ele>12.63</ele>
        <time>2013-06-08T15:02:48Z</time>
      </trkpt>
      <trkpt lat="48.75289" lon="-3.26134">
        <ele>12.15</ele>
        <time>2013-06-08T15:02:49Z</time>
      </trkpt>
      <trkpt lat="48.75288" lon="-3.26138">
        <ele>12.15</ele>
        <time>2013-06-08T15:02:50Z</time>
      </trkpt>
      <trkpt lat="48.75288" lon="-3.26142">
        <ele>12.63</ele>
        <time>2013-06-08T15:02:51Z</time>
      </trkpt>
      <trkpt lat="48.75288" lon="-3.26147">
        <ele>12.15</ele>
        <time>2013-06-08T15:02:52Z</time>
      </trkpt>
      <trkpt lat="48.75288" lon="-3.26151">
        <ele>12.63</ele>
        <time>2013-06-08T15:02:53Z</time>
      </trkpt>
      <trkpt lat="48.75289" lon="-3.26155">
        <ele>12.63</ele>
        <time>2013-06-08T15:02:54Z</time>
      </trkpt>
      <trkpt lat="48.75289" lon="-3.26158">
        <ele>12.63</ele>
        <time>2013-06-08T15:02:55Z</time>
      </trkpt>
      <trkpt lat="48.75289" lon="-3.26161">
        <ele>12.63</ele>
        <time>2013-06-08T15:02:56Z</time>
      </trkpt>
      <trkpt lat="48.75288" lon="-3.26164">
        <ele>12.63</ele>
        <time>2013-06-08T15:02:57Z</time>
      </trkpt>
      <trkpt lat="48.75287" lon="-3.26168">
        <ele>12.63</ele>
        <time>2013-06-08T15:02:58Z</time>
      </trkpt>
      <trkpt lat="48.75285" lon="-3.26172">
        <ele>13.12</ele>
        <time>2013-06-08T15:02:59Z</time>
      </trkpt>
      <trkpt lat="48.75275" lon="-3.26186">
        <ele>13.6</ele>
        <time>2013-06-08T15:03:02Z</time>
      </trkpt>
      <trkpt lat="48.75271" lon="-3.26188">
        <ele>13.6</ele>
        <time>2013-06-08T15:03:03Z</time>
      </trkpt>
      <trkpt lat="48.75265" lon="-3.26189">
        <ele>13.6</ele>
        <time>2013-06-08T15:03:04Z</time>
      </trkpt>
      <trkpt lat="48.75247" lon="-3.2619">
        <ele>13.6</ele>
        <time>2013-06-08T15:03:07Z</time>
      </trkpt>
      <trkpt lat="48.75241" lon="-3.26195">
        <ele>12.63</ele>
        <time>2013-06-08T15:03:08Z</time>
      </trkpt>
      <trkpt lat="48.75236" lon="-3.26202">
        <ele>11.67</ele>
        <time>2013-06-08T15:03:09Z</time>
      </trkpt>
      <trkpt lat="48.75232" lon="-3.26211">
        <ele>11.19</ele>
        <time>2013-06-08T15:03:10Z</time>
      </trkpt>
      <trkpt lat="48.7523" lon="-3.26222">
        <ele>11.67</ele>
        <time>2013-06-08T15:03:11Z</time>
      </trkpt>
      <trkpt lat="48.7523" lon="-3.26234">
        <ele>11.67</ele>
        <time>2013-06-08T15:03:12Z</time>
      </trkpt>
      <trkpt lat="48.75232" lon="-3.26245">
        <ele>11.67</ele>
        <time>2013-06-08T15:03:13Z</time>
      </trkpt>
      <trkpt lat="48.75235" lon="-3.26256">
        <ele>11.67</ele>
        <time>2013-06-08T15:03:14Z</time>
      </trkpt>
      <trkpt lat="48.75274" lon="-3.26409">
        <ele>12.63</ele>
        <time>2013-06-08T15:03:29Z</time>
      </trkpt>
      <trkpt lat="48.75275" lon="-3.26431">
        <ele>12.63</ele>
        <time>2013-06-08T15:03:31Z</time>
      </trkpt>
      <trkpt lat="48.75275" lon="-3.26442">
        <ele>12.63</ele>
        <time>2013-06-08T15:03:32Z</time>
      </trkpt>
      <trkpt lat="48.75246" lon="-3.26545">
        <ele>12.15</ele>
        <time>2013-06-08T15:03:43Z</time>
      </trkpt>
      <trkpt lat="48.75167" lon="-3.26675">
        <ele>11.19</ele>
        <time>2013-06-08T15:04:01Z</time>
      </trkpt>
      <trkpt lat="48.75077" lon="-3.26733">
        <ele>11.67</ele>
        <time>2013-06-08T15:04:16Z</time>
      </trkpt>
      <trkpt lat="48.74998" lon="-3.26782">
        <ele>14.08</ele>
        <time>2013-06-08T15:04:30Z</time>
      </trkpt>
      <trkpt lat="48.74993" lon="-3.26786">
        <ele>14.56</ele>
        <time>2013-06-08T15:04:31Z</time>
      </trkpt>
      <trkpt lat="48.74943" lon="-3.26828">
        <ele>14.08</ele>
        <time>2013-06-08T15:04:39Z</time>
      </trkpt>
      <trkpt lat="48.74937" lon="-3.26836">
        <ele>13.6</ele>
        <time>2013-06-08T15:04:40Z</time>
      </trkpt>
      <trkpt lat="48.74932" lon="-3.26845">
        <ele>13.12</ele>
        <time>2013-06-08T15:04:41Z</time>
      </trkpt>
      <trkpt lat="48.74927" lon="-3.26855">
        <ele>12.63</ele>
        <time>2013-06-08T15:04:42Z</time>
      </trkpt>
      <trkpt lat="48.74923" lon="-3.26866">
        <ele>12.63</ele>
        <time>2013-06-08T15:04:43Z</time>
      </trkpt>
      <trkpt lat="48.7492" lon="-3.26877">
        <ele>12.63</ele>
        <time>2013-06-08T15:04:44Z</time>
      </trkpt>
      <trkpt lat="48.74917" lon="-3.26888">
        <ele>12.15</ele>
        <time>2013-06-08T15:04:45Z</time>
      </trkpt>
      <trkpt lat="48.74915" lon="-3.269">
        <ele>12.63</ele>
        <time>2013-06-08T15:04:46Z</time>
      </trkpt>
      <trkpt lat="48.74901" lon="-3.26989">
        <ele>14.08</ele>
        <time>2013-06-08T15:04:55Z</time>
      </trkpt>
      <trkpt lat="48.74897" lon="-3.26994">
        <ele>14.08</ele>
        <time>2013-06-08T15:04:56Z</time>
      </trkpt>
      <trkpt lat="48.74892" lon="-3.26996">
        <ele>14.56</ele>
        <time>2013-06-08T15:04:57Z</time>
      </trkpt>
      <trkpt lat="48.74887" lon="-3.26995">
        <ele>15.04</ele>
        <time>2013-06-08T15:04:58Z</time>
      </trkpt>
      <trkpt lat="48.74882" lon="-3.26991">
        <ele>15.04</ele>
        <time>2013-06-08T15:04:59Z</time>
      </trkpt>
      <trkpt lat="48.74877" lon="-3.26986">
        <ele>15.52</ele>
        <time>2013-06-08T15:05:00Z</time>
      </trkpt>
      <trkpt lat="48.74872" lon="-3.26981">
        <ele>16</ele>
        <time>2013-06-08T15:05:01Z</time>
      </trkpt>
      <trkpt lat="48.74867" lon="-3.26976">
        <ele>15.52</ele>
        <time>2013-06-08T15:05:02Z</time>
      </trkpt>
      <trkpt lat="48.74861" lon="-3.2697">
        <ele>15.04</ele>
        <time>2013-06-08T15:05:03Z</time>
      </trkpt>
      <trkpt lat="48.74787" lon="-3.26882">
        <ele>13.12</ele>
        <time>2013-06-08T15:05:17Z</time>
      </trkpt>
      <trkpt lat="48.74747" lon="-3.26805">
        <ele>13.12</ele>
        <time>2013-06-08T15:05:27Z</time>
      </trkpt>
      <trkpt lat="48.74665" lon="-3.26678">
        <ele>12.63</ele>
        <time>2013-06-08T15:05:44Z</time>
      </trkpt>
      <trkpt lat="48.7459" lon="-3.266">
        <ele>11.67</ele>
        <time>2013-06-08T15:05:58Z</time>
      </trkpt>
      <trkpt lat="48.7455" lon="-3.26512">
        <ele>14.56</ele>
        <time>2013-06-08T15:06:09Z</time>
      </trkpt>
      <trkpt lat="48.74529" lon="-3.26477">
        <ele>15.04</ele>
        <time>2013-06-08T15:06:15Z</time>
      </trkpt>
      <trkpt lat="48.7451" lon="-3.2645">
        <ele>15.52</ele>
        <time>2013-06-08T15:06:20Z</time>
      </trkpt>
      <trkpt lat="48.74506" lon="-3.26445">
        <ele>16.48</ele>
        <time>2013-06-08T15:06:21Z</time>
      </trkpt>
      <trkpt lat="48.74498" lon="-3.26435">
        <ele>17.44</ele>
        <time>2013-06-08T15:06:23Z</time>
      </trkpt>
      <trkpt lat="48.74491" lon="-3.26423">
        <ele>16.96</ele>
        <time>2013-06-08T15:06:25Z</time>
      </trkpt>
      <trkpt lat="48.74482" lon="-3.26412">
        <ele>16.48</ele>
        <time>2013-06-08T15:06:27Z</time>
      </trkpt>
      <trkpt lat="48.74479" lon="-3.26406">
        <ele>16</ele>
        <time>2013-06-08T15:06:28Z</time>
      </trkpt>
      <trkpt lat="48.74475" lon="-3.26399">
        <ele>16</ele>
        <time>2013-06-08T15:06:29Z</time>
      </trkpt>
      <trkpt lat="48.74465" lon="-3.26375">
        <ele>16.48</ele>
        <time>2013-06-08T15:06:32Z</time>
      </trkpt>
      <trkpt lat="48.74444" lon="-3.26317">
        <ele>14.08</ele>
        <time>2013-06-08T15:06:39Z</time>
      </trkpt>
      <trkpt lat="48.7444" lon="-3.26312">
        <ele>12.15</ele>
        <time>2013-06-08T15:06:40Z</time>
      </trkpt>
      <trkpt lat="48.74435" lon="-3.2631">
        <ele>11.67</ele>
        <time>2013-06-08T15:06:41Z</time>
      </trkpt>
      <trkpt lat="48.74431" lon="-3.2631">
        <ele>12.15</ele>
        <time>2013-06-08T15:06:42Z</time>
      </trkpt>
      <trkpt lat="48.74427" lon="-3.26313">
        <ele>13.12</ele>
        <time>2013-06-08T15:06:43Z</time>
      </trkpt>
      <trkpt lat="48.74424" lon="-3.26317">
        <ele>13.6</ele>
        <time>2013-06-08T15:06:44Z</time>
      </trkpt>
      <trkpt lat="48.74404" lon="-3.26332">
        <ele>16.96</ele>
        <time>2013-06-08T15:06:50Z</time>
      </trkpt>
      <trkpt lat="48.74385" lon="-3.26344">
        <ele>18.88</ele>
        <time>2013-06-08T15:06:55Z</time>
      </trkpt>
      <trkpt lat="48.74382" lon="-3.26348">
        <ele>19.36</ele>
        <time>2013-06-08T15:06:56Z</time>
      </trkpt>
      <trkpt lat="48.74378" lon="-3.26351">
        <ele>19.84</ele>
        <time>2013-06-08T15:06:57Z</time>
      </trkpt>
      <trkpt lat="48.74374" lon="-3.26354">
        <ele>20.32</ele>
        <time>2013-06-08T15:06:58Z</time>
      </trkpt>
      <trkpt lat="48.7437" lon="-3.26357">
        <ele>20.81</ele>
        <time>2013-06-08T15:06:59Z</time>
      </trkpt>
      <trkpt lat="48.74362" lon="-3.26362">
        <ele>21.77</ele>
        <time>2013-06-08T15:07:01Z</time>
      </trkpt>
      <trkpt lat="48.74336" lon="-3.26378">
        <ele>23.69</ele>
        <time>2013-06-08T15:07:08Z</time>
      </trkpt>
      <trkpt lat="48.74327" lon="-3.26383">
        <ele>24.17</ele>
        <time>2013-06-08T15:07:10Z</time>
      </trkpt>
      <trkpt lat="48.74323" lon="-3.26386">
        <ele>24.65</ele>
        <time>2013-06-08T15:07:11Z</time>
      </trkpt>
      <trkpt lat="48.74257" lon="-3.26475">
        <ele>26.09</ele>
        <time>2013-06-08T15:07:28Z</time>
      </trkpt>
      <trkpt lat="48.7424" lon="-3.26498">
        <ele>26.09</ele>
        <time>2013-06-08T15:07:32Z</time>
      </trkpt>
      <trkpt lat="48.74161" lon="-3.26554">
        <ele>24.17</ele>
        <time>2013-06-08T15:07:45Z</time>
      </trkpt>
      <trkpt lat="48.74155" lon="-3.26559">
        <ele>24.17</ele>
        <time>2013-06-08T15:07:46Z</time>
      </trkpt>
      <trkpt lat="48.74149" lon="-3.26565">
        <ele>24.17</ele>
        <time>2013-06-08T15:07:47Z</time>
      </trkpt>
      <trkpt lat="48.74133" lon="-3.26588">
        <ele>24.17</ele>
        <time>2013-06-08T15:07:50Z</time>
      </trkpt>
      <trkpt lat="48.74128" lon="-3.26597">
        <ele>24.17</ele>
        <time>2013-06-08T15:07:51Z</time>
      </trkpt>
      <trkpt lat="48.74073" lon="-3.2671">
        <ele>26.09</ele>
        <time>2013-06-08T15:08:05Z</time>
      </trkpt>
      <trkpt lat="48.74034" lon="-3.2676">
        <ele>28.98</ele>
        <time>2013-06-08T15:08:15Z</time>
      </trkpt>
      <trkpt lat="48.73948" lon="-3.26843">
        <ele>30.42</ele>
        <time>2013-06-08T15:08:32Z</time>
      </trkpt>
      <trkpt lat="48.73848" lon="-3.2692">
        <ele>27.53</ele>
        <time>2013-06-08T15:08:46Z</time>
      </trkpt>
      <trkpt lat="48.73791" lon="-3.27">
        <ele>24.65</ele>
        <time>2013-06-08T15:08:54Z</time>
      </trkpt>
      <trkpt lat="48.73787" lon="-3.27014">
        <ele>23.69</ele>
        <time>2013-06-08T15:08:55Z</time>
      </trkpt>
      <trkpt lat="48.73783" lon="-3.27028">
        <ele>22.73</ele>
        <time>2013-06-08T15:08:56Z</time>
      </trkpt>
      <trkpt lat="48.73751" lon="-3.27179">
        <ele>19.84</ele>
        <time>2013-06-08T15:09:07Z</time>
      </trkpt>
      <trkpt lat="48.73695" lon="-3.27327">
        <ele>18.4</ele>
        <time>2013-06-08T15:09:21Z</time>
      </trkpt>
      <trkpt lat="48.73637" lon="-3.27433">
        <ele>16.48</ele>
        <time>2013-06-08T15:09:32Z</time>
      </trkpt>
      <trkpt lat="48.73557" lon="-3.276">
        <ele>15.52</ele>
        <time>2013-06-08T15:09:49Z</time>
      </trkpt>
      <trkpt lat="48.73475" lon="-3.27702">
        <ele>15.04</ele>
        <time>2013-06-08T15:10:03Z</time>
      </trkpt>
      <trkpt lat="48.73468" lon="-3.27708">
        <ele>15.04</ele>
        <time>2013-06-08T15:10:04Z</time>
      </trkpt>
      <trkpt lat="48.73355" lon="-3.2777">
        <ele>15.52</ele>
        <time>2013-06-08T15:10:20Z</time>
      </trkpt>
      <trkpt lat="48.73293" lon="-3.27846">
        <ele>17.44</ele>
        <time>2013-06-08T15:10:33Z</time>
      </trkpt>
      <trkpt lat="48.73289" lon="-3.27852">
        <ele>17.44</ele>
        <time>2013-06-08T15:10:34Z</time>
      </trkpt>
      <trkpt lat="48.7326" lon="-3.27913">
        <ele>19.36</ele>
        <time>2013-06-08T15:10:43Z</time>
      </trkpt>
      <trkpt lat="48.73216" lon="-3.27985">
        <ele>20.32</ele>
        <time>2013-06-08T15:10:56Z</time>
      </trkpt>
      <trkpt lat="48.73156" lon="-3.2811">
        <ele>22.73</ele>
        <time>2013-06-08T15:11:14Z</time>
      </trkpt>
      <trkpt lat="48.73128" lon="-3.28193">
        <ele>25.61</ele>
        <time>2013-06-08T15:11:25Z</time>
      </trkpt>
      <trkpt lat="48.73092" lon="-3.28291">
        <ele>28.98</ele>
        <time>2013-06-08T15:11:39Z</time>
      </trkpt>
      <trkpt lat="48.73052" lon="-3.28363">
        <ele>31.38</ele>
        <time>2013-06-08T15:11:51Z</time>
      </trkpt>
      <trkpt lat="48.72995" lon="-3.28418">
        <ele>34.74</ele>
        <time>2013-06-08T15:12:04Z</time>
      </trkpt>
      <trkpt lat="48.72973" lon="-3.28436">
        <ele>36.67</ele>
        <time>2013-06-08T15:12:09Z</time>
      </trkpt>
      <trkpt lat="48.72968" lon="-3.28439">
        <ele>36.19</ele>
        <time>2013-06-08T15:12:10Z</time>
      </trkpt>
      <trkpt lat="48.72933" lon="-3.28466">
        <ele>39.55</ele>
        <time>2013-06-08T15:12:18Z</time>
      </trkpt>
      <trkpt lat="48.72892" lon="-3.28487">
        <ele>42.92</ele>
        <time>2013-06-08T15:12:27Z</time>
      </trkpt>
      <trkpt lat="48.72862" lon="-3.285">
        <ele>45.8</ele>
        <time>2013-06-08T15:12:35Z</time>
      </trkpt>
      <trkpt lat="48.72834" lon="-3.28515">
        <ele>48.2</ele>
        <time>2013-06-08T15:12:42Z</time>
      </trkpt>
      <trkpt lat="48.7283" lon="-3.28518">
        <ele>48.2</ele>
        <time>2013-06-08T15:12:43Z</time>
      </trkpt>
      <trkpt lat="48.72825" lon="-3.28521">
        <ele>48.2</ele>
        <time>2013-06-08T15:12:44Z</time>
      </trkpt>
      <trkpt lat="48.72821" lon="-3.28524">
        <ele>48.68</ele>
        <time>2013-06-08T15:12:45Z</time>
      </trkpt>
      <trkpt lat="48.72816" lon="-3.28528">
        <ele>49.16</ele>
        <time>2013-06-08T15:12:46Z</time>
      </trkpt>
      <trkpt lat="48.72772" lon="-3.28566">
        <ele>52.05</ele>
        <time>2013-06-08T15:12:56Z</time>
      </trkpt>
      <trkpt lat="48.72708" lon="-3.28619">
        <ele>54.93</ele>
        <time>2013-06-08T15:13:11Z</time>
      </trkpt>
      <trkpt lat="48.72699" lon="-3.28625">
        <ele>55.41</ele>
        <time>2013-06-08T15:13:13Z</time>
      </trkpt>
      <trkpt lat="48.72639" lon="-3.2866">
        <ele>58.78</ele>
        <time>2013-06-08T15:13:27Z</time>
      </trkpt>
      <trkpt lat="48.72631" lon="-3.28665">
        <ele>59.26</ele>
        <time>2013-06-08T15:13:29Z</time>
      </trkpt>
      <trkpt lat="48.72627" lon="-3.28667">
        <ele>59.26</ele>
        <time>2013-06-08T15:13:30Z</time>
      </trkpt>
      <trkpt lat="48.7259" lon="-3.28691">
        <ele>61.66</ele>
        <time>2013-06-08T15:13:39Z</time>
      </trkpt>
      <trkpt lat="48.72544" lon="-3.28731">
        <ele>65.03</ele>
        <time>2013-06-08T15:13:50Z</time>
      </trkpt>
      <trkpt lat="48.72497" lon="-3.28774">
        <ele>67.91</ele>
        <time>2013-06-08T15:14:02Z</time>
      </trkpt>
      <trkpt lat="48.72455" lon="-3.2882">
        <ele>71.27</ele>
        <time>2013-06-08T15:14:13Z</time>
      </trkpt>
      <trkpt lat="48.72437" lon="-3.2884">
        <ele>72.72</ele>
        <time>2013-06-08T15:14:18Z</time>
      </trkpt>
      <trkpt lat="48.72415" lon="-3.28864">
        <ele>74.64</ele>
        <time>2013-06-08T15:14:24Z</time>
      </trkpt>
      <trkpt lat="48.72411" lon="-3.28868">
        <ele>74.64</ele>
        <time>2013-06-08T15:14:25Z</time>
      </trkpt>
      <trkpt lat="48.72408" lon="-3.28872">
        <ele>75.12</ele>
        <time>2013-06-08T15:14:26Z</time>
      </trkpt>
      <trkpt lat="48.72385" lon="-3.28894">
        <ele>76.56</ele>
        <time>2013-06-08T15:14:32Z</time>
      </trkpt>
      <trkpt lat="48.72381" lon="-3.28899">
        <ele>76.56</ele>
        <time>2013-06-08T15:14:33Z</time>
      </trkpt>
      <trkpt lat="48.72327" lon="-3.28949">
        <ele>79.93</ele>
        <time>2013-06-08T15:14:46Z</time>
      </trkpt>
      <trkpt lat="48.72241" lon="-3.29021">
        <ele>81.37</ele>
        <time>2013-06-08T15:15:04Z</time>
      </trkpt>
      <trkpt lat="48.72145" lon="-3.29092">
        <ele>81.85</ele>
        <time>2013-06-08T15:15:21Z</time>
      </trkpt>
      <trkpt lat="48.72053" lon="-3.29143">
        <ele>82.81</ele>
        <time>2013-06-08T15:15:36Z</time>
      </trkpt>
      <trkpt lat="48.71941" lon="-3.29175">
        <ele>83.77</ele>
        <time>2013-06-08T15:15:53Z</time>
      </trkpt>
      <trkpt lat="48.71841" lon="-3.29198">
        <ele>86.18</ele>
        <time>2013-06-08T15:16:09Z</time>
      </trkpt>
      <trkpt lat="48.71726" lon="-3.29225">
        <ele>88.58</ele>
        <time>2013-06-08T15:16:28Z</time>
      </trkpt>
      <trkpt lat="48.71635" lon="-3.29269">
        <ele>90.02</ele>
        <time>2013-06-08T15:16:44Z</time>
      </trkpt>
      <trkpt lat="48.71613" lon="-3.29284">
        <ele>90.5</ele>
        <time>2013-06-08T15:16:48Z</time>
      </trkpt>
      <trkpt lat="48.71531" lon="-3.29367">
        <ele>91.46</ele>
        <time>2013-06-08T15:17:04Z</time>
      </trkpt>
      <trkpt lat="48.71437" lon="-3.29498">
        <ele>91.94</ele>
        <time>2013-06-08T15:17:23Z</time>
      </trkpt>
      <trkpt lat="48.71333" lon="-3.29648">
        <ele>90.98</ele>
        <time>2013-06-08T15:17:43Z</time>
      </trkpt>
      <trkpt lat="48.71239" lon="-3.29784">
        <ele>89.54</ele>
        <time>2013-06-08T15:18:01Z</time>
      </trkpt>
      <trkpt lat="48.71123" lon="-3.29917">
        <ele>89.06</ele>
        <time>2013-06-08T15:18:20Z</time>
      </trkpt>
      <trkpt lat="48.71027" lon="-3.30054">
        <ele>89.54</ele>
        <time>2013-06-08T15:18:39Z</time>
      </trkpt>
      <trkpt lat="48.70937" lon="-3.30159">
        <ele>89.54</ele>
        <time>2013-06-08T15:18:56Z</time>
      </trkpt>
      <trkpt lat="48.70829" lon="-3.30221">
        <ele>86.66</ele>
        <time>2013-06-08T15:19:11Z</time>
      </trkpt>
      <trkpt lat="48.70735" lon="-3.30275">
        <ele>83.77</ele>
        <time>2013-06-08T15:19:24Z</time>
      </trkpt>
      <trkpt lat="48.70653" lon="-3.30337">
        <ele>80.41</ele>
        <time>2013-06-08T15:19:35Z</time>
      </trkpt>
      <trkpt lat="48.70629" lon="-3.30354">
        <ele>78.97</ele>
        <time>2013-06-08T15:19:38Z</time>
      </trkpt>
      <trkpt lat="48.70579" lon="-3.30393">
        <ele>78</ele>
        <time>2013-06-08T15:19:44Z</time>
      </trkpt>
      <trkpt lat="48.70481" lon="-3.30489">
        <ele>78.48</ele>
        <time>2013-06-08T15:19:58Z</time>
      </trkpt>
      <trkpt lat="48.70378" lon="-3.30587">
        <ele>80.89</ele>
        <time>2013-06-08T15:20:16Z</time>
      </trkpt>
      <trkpt lat="48.70283" lon="-3.30702">
        <ele>82.33</ele>
        <time>2013-06-08T15:20:34Z</time>
      </trkpt>
      <trkpt lat="48.70195" lon="-3.3081">
        <ele>84.25</ele>
        <time>2013-06-08T15:20:51Z</time>
      </trkpt>
      <trkpt lat="48.70121" lon="-3.30923">
        <ele>86.18</ele>
        <time>2013-06-08T15:21:07Z</time>
      </trkpt>
      <trkpt lat="48.70034" lon="-3.31074">
        <ele>86.66</ele>
        <time>2013-06-08T15:21:26Z</time>
      </trkpt>
      <trkpt lat="48.69952" lon="-3.31196">
        <ele>86.18</ele>
        <time>2013-06-08T15:21:42Z</time>
      </trkpt>
      <trkpt lat="48.69876" lon="-3.31294">
        <ele>86.66</ele>
        <time>2013-06-08T15:21:56Z</time>
      </trkpt>
      <trkpt lat="48.69776" lon="-3.31388">
        <ele>89.06</ele>
        <time>2013-06-08T15:22:13Z</time>
      </trkpt>
      <trkpt lat="48.69735" lon="-3.31429">
        <ele>89.06</ele>
        <time>2013-06-08T15:22:20Z</time>
      </trkpt>
      <trkpt lat="48.69644" lon="-3.31552">
        <ele>89.54</ele>
        <time>2013-06-08T15:22:37Z</time>
      </trkpt>
      <trkpt lat="48.69602" lon="-3.3159">
        <ele>90.5</ele>
        <time>2013-06-08T15:22:44Z</time>
      </trkpt>
      <trkpt lat="48.69531" lon="-3.31676">
        <ele>93.39</ele>
        <time>2013-06-08T15:22:58Z</time>
      </trkpt>
      <trkpt lat="48.69505" lon="-3.31699">
        <ele>95.31</ele>
        <time>2013-06-08T15:23:03Z</time>
      </trkpt>
      <trkpt lat="48.69499" lon="-3.31703">
        <ele>95.31</ele>
        <time>2013-06-08T15:23:04Z</time>
      </trkpt>
      <trkpt lat="48.69462" lon="-3.31729">
        <ele>98.19</ele>
        <time>2013-06-08T15:23:11Z</time>
      </trkpt>
      <trkpt lat="48.6945" lon="-3.31732">
        <ele>97.71</ele>
        <time>2013-06-08T15:23:13Z</time>
      </trkpt>
      <trkpt lat="48.6934" lon="-3.31742">
        <ele>98.67</ele>
        <time>2013-06-08T15:23:30Z</time>
      </trkpt>
      <trkpt lat="48.69249" lon="-3.31766">
        <ele>99.63</ele>
        <time>2013-06-08T15:23:44Z</time>
      </trkpt>
      <trkpt lat="48.69144" lon="-3.31789">
        <ele>100.6</ele>
        <time>2013-06-08T15:24:00Z</time>
      </trkpt>
      <trkpt lat="48.69028" lon="-3.31784">
        <ele>101.56</ele>
        <time>2013-06-08T15:24:18Z</time>
      </trkpt>
      <trkpt lat="48.68934" lon="-3.31766">
        <ele>102.52</ele>
        <time>2013-06-08T15:24:32Z</time>
      </trkpt>
      <trkpt lat="48.6882" lon="-3.31751">
        <ele>103.48</ele>
        <time>2013-06-08T15:24:49Z</time>
      </trkpt>
      <trkpt lat="48.68709" lon="-3.31741">
        <ele>105.4</ele>
        <time>2013-06-08T15:25:07Z</time>
      </trkpt>
      <trkpt lat="48.68642" lon="-3.3176">
        <ele>108.29</ele>
        <time>2013-06-08T15:25:19Z</time>
      </trkpt>
      <trkpt lat="48.68567" lon="-3.31805">
        <ele>109.73</ele>
        <time>2013-06-08T15:25:33Z</time>
      </trkpt>
      <trkpt lat="48.68483" lon="-3.31816">
        <ele>108.77</ele>
        <time>2013-06-08T15:25:48Z</time>
      </trkpt>
      <trkpt lat="48.68421" lon="-3.31826">
        <ele>109.73</ele>
        <time>2013-06-08T15:25:59Z</time>
      </trkpt>
      <trkpt lat="48.68356" lon="-3.31836">
        <ele>111.17</ele>
        <time>2013-06-08T15:26:10Z</time>
      </trkpt>
      <trkpt lat="48.6835" lon="-3.31838">
        <ele>111.17</ele>
        <time>2013-06-08T15:26:11Z</time>
      </trkpt>
      <trkpt lat="48.68262" lon="-3.3186">
        <ele>111.65</ele>
        <time>2013-06-08T15:26:24Z</time>
      </trkpt>
      <trkpt lat="48.68161" lon="-3.31884">
        <ele>111.65</ele>
        <time>2013-06-08T15:26:39Z</time>
      </trkpt>
      <trkpt lat="48.68057" lon="-3.31893">
        <ele>112.13</ele>
        <time>2013-06-08T15:26:55Z</time>
      </trkpt>
      <trkpt lat="48.67948" lon="-3.31877">
        <ele>113.09</ele>
        <time>2013-06-08T15:27:11Z</time>
      </trkpt>
      <trkpt lat="48.67892" lon="-3.31877">
        <ele>112.13</ele>
        <time>2013-06-08T15:27:19Z</time>
      </trkpt>
      <trkpt lat="48.67815" lon="-3.3192">
        <ele>111.65</ele>
        <time>2013-06-08T15:27:31Z</time>
      </trkpt>
      <trkpt lat="48.67729" lon="-3.3201">
        <ele>111.65</ele>
        <time>2013-06-08T15:27:46Z</time>
      </trkpt>
      <trkpt lat="48.6765" lon="-3.32101">
        <ele>112.13</ele>
        <time>2013-06-08T15:28:00Z</time>
      </trkpt>
      <trkpt lat="48.67544" lon="-3.32203">
        <ele>111.65</ele>
        <time>2013-06-08T15:28:17Z</time>
      </trkpt>
      <trkpt lat="48.67434" lon="-3.32299">
        <ele>112.13</ele>
        <time>2013-06-08T15:28:34Z</time>
      </trkpt>
      <trkpt lat="48.67346" lon="-3.32418">
        <ele>112.61</ele>
        <time>2013-06-08T15:28:50Z</time>
      </trkpt>
      <trkpt lat="48.67269" lon="-3.32559">
        <ele>112.13</ele>
        <time>2013-06-08T15:29:06Z</time>
      </trkpt>
      <trkpt lat="48.67199" lon="-3.32671">
        <ele>111.17</ele>
        <time>2013-06-08T15:29:19Z</time>
      </trkpt>
      <trkpt lat="48.67116" lon="-3.32795">
        <ele>110.69</ele>
        <time>2013-06-08T15:29:34Z</time>
      </trkpt>
      <trkpt lat="48.67029" lon="-3.32938">
        <ele>112.13</ele>
        <time>2013-06-08T15:29:51Z</time>
      </trkpt>
      <trkpt lat="48.66953" lon="-3.33057">
        <ele>111.65</ele>
        <time>2013-06-08T15:30:06Z</time>
      </trkpt>
      <trkpt lat="48.6686" lon="-3.33169">
        <ele>111.17</ele>
        <time>2013-06-08T15:30:22Z</time>
      </trkpt>
      <trkpt lat="48.66744" lon="-3.33286">
        <ele>110.21</ele>
        <time>2013-06-08T15:30:40Z</time>
      </trkpt>
      <trkpt lat="48.66634" lon="-3.33398">
        <ele>109.73</ele>
        <time>2013-06-08T15:30:57Z</time>
      </trkpt>
      <trkpt lat="48.66537" lon="-3.33508">
        <ele>108.29</ele>
        <time>2013-06-08T15:31:13Z</time>
      </trkpt>
      <trkpt lat="48.66418" lon="-3.33637">
        <ele>109.25</ele>
        <time>2013-06-08T15:31:33Z</time>
      </trkpt>
      <trkpt lat="48.66402" lon="-3.33654">
        <ele>109.73</ele>
        <time>2013-06-08T15:31:36Z</time>
      </trkpt>
      <trkpt lat="48.66311" lon="-3.33737">
        <ele>110.21</ele>
        <time>2013-06-08T15:31:52Z</time>
      </trkpt>
      <trkpt lat="48.66278" lon="-3.33776">
        <ele>109.73</ele>
        <time>2013-06-08T15:31:58Z</time>
      </trkpt>
      <trkpt lat="48.66273" lon="-3.33783">
        <ele>109.73</ele>
        <time>2013-06-08T15:31:59Z</time>
      </trkpt>
      <trkpt lat="48.6627" lon="-3.3379">
        <ele>109.73</ele>
        <time>2013-06-08T15:32:00Z</time>
      </trkpt>
      <trkpt lat="48.66269" lon="-3.33798">
        <ele>109.73</ele>
        <time>2013-06-08T15:32:01Z</time>
      </trkpt>
      <trkpt lat="48.66268" lon="-3.33805">
        <ele>109.73</ele>
        <time>2013-06-08T15:32:02Z</time>
      </trkpt>
      <trkpt lat="48.66268" lon="-3.33811">
        <ele>109.73</ele>
        <time>2013-06-08T15:32:03Z</time>
      </trkpt>
      <trkpt lat="48.66267" lon="-3.33822">
        <ele>109.73</ele>
        <time>2013-06-08T15:32:09Z</time>
      </trkpt>
      <trkpt lat="48.66267" lon="-3.33824">
        <ele>109.73</ele>
        <time>2013-06-08T15:32:10Z</time>
      </trkpt>
      <trkpt lat="48.66266" lon="-3.33827">
        <ele>110.21</ele>
        <time>2013-06-08T15:32:11Z</time>
      </trkpt>
      <trkpt lat="48.66264" lon="-3.33829">
        <ele>109.73</ele>
        <time>2013-06-08T15:32:12Z</time>
      </trkpt>
      <trkpt lat="48.66261" lon="-3.3383">
        <ele>109.73</ele>
        <time>2013-06-08T15:32:13Z</time>
      </trkpt>
      <trkpt lat="48.66257" lon="-3.3383">
        <ele>109.73</ele>
        <time>2013-06-08T15:32:14Z</time>
      </trkpt>
      <trkpt lat="48.66253" lon="-3.3383">
        <ele>110.21</ele>
        <time>2013-06-08T15:32:15Z</time>
      </trkpt>
      <trkpt lat="48.66248" lon="-3.33831">
        <ele>110.21</ele>
        <time>2013-06-08T15:32:16Z</time>
      </trkpt>
      <trkpt lat="48.66161" lon="-3.33839">
        <ele>111.65</ele>
        <time>2013-06-08T15:32:30Z</time>
      </trkpt>
      <trkpt lat="48.66037" lon="-3.33837">
        <ele>112.13</ele>
        <time>2013-06-08T15:32:49Z</time>
      </trkpt>
      <trkpt lat="48.65962" lon="-3.33789">
        <ele>113.57</ele>
        <time>2013-06-08T15:33:02Z</time>
      </trkpt>
      <trkpt lat="48.65908" lon="-3.33725">
        <ele>116.46</ele>
        <time>2013-06-08T15:33:15Z</time>
      </trkpt>
      <trkpt lat="48.659" lon="-3.33718">
        <ele>116.46</ele>
        <time>2013-06-08T15:33:17Z</time>
      </trkpt>
      <trkpt lat="48.65885" lon="-3.33712">
        <ele>116.94</ele>
        <time>2013-06-08T15:33:20Z</time>
      </trkpt>
      <trkpt lat="48.6588" lon="-3.33711">
        <ele>116.94</ele>
        <time>2013-06-08T15:33:21Z</time>
      </trkpt>
      <trkpt lat="48.65875" lon="-3.33711">
        <ele>116.46</ele>
        <time>2013-06-08T15:33:22Z</time>
      </trkpt>
      <trkpt lat="48.6587" lon="-3.33712">
        <ele>116.46</ele>
        <time>2013-06-08T15:33:23Z</time>
      </trkpt>
      <trkpt lat="48.65864" lon="-3.33713">
        <ele>116.94</ele>
        <time>2013-06-08T15:33:24Z</time>
      </trkpt>
      <trkpt lat="48.65859" lon="-3.33715">
        <ele>116.94</ele>
        <time>2013-06-08T15:33:25Z</time>
      </trkpt>
      <trkpt lat="48.65854" lon="-3.33717">
        <ele>116.94</ele>
        <time>2013-06-08T15:33:26Z</time>
      </trkpt>
      <trkpt lat="48.65849" lon="-3.33721">
        <ele>116.94</ele>
        <time>2013-06-08T15:33:27Z</time>
      </trkpt>
      <trkpt lat="48.65839" lon="-3.3373">
        <ele>117.42</ele>
        <time>2013-06-08T15:33:29Z</time>
      </trkpt>
      <trkpt lat="48.65835" lon="-3.33736">
        <ele>117.42</ele>
        <time>2013-06-08T15:33:30Z</time>
      </trkpt>
      <trkpt lat="48.65831" lon="-3.33741">
        <ele>117.9</ele>
        <time>2013-06-08T15:33:31Z</time>
      </trkpt>
      <trkpt lat="48.65775" lon="-3.33829">
        <ele>115.98</ele>
        <time>2013-06-08T15:33:44Z</time>
      </trkpt>
      <trkpt lat="48.65772" lon="-3.33838">
        <ele>115.98</ele>
        <time>2013-06-08T15:33:45Z</time>
      </trkpt>
      <trkpt lat="48.65771" lon="-3.33848">
        <ele>116.46</ele>
        <time>2013-06-08T15:33:46Z</time>
      </trkpt>
      <trkpt lat="48.6577" lon="-3.33858">
        <ele>116.46</ele>
        <time>2013-06-08T15:33:47Z</time>
      </trkpt>
      <trkpt lat="48.65768" lon="-3.33868">
        <ele>116.46</ele>
        <time>2013-06-08T15:33:48Z</time>
      </trkpt>
      <trkpt lat="48.65763" lon="-3.33876">
        <ele>115.5</ele>
        <time>2013-06-08T15:33:49Z</time>
      </trkpt>
      <trkpt lat="48.65758" lon="-3.33881">
        <ele>115.5</ele>
        <time>2013-06-08T15:33:50Z</time>
      </trkpt>
      <trkpt lat="48.65751" lon="-3.33883">
        <ele>115.5</ele>
        <time>2013-06-08T15:33:51Z</time>
      </trkpt>
      <trkpt lat="48.65744" lon="-3.33884">
        <ele>115.01</ele>
        <time>2013-06-08T15:33:52Z</time>
      </trkpt>
      <trkpt lat="48.65737" lon="-3.33885">
        <ele>115.01</ele>
        <time>2013-06-08T15:33:53Z</time>
      </trkpt>
      <trkpt lat="48.6573" lon="-3.33888">
        <ele>114.53</ele>
        <time>2013-06-08T15:33:54Z</time>
      </trkpt>
      <trkpt lat="48.65723" lon="-3.33892">
        <ele>114.53</ele>
        <time>2013-06-08T15:33:55Z</time>
      </trkpt>
      <trkpt lat="48.65613" lon="-3.33941">
        <ele>115.01</ele>
        <time>2013-06-08T15:34:11Z</time>
      </trkpt>
      <trkpt lat="48.65534" lon="-3.33997">
        <ele>115.5</ele>
        <time>2013-06-08T15:34:24Z</time>
      </trkpt>
      <trkpt lat="48.655" lon="-3.34047">
        <ele>116.46</ele>
        <time>2013-06-08T15:34:31Z</time>
      </trkpt>
      <trkpt lat="48.65496" lon="-3.34056">
        <ele>116.46</ele>
        <time>2013-06-08T15:34:32Z</time>
      </trkpt>
      <trkpt lat="48.65468" lon="-3.34166">
        <ele>116.94</ele>
        <time>2013-06-08T15:34:44Z</time>
      </trkpt>
      <trkpt lat="48.65441" lon="-3.34245">
        <ele>117.42</ele>
        <time>2013-06-08T15:34:53Z</time>
      </trkpt>
      <trkpt lat="48.65437" lon="-3.34252">
        <ele>117.42</ele>
        <time>2013-06-08T15:34:54Z</time>
      </trkpt>
      <trkpt lat="48.65432" lon="-3.3426">
        <ele>117.42</ele>
        <time>2013-06-08T15:34:55Z</time>
      </trkpt>
      <trkpt lat="48.65367" lon="-3.34399">
        <ele>117.42</ele>
        <time>2013-06-08T15:35:12Z</time>
      </trkpt>
      <trkpt lat="48.65348" lon="-3.34428">
        <ele>116.94</ele>
        <time>2013-06-08T15:35:16Z</time>
      </trkpt>
      <trkpt lat="48.65262" lon="-3.34499">
        <ele>117.42</ele>
        <time>2013-06-08T15:35:30Z</time>
      </trkpt>
      <trkpt lat="48.65224" lon="-3.34545">
        <ele>116.46</ele>
        <time>2013-06-08T15:35:37Z</time>
      </trkpt>
      <trkpt lat="48.65144" lon="-3.34629">
        <ele>116.46</ele>
        <time>2013-06-08T15:35:51Z</time>
      </trkpt>
      <trkpt lat="48.65044" lon="-3.34686">
        <ele>117.42</ele>
        <time>2013-06-08T15:36:07Z</time>
      </trkpt>
      <trkpt lat="48.64955" lon="-3.34742">
        <ele>117.42</ele>
        <time>2013-06-08T15:36:21Z</time>
      </trkpt>
      <trkpt lat="48.64858" lon="-3.34785">
        <ele>115.98</ele>
        <time>2013-06-08T15:36:35Z</time>
      </trkpt>
      <trkpt lat="48.64795" lon="-3.3484">
        <ele>115.5</ele>
        <time>2013-06-08T15:36:45Z</time>
      </trkpt>
      <trkpt lat="48.64789" lon="-3.34848">
        <ele>115.5</ele>
        <time>2013-06-08T15:36:46Z</time>
      </trkpt>
      <trkpt lat="48.64784" lon="-3.34856">
        <ele>115.5</ele>
        <time>2013-06-08T15:36:47Z</time>
      </trkpt>
      <trkpt lat="48.6478" lon="-3.34866">
        <ele>115.5</ele>
        <time>2013-06-08T15:36:48Z</time>
      </trkpt>
      <trkpt lat="48.64776" lon="-3.34876">
        <ele>115.5</ele>
        <time>2013-06-08T15:36:49Z</time>
      </trkpt>
      <trkpt lat="48.64773" lon="-3.34887">
        <ele>115.01</ele>
        <time>2013-06-08T15:36:50Z</time>
      </trkpt>
      <trkpt lat="48.64732" lon="-3.35043">
        <ele>112.13</ele>
        <time>2013-06-08T15:37:03Z</time>
      </trkpt>
      <trkpt lat="48.64686" lon="-3.3527">
        <ele>112.13</ele>
        <time>2013-06-08T15:37:21Z</time>
      </trkpt>
      <trkpt lat="48.64653" lon="-3.35417">
        <ele>111.65</ele>
        <time>2013-06-08T15:37:34Z</time>
      </trkpt>
      <trkpt lat="48.6459" lon="-3.3558">
        <ele>110.69</ele>
        <time>2013-06-08T15:37:50Z</time>
      </trkpt>
      <trkpt lat="48.64571" lon="-3.35615">
        <ele>110.21</ele>
        <time>2013-06-08T15:37:54Z</time>
      </trkpt>
      <trkpt lat="48.64523" lon="-3.35767">
        <ele>110.21</ele>
        <time>2013-06-08T15:38:09Z</time>
      </trkpt>
      <trkpt lat="48.6447" lon="-3.35891">
        <ele>110.21</ele>
        <time>2013-06-08T15:38:22Z</time>
      </trkpt>
      <trkpt lat="48.6442" lon="-3.36018">
        <ele>106.84</ele>
        <time>2013-06-08T15:38:34Z</time>
      </trkpt>
      <trkpt lat="48.64392" lon="-3.36143">
        <ele>105.88</ele>
        <time>2013-06-08T15:38:45Z</time>
      </trkpt>
      <trkpt lat="48.64377" lon="-3.36191">
        <ele>104.44</ele>
        <time>2013-06-08T15:38:49Z</time>
      </trkpt>
      <trkpt lat="48.64361" lon="-3.36279">
        <ele>100.6</ele>
        <time>2013-06-08T15:38:55Z</time>
      </trkpt>
      <trkpt lat="48.64355" lon="-3.36333">
        <ele>98.67</ele>
        <time>2013-06-08T15:38:58Z</time>
      </trkpt>
      <trkpt lat="48.64324" lon="-3.36474">
        <ele>96.27</ele>
        <time>2013-06-08T15:39:08Z</time>
      </trkpt>
      <trkpt lat="48.64311" lon="-3.36531">
        <ele>97.23</ele>
        <time>2013-06-08T15:39:14Z</time>
      </trkpt>
      <trkpt lat="48.64299" lon="-3.36589">
        <ele>100.6</ele>
        <time>2013-06-08T15:39:22Z</time>
      </trkpt>
      <trkpt lat="48.64291" lon="-3.36621">
        <ele>102.52</ele>
        <time>2013-06-08T15:39:27Z</time>
      </trkpt>
      <trkpt lat="48.64285" lon="-3.36647">
        <ele>104.44</ele>
        <time>2013-06-08T15:39:31Z</time>
      </trkpt>
      <trkpt lat="48.64284" lon="-3.36653">
        <ele>104.44</ele>
        <time>2013-06-08T15:39:32Z</time>
      </trkpt>
      <trkpt lat="48.64276" lon="-3.36684">
        <ele>106.84</ele>
        <time>2013-06-08T15:39:37Z</time>
      </trkpt>
      <trkpt lat="48.64251" lon="-3.36759">
        <ele>109.73</ele>
        <time>2013-06-08T15:39:49Z</time>
      </trkpt>
      <trkpt lat="48.64237" lon="-3.36805">
        <ele>112.13</ele>
        <time>2013-06-08T15:39:56Z</time>
      </trkpt>
      <trkpt lat="48.64236" lon="-3.36812">
        <ele>112.13</ele>
        <time>2013-06-08T15:39:57Z</time>
      </trkpt>
      <trkpt lat="48.64235" lon="-3.36819">
        <ele>112.61</ele>
        <time>2013-06-08T15:39:58Z</time>
      </trkpt>
      <trkpt lat="48.6423" lon="-3.36852">
        <ele>114.05</ele>
        <time>2013-06-08T15:40:03Z</time>
      </trkpt>
      <trkpt lat="48.64217" lon="-3.36909">
        <ele>115.98</ele>
        <time>2013-06-08T15:40:11Z</time>
      </trkpt>
      <trkpt lat="48.64214" lon="-3.36916">
        <ele>115.98</ele>
        <time>2013-06-08T15:40:12Z</time>
      </trkpt>
      <trkpt lat="48.64213" lon="-3.36923">
        <ele>116.46</ele>
        <time>2013-06-08T15:40:13Z</time>
      </trkpt>
      <trkpt lat="48.64212" lon="-3.36931">
        <ele>116.46</ele>
        <time>2013-06-08T15:40:14Z</time>
      </trkpt>
      <trkpt lat="48.64211" lon="-3.36938">
        <ele>116.46</ele>
        <time>2013-06-08T15:40:15Z</time>
      </trkpt>
      <trkpt lat="48.642" lon="-3.37016">
        <ele>119.82</ele>
        <time>2013-06-08T15:40:26Z</time>
      </trkpt>
      <trkpt lat="48.64198" lon="-3.37049">
        <ele>120.78</ele>
        <time>2013-06-08T15:40:31Z</time>
      </trkpt>
      <trkpt lat="48.64197" lon="-3.37056">
        <ele>121.26</ele>
        <time>2013-06-08T15:40:32Z</time>
      </trkpt>
      <trkpt lat="48.64195" lon="-3.37069">
        <ele>121.74</ele>
        <time>2013-06-08T15:40:34Z</time>
      </trkpt>
      <trkpt lat="48.64192" lon="-3.37101">
        <ele>124.15</ele>
        <time>2013-06-08T15:40:39Z</time>
      </trkpt>
      <trkpt lat="48.64193" lon="-3.37121">
        <ele>125.59</ele>
        <time>2013-06-08T15:40:44Z</time>
      </trkpt>
      <trkpt lat="48.64202" lon="-3.37123">
        <ele>125.59</ele>
        <time>2013-06-08T15:40:48Z</time>
      </trkpt>
      <trkpt lat="48.64208" lon="-3.37123">
        <ele>125.59</ele>
        <time>2013-06-08T15:40:49Z</time>
      </trkpt>
      <trkpt lat="48.64213" lon="-3.37124">
        <ele>125.59</ele>
        <time>2013-06-08T15:40:50Z</time>
      </trkpt>
      <trkpt lat="48.64218" lon="-3.37125">
        <ele>125.59</ele>
        <time>2013-06-08T15:40:51Z</time>
      </trkpt>
      <trkpt lat="48.64223" lon="-3.37127">
        <ele>124.63</ele>
        <time>2013-06-08T15:40:52Z</time>
      </trkpt>
      <trkpt lat="48.64228" lon="-3.37131">
        <ele>124.15</ele>
        <time>2013-06-08T15:40:53Z</time>
      </trkpt>
      <trkpt lat="48.64233" lon="-3.37135">
        <ele>124.15</ele>
        <time>2013-06-08T15:40:54Z</time>
      </trkpt>
      <trkpt lat="48.64274" lon="-3.37176">
        <ele>122.22</ele>
        <time>2013-06-08T15:41:01Z</time>
      </trkpt>
      <trkpt lat="48.64279" lon="-3.37184">
        <ele>121.74</ele>
        <time>2013-06-08T15:41:02Z</time>
      </trkpt>
      <trkpt lat="48.64284" lon="-3.37195">
        <ele>120.78</ele>
        <time>2013-06-08T15:41:03Z</time>
      </trkpt>
      <trkpt lat="48.64289" lon="-3.37207">
        <ele>119.82</ele>
        <time>2013-06-08T15:41:04Z</time>
      </trkpt>
      <trkpt lat="48.64292" lon="-3.3722">
        <ele>118.86</ele>
        <time>2013-06-08T15:41:05Z</time>
      </trkpt>
      <trkpt lat="48.64295" lon="-3.37233">
        <ele>117.42</ele>
        <time>2013-06-08T15:41:06Z</time>
      </trkpt>
      <trkpt lat="48.64297" lon="-3.37246">
        <ele>115.98</ele>
        <time>2013-06-08T15:41:07Z</time>
      </trkpt>
      <trkpt lat="48.64301" lon="-3.37283">
        <ele>112.61</ele>
        <time>2013-06-08T15:41:10Z</time>
      </trkpt>
      <trkpt lat="48.64303" lon="-3.37306">
        <ele>111.65</ele>
        <time>2013-06-08T15:41:12Z</time>
      </trkpt>
      <trkpt lat="48.64303" lon="-3.37345">
        <ele>110.69</ele>
        <time>2013-06-08T15:41:15Z</time>
      </trkpt>
      <trkpt lat="48.64302" lon="-3.37358">
        <ele>110.21</ele>
        <time>2013-06-08T15:41:16Z</time>
      </trkpt>
      <trkpt lat="48.64291" lon="-3.37427">
        <ele>106.84</ele>
        <time>2013-06-08T15:41:21Z</time>
      </trkpt>
      <trkpt lat="48.6429" lon="-3.37472">
        <ele>105.88</ele>
        <time>2013-06-08T15:41:24Z</time>
      </trkpt>
      <trkpt lat="48.64292" lon="-3.37487">
        <ele>105.4</ele>
        <time>2013-06-08T15:41:25Z</time>
      </trkpt>
      <trkpt lat="48.64305" lon="-3.37561">
        <ele>103.48</ele>
        <time>2013-06-08T15:41:30Z</time>
      </trkpt>
      <trkpt lat="48.64326" lon="-3.37666">
        <ele>104.44</ele>
        <time>2013-06-08T15:41:40Z</time>
      </trkpt>
      <trkpt lat="48.64334" lon="-3.37698">
        <ele>105.88</ele>
        <time>2013-06-08T15:41:44Z</time>
      </trkpt>
      <trkpt lat="48.64336" lon="-3.37706">
        <ele>105.88</ele>
        <time>2013-06-08T15:41:45Z</time>
      </trkpt>
      <trkpt lat="48.64344" lon="-3.37743">
        <ele>107.81</ele>
        <time>2013-06-08T15:41:50Z</time>
      </trkpt>
      <trkpt lat="48.64347" lon="-3.3775">
        <ele>107.81</ele>
        <time>2013-06-08T15:41:51Z</time>
      </trkpt>
      <trkpt lat="48.64364" lon="-3.37783">
        <ele>109.25</ele>
        <time>2013-06-08T15:41:56Z</time>
      </trkpt>
      <trkpt lat="48.64368" lon="-3.37789">
        <ele>109.25</ele>
        <time>2013-06-08T15:41:57Z</time>
      </trkpt>
      <trkpt lat="48.64372" lon="-3.37795">
        <ele>108.29</ele>
        <time>2013-06-08T15:41:58Z</time>
      </trkpt>
      <trkpt lat="48.64377" lon="-3.378">
        <ele>108.77</ele>
        <time>2013-06-08T15:41:59Z</time>
      </trkpt>
      <trkpt lat="48.64382" lon="-3.37806">
        <ele>109.25</ele>
        <time>2013-06-08T15:42:00Z</time>
      </trkpt>
      <trkpt lat="48.6446" lon="-3.37901">
        <ele>109.73</ele>
        <time>2013-06-08T15:42:15Z</time>
      </trkpt>
      <trkpt lat="48.64516" lon="-3.38009">
        <ele>107.32</ele>
        <time>2013-06-08T15:42:28Z</time>
      </trkpt>
      <trkpt lat="48.64547" lon="-3.38117">
        <ele>104.44</ele>
        <time>2013-06-08T15:42:38Z</time>
      </trkpt>
      <trkpt lat="48.64555" lon="-3.38156">
        <ele>105.4</ele>
        <time>2013-06-08T15:42:42Z</time>
      </trkpt>
      <trkpt lat="48.64556" lon="-3.38165">
        <ele>106.84</ele>
        <time>2013-06-08T15:42:43Z</time>
      </trkpt>
      <trkpt lat="48.64557" lon="-3.38174">
        <ele>106.36</ele>
        <time>2013-06-08T15:42:44Z</time>
      </trkpt>
      <trkpt lat="48.64569" lon="-3.3826">
        <ele>108.29</ele>
        <time>2013-06-08T15:42:54Z</time>
      </trkpt>
      <trkpt lat="48.64586" lon="-3.38322">
        <ele>108.29</ele>
        <time>2013-06-08T15:43:01Z</time>
      </trkpt>
      <trkpt lat="48.64594" lon="-3.38339">
        <ele>108.29</ele>
        <time>2013-06-08T15:43:03Z</time>
      </trkpt>
      <trkpt lat="48.64598" lon="-3.38346">
        <ele>108.29</ele>
        <time>2013-06-08T15:43:04Z</time>
      </trkpt>
      <trkpt lat="48.64603" lon="-3.38353">
        <ele>108.29</ele>
        <time>2013-06-08T15:43:05Z</time>
      </trkpt>
      <trkpt lat="48.64613" lon="-3.38366">
        <ele>108.29</ele>
        <time>2013-06-08T15:43:07Z</time>
      </trkpt>
      <trkpt lat="48.64619" lon="-3.38371">
        <ele>108.29</ele>
        <time>2013-06-08T15:43:08Z</time>
      </trkpt>
      <trkpt lat="48.64647" lon="-3.38397">
        <ele>109.25</ele>
        <time>2013-06-08T15:43:13Z</time>
      </trkpt>
      <trkpt lat="48.64652" lon="-3.38403">
        <ele>109.73</ele>
        <time>2013-06-08T15:43:14Z</time>
      </trkpt>
      <trkpt lat="48.64656" lon="-3.3841">
        <ele>110.21</ele>
        <time>2013-06-08T15:43:15Z</time>
      </trkpt>
      <trkpt lat="48.64681" lon="-3.38454">
        <ele>111.17</ele>
        <time>2013-06-08T15:43:21Z</time>
      </trkpt>
      <trkpt lat="48.64729" lon="-3.38563">
        <ele>112.13</ele>
        <time>2013-06-08T15:43:35Z</time>
      </trkpt>
      <trkpt lat="48.64782" lon="-3.38682">
        <ele>113.57</ele>
        <time>2013-06-08T15:43:50Z</time>
      </trkpt>
      <trkpt lat="48.64866" lon="-3.38807">
        <ele>114.53</ele>
        <time>2013-06-08T15:44:08Z</time>
      </trkpt>
      <trkpt lat="48.64963" lon="-3.3888">
        <ele>115.01</ele>
        <time>2013-06-08T15:44:24Z</time>
      </trkpt>
      <trkpt lat="48.65006" lon="-3.38914">
        <ele>115.98</ele>
        <time>2013-06-08T15:44:31Z</time>
      </trkpt>
      <trkpt lat="48.65011" lon="-3.38921">
        <ele>115.5</ele>
        <time>2013-06-08T15:44:32Z</time>
      </trkpt>
      <trkpt lat="48.65015" lon="-3.38929">
        <ele>115.01</ele>
        <time>2013-06-08T15:44:33Z</time>
      </trkpt>
      <trkpt lat="48.65019" lon="-3.38937">
        <ele>114.53</ele>
        <time>2013-06-08T15:44:34Z</time>
      </trkpt>
      <trkpt lat="48.65023" lon="-3.38946">
        <ele>114.05</ele>
        <time>2013-06-08T15:44:35Z</time>
      </trkpt>
      <trkpt lat="48.65026" lon="-3.38955">
        <ele>114.05</ele>
        <time>2013-06-08T15:44:36Z</time>
      </trkpt>
      <trkpt lat="48.65029" lon="-3.38965">
        <ele>114.53</ele>
        <time>2013-06-08T15:44:37Z</time>
      </trkpt>
      <trkpt lat="48.65033" lon="-3.38985">
        <ele>114.05</ele>
        <time>2013-06-08T15:44:39Z</time>
      </trkpt>
      <trkpt lat="48.65031" lon="-3.39129">
        <ele>113.09</ele>
        <time>2013-06-08T15:44:53Z</time>
      </trkpt>
      <trkpt lat="48.65007" lon="-3.39318">
        <ele>112.61</ele>
        <time>2013-06-08T15:45:11Z</time>
      </trkpt>
      <trkpt lat="48.64995" lon="-3.39391">
        <ele>112.61</ele>
        <time>2013-06-08T15:45:18Z</time>
      </trkpt>
      <trkpt lat="48.64978" lon="-3.3944">
        <ele>113.57</ele>
        <time>2013-06-08T15:45:23Z</time>
      </trkpt>
      <trkpt lat="48.64897" lon="-3.39593">
        <ele>113.09</ele>
        <time>2013-06-08T15:45:41Z</time>
      </trkpt>
      <trkpt lat="48.64802" lon="-3.39765">
        <ele>111.65</ele>
        <time>2013-06-08T15:46:01Z</time>
      </trkpt>
      <trkpt lat="48.64749" lon="-3.3986">
        <ele>110.21</ele>
        <time>2013-06-08T15:46:12Z</time>
      </trkpt>
      <trkpt lat="48.64704" lon="-3.39951">
        <ele>108.29</ele>
        <time>2013-06-08T15:46:22Z</time>
      </trkpt>
      <trkpt lat="48.64673" lon="-3.4009">
        <ele>107.32</ele>
        <time>2013-06-08T15:46:35Z</time>
      </trkpt>
      <trkpt lat="48.64676" lon="-3.40228">
        <ele>105.4</ele>
        <time>2013-06-08T15:46:47Z</time>
      </trkpt>
      <trkpt lat="48.64714" lon="-3.40373">
        <ele>104.92</ele>
        <time>2013-06-08T15:47:01Z</time>
      </trkpt>
      <trkpt lat="48.64754" lon="-3.40486">
        <ele>105.88</ele>
        <time>2013-06-08T15:47:14Z</time>
      </trkpt>
      <trkpt lat="48.64799" lon="-3.40609">
        <ele>105.4</ele>
        <time>2013-06-08T15:47:28Z</time>
      </trkpt>
      <trkpt lat="48.64816" lon="-3.40678">
        <ele>104.92</ele>
        <time>2013-06-08T15:47:34Z</time>
      </trkpt>
      <trkpt lat="48.64821" lon="-3.40722">
        <ele>104.92</ele>
        <time>2013-06-08T15:47:38Z</time>
      </trkpt>
      <trkpt lat="48.64821" lon="-3.40733">
        <ele>104.92</ele>
        <time>2013-06-08T15:47:39Z</time>
      </trkpt>
      <trkpt lat="48.64813" lon="-3.40914">
        <ele>105.88</ele>
        <time>2013-06-08T15:47:56Z</time>
      </trkpt>
      <trkpt lat="48.64813" lon="-3.41109">
        <ele>104.92</ele>
        <time>2013-06-08T15:48:13Z</time>
      </trkpt>
      <trkpt lat="48.64836" lon="-3.41251">
        <ele>101.56</ele>
        <time>2013-06-08T15:48:26Z</time>
      </trkpt>
      <trkpt lat="48.64845" lon="-3.41273">
        <ele>101.08</ele>
        <time>2013-06-08T15:48:28Z</time>
      </trkpt>
      <trkpt lat="48.64882" lon="-3.41331">
        <ele>98.67</ele>
        <time>2013-06-08T15:48:34Z</time>
      </trkpt>
      <trkpt lat="48.6493" lon="-3.4138">
        <ele>95.31</ele>
        <time>2013-06-08T15:48:40Z</time>
      </trkpt>
      <trkpt lat="48.64938" lon="-3.41388">
        <ele>94.83</ele>
        <time>2013-06-08T15:48:41Z</time>
      </trkpt>
      <trkpt lat="48.64954" lon="-3.41408">
        <ele>94.35</ele>
        <time>2013-06-08T15:48:43Z</time>
      </trkpt>
      <trkpt lat="48.64988" lon="-3.41499">
        <ele>92.42</ele>
        <time>2013-06-08T15:48:50Z</time>
      </trkpt>
      <trkpt lat="48.64992" lon="-3.4153">
        <ele>90.5</ele>
        <time>2013-06-08T15:48:52Z</time>
      </trkpt>
      <trkpt lat="48.64992" lon="-3.41545">
        <ele>89.06</ele>
        <time>2013-06-08T15:48:53Z</time>
      </trkpt>
      <trkpt lat="48.64991" lon="-3.41562">
        <ele>88.58</ele>
        <time>2013-06-08T15:48:54Z</time>
      </trkpt>
      <trkpt lat="48.64989" lon="-3.41579">
        <ele>87.62</ele>
        <time>2013-06-08T15:48:55Z</time>
      </trkpt>
      <trkpt lat="48.64986" lon="-3.41596">
        <ele>87.14</ele>
        <time>2013-06-08T15:48:56Z</time>
      </trkpt>
      <trkpt lat="48.64982" lon="-3.41613">
        <ele>85.69</ele>
        <time>2013-06-08T15:48:57Z</time>
      </trkpt>
      <trkpt lat="48.64976" lon="-3.4163">
        <ele>84.25</ele>
        <time>2013-06-08T15:48:58Z</time>
      </trkpt>
      <trkpt lat="48.64971" lon="-3.41647">
        <ele>83.77</ele>
        <time>2013-06-08T15:48:59Z</time>
      </trkpt>
      <trkpt lat="48.6496" lon="-3.417">
        <ele>81.37</ele>
        <time>2013-06-08T15:49:02Z</time>
      </trkpt>
      <trkpt lat="48.64959" lon="-3.41719">
        <ele>82.81</ele>
        <time>2013-06-08T15:49:03Z</time>
      </trkpt>
      <trkpt lat="48.6496" lon="-3.41737">
        <ele>82.33</ele>
        <time>2013-06-08T15:49:04Z</time>
      </trkpt>
      <trkpt lat="48.64962" lon="-3.41754">
        <ele>81.37</ele>
        <time>2013-06-08T15:49:05Z</time>
      </trkpt>
      <trkpt lat="48.64965" lon="-3.41771">
        <ele>81.37</ele>
        <time>2013-06-08T15:49:06Z</time>
      </trkpt>
      <trkpt lat="48.64971" lon="-3.41823">
        <ele>78.97</ele>
        <time>2013-06-08T15:49:09Z</time>
      </trkpt>
      <trkpt lat="48.6497" lon="-3.4184">
        <ele>77.52</ele>
        <time>2013-06-08T15:49:10Z</time>
      </trkpt>
      <trkpt lat="48.64968" lon="-3.41857">
        <ele>76.56</ele>
        <time>2013-06-08T15:49:11Z</time>
      </trkpt>
      <trkpt lat="48.64964" lon="-3.41874">
        <ele>76.08</ele>
        <time>2013-06-08T15:49:12Z</time>
      </trkpt>
      <trkpt lat="48.64959" lon="-3.4189">
        <ele>75.12</ele>
        <time>2013-06-08T15:49:13Z</time>
      </trkpt>
      <trkpt lat="48.64953" lon="-3.41905">
        <ele>74.64</ele>
        <time>2013-06-08T15:49:14Z</time>
      </trkpt>
      <trkpt lat="48.64946" lon="-3.41919">
        <ele>73.68</ele>
        <time>2013-06-08T15:49:15Z</time>
      </trkpt>
      <trkpt lat="48.64939" lon="-3.41934">
        <ele>72.24</ele>
        <time>2013-06-08T15:49:16Z</time>
      </trkpt>
      <trkpt lat="48.64926" lon="-3.41964">
        <ele>68.87</ele>
        <time>2013-06-08T15:49:18Z</time>
      </trkpt>
      <trkpt lat="48.64889" lon="-3.42041">
        <ele>65.51</ele>
        <time>2013-06-08T15:49:23Z</time>
      </trkpt>
      <trkpt lat="48.64869" lon="-3.42087">
        <ele>63.58</ele>
        <time>2013-06-08T15:49:26Z</time>
      </trkpt>
      <trkpt lat="48.64852" lon="-3.42136">
        <ele>61.18</ele>
        <time>2013-06-08T15:49:29Z</time>
      </trkpt>
      <trkpt lat="48.64846" lon="-3.42171">
        <ele>59.74</ele>
        <time>2013-06-08T15:49:31Z</time>
      </trkpt>
      <trkpt lat="48.64845" lon="-3.42189">
        <ele>59.26</ele>
        <time>2013-06-08T15:49:32Z</time>
      </trkpt>
      <trkpt lat="48.64846" lon="-3.42206">
        <ele>58.78</ele>
        <time>2013-06-08T15:49:33Z</time>
      </trkpt>
      <trkpt lat="48.64849" lon="-3.42224">
        <ele>57.34</ele>
        <time>2013-06-08T15:49:34Z</time>
      </trkpt>
      <trkpt lat="48.64854" lon="-3.4224">
        <ele>57.34</ele>
        <time>2013-06-08T15:49:35Z</time>
      </trkpt>
      <trkpt lat="48.64859" lon="-3.42255">
        <ele>56.86</ele>
        <time>2013-06-08T15:49:36Z</time>
      </trkpt>
      <trkpt lat="48.64872" lon="-3.42284">
        <ele>54.45</ele>
        <time>2013-06-08T15:49:38Z</time>
      </trkpt>
      <trkpt lat="48.64888" lon="-3.42308">
        <ele>53.49</ele>
        <time>2013-06-08T15:49:40Z</time>
      </trkpt>
      <trkpt lat="48.64922" lon="-3.42349">
        <ele>51.09</ele>
        <time>2013-06-08T15:49:44Z</time>
      </trkpt>
      <trkpt lat="48.64945" lon="-3.42384">
        <ele>49.16</ele>
        <time>2013-06-08T15:49:47Z</time>
      </trkpt>
      <trkpt lat="48.64966" lon="-3.42438">
        <ele>46.76</ele>
        <time>2013-06-08T15:49:51Z</time>
      </trkpt>
      <trkpt lat="48.64976" lon="-3.42483">
        <ele>44.84</ele>
        <time>2013-06-08T15:49:54Z</time>
      </trkpt>
      <trkpt lat="48.64978" lon="-3.42498">
        <ele>44.36</ele>
        <time>2013-06-08T15:49:55Z</time>
      </trkpt>
      <trkpt lat="48.64979" lon="-3.42514">
        <ele>43.88</ele>
        <time>2013-06-08T15:49:56Z</time>
      </trkpt>
      <trkpt lat="48.64994" lon="-3.42646">
        <ele>40.51</ele>
        <time>2013-06-08T15:50:05Z</time>
      </trkpt>
      <trkpt lat="48.64998" lon="-3.42657">
        <ele>40.03</ele>
        <time>2013-06-08T15:50:06Z</time>
      </trkpt>
      <trkpt lat="48.65002" lon="-3.42667">
        <ele>40.03</ele>
        <time>2013-06-08T15:50:07Z</time>
      </trkpt>
      <trkpt lat="48.65008" lon="-3.42676">
        <ele>40.03</ele>
        <time>2013-06-08T15:50:08Z</time>
      </trkpt>
      <trkpt lat="48.65014" lon="-3.42685">
        <ele>40.03</ele>
        <time>2013-06-08T15:50:09Z</time>
      </trkpt>
      <trkpt lat="48.65025" lon="-3.42699">
        <ele>40.03</ele>
        <time>2013-06-08T15:50:11Z</time>
      </trkpt>
      <trkpt lat="48.65031" lon="-3.42704">
        <ele>40.51</ele>
        <time>2013-06-08T15:50:12Z</time>
      </trkpt>
      <trkpt lat="48.65038" lon="-3.42708">
        <ele>40.51</ele>
        <time>2013-06-08T15:50:13Z</time>
      </trkpt>
      <trkpt lat="48.65044" lon="-3.4271">
        <ele>40.51</ele>
        <time>2013-06-08T15:50:14Z</time>
      </trkpt>
      <trkpt lat="48.65051" lon="-3.42711">
        <ele>40.51</ele>
        <time>2013-06-08T15:50:15Z</time>
      </trkpt>
      <trkpt lat="48.65057" lon="-3.42712">
        <ele>40.99</ele>
        <time>2013-06-08T15:50:16Z</time>
      </trkpt>
      <trkpt lat="48.65063" lon="-3.42712">
        <ele>40.99</ele>
        <time>2013-06-08T15:50:17Z</time>
      </trkpt>
      <trkpt lat="48.65078" lon="-3.4271">
        <ele>41.95</ele>
        <time>2013-06-08T15:50:20Z</time>
      </trkpt>
      <trkpt lat="48.65099" lon="-3.42704">
        <ele>43.4</ele>
        <time>2013-06-08T15:50:25Z</time>
      </trkpt>
      <trkpt lat="48.65103" lon="-3.42704">
        <ele>43.88</ele>
        <time>2013-06-08T15:50:26Z</time>
      </trkpt>
      <trkpt lat="48.65107" lon="-3.42703">
        <ele>43.88</ele>
        <time>2013-06-08T15:50:27Z</time>
      </trkpt>
      <trkpt lat="48.65158" lon="-3.42702">
        <ele>46.76</ele>
        <time>2013-06-08T15:50:39Z</time>
      </trkpt>
      <trkpt lat="48.65174" lon="-3.427">
        <ele>47.24</ele>
        <time>2013-06-08T15:50:42Z</time>
      </trkpt>
      <trkpt lat="48.65179" lon="-3.42698">
        <ele>47.72</ele>
        <time>2013-06-08T15:50:43Z</time>
      </trkpt>
      <trkpt lat="48.65203" lon="-3.42686">
        <ele>49.16</ele>
        <time>2013-06-08T15:50:48Z</time>
      </trkpt>
      <trkpt lat="48.65207" lon="-3.42682">
        <ele>49.65</ele>
        <time>2013-06-08T15:50:49Z</time>
      </trkpt>
      <trkpt lat="48.65248" lon="-3.42638">
        <ele>53.01</ele>
        <time>2013-06-08T15:51:01Z</time>
      </trkpt>
      <trkpt lat="48.65266" lon="-3.42625">
        <ele>53.97</ele>
        <time>2013-06-08T15:51:06Z</time>
      </trkpt>
      <trkpt lat="48.65271" lon="-3.42624">
        <ele>54.45</ele>
        <time>2013-06-08T15:51:07Z</time>
      </trkpt>
      <trkpt lat="48.65275" lon="-3.42625">
        <ele>54.93</ele>
        <time>2013-06-08T15:51:08Z</time>
      </trkpt>
      <trkpt lat="48.6528" lon="-3.42626">
        <ele>55.41</ele>
        <time>2013-06-08T15:51:09Z</time>
      </trkpt>
      <trkpt lat="48.65284" lon="-3.42627">
        <ele>55.89</ele>
        <time>2013-06-08T15:51:10Z</time>
      </trkpt>
      <trkpt lat="48.65288" lon="-3.42629">
        <ele>55.89</ele>
        <time>2013-06-08T15:51:11Z</time>
      </trkpt>
      <trkpt lat="48.65292" lon="-3.42632">
        <ele>56.37</ele>
        <time>2013-06-08T15:51:12Z</time>
      </trkpt>
      <trkpt lat="48.65296" lon="-3.42635">
        <ele>56.37</ele>
        <time>2013-06-08T15:51:13Z</time>
      </trkpt>
      <trkpt lat="48.65299" lon="-3.42639">
        <ele>56.86</ele>
        <time>2013-06-08T15:51:14Z</time>
      </trkpt>
      <trkpt lat="48.65302" lon="-3.42644">
        <ele>57.34</ele>
        <time>2013-06-08T15:51:15Z</time>
      </trkpt>
      <trkpt lat="48.65305" lon="-3.42649">
        <ele>57.34</ele>
        <time>2013-06-08T15:51:16Z</time>
      </trkpt>
      <trkpt lat="48.65323" lon="-3.42685">
        <ele>60.22</ele>
        <time>2013-06-08T15:51:22Z</time>
      </trkpt>
      <trkpt lat="48.65325" lon="-3.42692">
        <ele>60.22</ele>
        <time>2013-06-08T15:51:23Z</time>
      </trkpt>
      <trkpt lat="48.65329" lon="-3.42753">
        <ele>63.58</ele>
        <time>2013-06-08T15:51:33Z</time>
      </trkpt>
      <trkpt lat="48.65318" lon="-3.42801">
        <ele>66.47</ele>
        <time>2013-06-08T15:51:42Z</time>
      </trkpt>
      <trkpt lat="48.65317" lon="-3.42806">
        <ele>66.95</ele>
        <time>2013-06-08T15:51:43Z</time>
      </trkpt>
      <trkpt lat="48.65307" lon="-3.42864">
        <ele>69.83</ele>
        <time>2013-06-08T15:51:54Z</time>
      </trkpt>
      <trkpt lat="48.6529" lon="-3.4296">
        <ele>72.72</ele>
        <time>2013-06-08T15:52:11Z</time>
      </trkpt>
      <trkpt lat="48.65286" lon="-3.42986">
        <ele>73.68</ele>
        <time>2013-06-08T15:52:15Z</time>
      </trkpt>
      <trkpt lat="48.65281" lon="-3.43018">
        <ele>74.16</ele>
        <time>2013-06-08T15:52:20Z</time>
      </trkpt>
      <trkpt lat="48.65259" lon="-3.43128">
        <ele>77.52</ele>
        <time>2013-06-08T15:52:37Z</time>
      </trkpt>
      <trkpt lat="48.65256" lon="-3.43141">
        <ele>77.52</ele>
        <time>2013-06-08T15:52:39Z</time>
      </trkpt>
      <trkpt lat="48.65248" lon="-3.43182">
        <ele>78.48</ele>
        <time>2013-06-08T15:52:45Z</time>
      </trkpt>
      <trkpt lat="48.65247" lon="-3.43189">
        <ele>78.97</ele>
        <time>2013-06-08T15:52:46Z</time>
      </trkpt>
      <trkpt lat="48.65246" lon="-3.43195">
        <ele>78.48</ele>
        <time>2013-06-08T15:52:47Z</time>
      </trkpt>
      <trkpt lat="48.65239" lon="-3.43243">
        <ele>80.41</ele>
        <time>2013-06-08T15:52:54Z</time>
      </trkpt>
      <trkpt lat="48.65238" lon="-3.43249">
        <ele>80.41</ele>
        <time>2013-06-08T15:52:55Z</time>
      </trkpt>
      <trkpt lat="48.65237" lon="-3.43256">
        <ele>80.89</ele>
        <time>2013-06-08T15:52:56Z</time>
      </trkpt>
      <trkpt lat="48.65236" lon="-3.43319">
        <ele>84.25</ele>
        <time>2013-06-08T15:53:06Z</time>
      </trkpt>
      <trkpt lat="48.65237" lon="-3.43332">
        <ele>84.73</ele>
        <time>2013-06-08T15:53:08Z</time>
      </trkpt>
      <trkpt lat="48.65264" lon="-3.4344">
        <ele>87.62</ele>
        <time>2013-06-08T15:53:25Z</time>
      </trkpt>
      <trkpt lat="48.65311" lon="-3.43524">
        <ele>90.02</ele>
        <time>2013-06-08T15:53:41Z</time>
      </trkpt>
      <trkpt lat="48.65367" lon="-3.43591">
        <ele>92.42</ele>
        <time>2013-06-08T15:53:56Z</time>
      </trkpt>
      <trkpt lat="48.65418" lon="-3.43653">
        <ele>95.79</ele>
        <time>2013-06-08T15:54:11Z</time>
      </trkpt>
      <trkpt lat="48.65459" lon="-3.43707">
        <ele>98.19</ele>
        <time>2013-06-08T15:54:23Z</time>
      </trkpt>
      <trkpt lat="48.65485" lon="-3.43761">
        <ele>101.56</ele>
        <time>2013-06-08T15:54:33Z</time>
      </trkpt>
      <trkpt lat="48.65488" lon="-3.43767">
        <ele>102.04</ele>
        <time>2013-06-08T15:54:34Z</time>
      </trkpt>
      <trkpt lat="48.6549" lon="-3.43773">
        <ele>102.04</ele>
        <time>2013-06-08T15:54:35Z</time>
      </trkpt>
      <trkpt lat="48.65517" lon="-3.43856">
        <ele>105.4</ele>
        <time>2013-06-08T15:54:48Z</time>
      </trkpt>
      <trkpt lat="48.65551" lon="-3.43961">
        <ele>107.81</ele>
        <time>2013-06-08T15:55:04Z</time>
      </trkpt>
      <trkpt lat="48.65573" lon="-3.44025">
        <ele>108.29</ele>
        <time>2013-06-08T15:55:13Z</time>
      </trkpt>
      <trkpt lat="48.65579" lon="-3.44048">
        <ele>108.29</ele>
        <time>2013-06-08T15:55:16Z</time>
      </trkpt>
      <trkpt lat="48.65581" lon="-3.44057">
        <ele>108.29</ele>
        <time>2013-06-08T15:55:17Z</time>
      </trkpt>
      <trkpt lat="48.65587" lon="-3.44117">
        <ele>107.81</ele>
        <time>2013-06-08T15:55:24Z</time>
      </trkpt>
      <trkpt lat="48.65588" lon="-3.44251">
        <ele>108.77</ele>
        <time>2013-06-08T15:55:39Z</time>
      </trkpt>
      <trkpt lat="48.65577" lon="-3.44397">
        <ele>107.32</ele>
        <time>2013-06-08T15:55:55Z</time>
      </trkpt>
      <trkpt lat="48.65576" lon="-3.44406">
        <ele>107.32</ele>
        <time>2013-06-08T15:55:56Z</time>
      </trkpt>
      <trkpt lat="48.65576" lon="-3.44414">
        <ele>107.32</ele>
        <time>2013-06-08T15:55:57Z</time>
      </trkpt>
      <trkpt lat="48.65577" lon="-3.44422">
        <ele>107.81</ele>
        <time>2013-06-08T15:55:58Z</time>
      </trkpt>
      <trkpt lat="48.65579" lon="-3.44428">
        <ele>107.32</ele>
        <time>2013-06-08T15:55:59Z</time>
      </trkpt>
      <trkpt lat="48.65581" lon="-3.44433">
        <ele>107.81</ele>
        <time>2013-06-08T15:56:00Z</time>
      </trkpt>
      <trkpt lat="48.65583" lon="-3.44437">
        <ele>107.32</ele>
        <time>2013-06-08T15:56:01Z</time>
      </trkpt>
      <trkpt lat="48.65587" lon="-3.44438">
        <ele>107.32</ele>
        <time>2013-06-08T15:56:02Z</time>
      </trkpt>
      <trkpt lat="48.65591" lon="-3.44437">
        <ele>107.81</ele>
        <time>2013-06-08T15:56:03Z</time>
      </trkpt>
      <trkpt lat="48.65596" lon="-3.44435">
        <ele>107.81</ele>
        <time>2013-06-08T15:56:04Z</time>
      </trkpt>
      <trkpt lat="48.65601" lon="-3.44432">
        <ele>108.29</ele>
        <time>2013-06-08T15:56:05Z</time>
      </trkpt>
      <trkpt lat="48.65606" lon="-3.4443">
        <ele>107.81</ele>
        <time>2013-06-08T15:56:06Z</time>
      </trkpt>
      <trkpt lat="48.65712" lon="-3.4439">
        <ele>105.88</ele>
        <time>2013-06-08T15:56:23Z</time>
      </trkpt>
      <trkpt lat="48.65848" lon="-3.44347">
        <ele>103</ele>
        <time>2013-06-08T15:56:42Z</time>
      </trkpt>
      <trkpt lat="48.6595" lon="-3.44344">
        <ele>100.6</ele>
        <time>2013-06-08T15:56:56Z</time>
      </trkpt>
      <trkpt lat="48.66089" lon="-3.44373">
        <ele>98.19</ele>
        <time>2013-06-08T15:57:15Z</time>
      </trkpt>
      <trkpt lat="48.66202" lon="-3.44402">
        <ele>99.15</ele>
        <time>2013-06-08T15:57:33Z</time>
      </trkpt>
      <trkpt lat="48.66309" lon="-3.44428">
        <ele>102.04</ele>
        <time>2013-06-08T15:57:51Z</time>
      </trkpt>
      <trkpt lat="48.66433" lon="-3.44444">
        <ele>103</ele>
        <time>2013-06-08T15:58:12Z</time>
      </trkpt>
      <trkpt lat="48.66555" lon="-3.44436">
        <ele>103.96</ele>
        <time>2013-06-08T15:58:32Z</time>
      </trkpt>
      <trkpt lat="48.66642" lon="-3.44441">
        <ele>103.96</ele>
        <time>2013-06-08T15:58:46Z</time>
      </trkpt>
      <trkpt lat="48.66769" lon="-3.44455">
        <ele>102.52</ele>
        <time>2013-06-08T15:59:05Z</time>
      </trkpt>
      <trkpt lat="48.66889" lon="-3.44468">
        <ele>101.08</ele>
        <time>2013-06-08T15:59:23Z</time>
      </trkpt>
      <trkpt lat="48.67013" lon="-3.44463">
        <ele>98.67</ele>
        <time>2013-06-08T15:59:41Z</time>
      </trkpt>
      <trkpt lat="48.67123" lon="-3.44435">
        <ele>98.19</ele>
        <time>2013-06-08T15:59:57Z</time>
      </trkpt>
      <trkpt lat="48.67231" lon="-3.4444">
        <ele>97.71</ele>
        <time>2013-06-08T16:00:13Z</time>
      </trkpt>
      <trkpt lat="48.67338" lon="-3.44467">
        <ele>99.15</ele>
        <time>2013-06-08T16:00:30Z</time>
      </trkpt>
      <trkpt lat="48.67461" lon="-3.44499">
        <ele>99.63</ele>
        <time>2013-06-08T16:00:49Z</time>
      </trkpt>
      <trkpt lat="48.67527" lon="-3.44505">
        <ele>98.67</ele>
        <time>2013-06-08T16:00:59Z</time>
      </trkpt>
      <trkpt lat="48.67534" lon="-3.44505">
        <ele>99.15</ele>
        <time>2013-06-08T16:01:00Z</time>
      </trkpt>
      <trkpt lat="48.67624" lon="-3.4449">
        <ele>99.63</ele>
        <time>2013-06-08T16:01:15Z</time>
      </trkpt>
      <trkpt lat="48.67734" lon="-3.44444">
        <ele>98.67</ele>
        <time>2013-06-08T16:01:33Z</time>
      </trkpt>
      <trkpt lat="48.67843" lon="-3.44379">
        <ele>98.19</ele>
        <time>2013-06-08T16:01:51Z</time>
      </trkpt>
      <trkpt lat="48.67938" lon="-3.44369">
        <ele>98.67</ele>
        <time>2013-06-08T16:02:06Z</time>
      </trkpt>
      <trkpt lat="48.68056" lon="-3.44402">
        <ele>96.27</ele>
        <time>2013-06-08T16:02:23Z</time>
      </trkpt>
      <trkpt lat="48.68191" lon="-3.44438">
        <ele>94.35</ele>
        <time>2013-06-08T16:02:42Z</time>
      </trkpt>
      <trkpt lat="48.68325" lon="-3.44478">
        <ele>94.83</ele>
        <time>2013-06-08T16:03:01Z</time>
      </trkpt>
      <trkpt lat="48.68359" lon="-3.44489">
        <ele>94.83</ele>
        <time>2013-06-08T16:03:06Z</time>
      </trkpt>
      <trkpt lat="48.6847" lon="-3.44506">
        <ele>94.83</ele>
        <time>2013-06-08T16:03:22Z</time>
      </trkpt>
      <trkpt lat="48.68602" lon="-3.4454">
        <ele>93.87</ele>
        <time>2013-06-08T16:03:41Z</time>
      </trkpt>
      <trkpt lat="48.68658" lon="-3.44558">
        <ele>93.39</ele>
        <time>2013-06-08T16:03:49Z</time>
      </trkpt>
      <trkpt lat="48.68782" lon="-3.44579">
        <ele>92.42</ele>
        <time>2013-06-08T16:04:07Z</time>
      </trkpt>
      <trkpt lat="48.68874" lon="-3.44571">
        <ele>92.9</ele>
        <time>2013-06-08T16:04:22Z</time>
      </trkpt>
      <trkpt lat="48.68967" lon="-3.4455">
        <ele>93.39</ele>
        <time>2013-06-08T16:04:38Z</time>
      </trkpt>
      <trkpt lat="48.69021" lon="-3.44541">
        <ele>94.35</ele>
        <time>2013-06-08T16:04:48Z</time>
      </trkpt>
      <trkpt lat="48.6911" lon="-3.44518">
        <ele>96.75</ele>
        <time>2013-06-08T16:05:05Z</time>
      </trkpt>
      <trkpt lat="48.69223" lon="-3.44483">
        <ele>97.23</ele>
        <time>2013-06-08T16:05:24Z</time>
      </trkpt>
      <trkpt lat="48.69311" lon="-3.44467">
        <ele>97.71</ele>
        <time>2013-06-08T16:05:38Z</time>
      </trkpt>
      <trkpt lat="48.69329" lon="-3.44472">
        <ele>99.15</ele>
        <time>2013-06-08T16:05:41Z</time>
      </trkpt>
      <trkpt lat="48.69348" lon="-3.44479">
        <ele>97.71</ele>
        <time>2013-06-08T16:05:44Z</time>
      </trkpt>
      <trkpt lat="48.69385" lon="-3.44496">
        <ele>99.15</ele>
        <time>2013-06-08T16:05:50Z</time>
      </trkpt>
      <trkpt lat="48.69465" lon="-3.44536">
        <ele>97.71</ele>
        <time>2013-06-08T16:06:03Z</time>
      </trkpt>
      <trkpt lat="48.69542" lon="-3.44595">
        <ele>94.35</ele>
        <time>2013-06-08T16:06:14Z</time>
      </trkpt>
      <trkpt lat="48.69613" lon="-3.44647">
        <ele>91.46</ele>
        <time>2013-06-08T16:06:24Z</time>
      </trkpt>
      <trkpt lat="48.69742" lon="-3.44723">
        <ele>89.06</ele>
        <time>2013-06-08T16:06:42Z</time>
      </trkpt>
      <trkpt lat="48.69869" lon="-3.44758">
        <ele>87.14</ele>
        <time>2013-06-08T16:06:59Z</time>
      </trkpt>
      <trkpt lat="48.69993" lon="-3.44786">
        <ele>85.21</ele>
        <time>2013-06-08T16:07:16Z</time>
      </trkpt>
      <trkpt lat="48.70089" lon="-3.44797">
        <ele>83.29</ele>
        <time>2013-06-08T16:07:30Z</time>
      </trkpt>
      <trkpt lat="48.70189" lon="-3.44815">
        <ele>82.81</ele>
        <time>2013-06-08T16:07:45Z</time>
      </trkpt>
      <trkpt lat="48.7029" lon="-3.44821">
        <ele>83.29</ele>
        <time>2013-06-08T16:08:00Z</time>
      </trkpt>
      <trkpt lat="48.70371" lon="-3.44846">
        <ele>83.77</ele>
        <time>2013-06-08T16:08:13Z</time>
      </trkpt>
      <trkpt lat="48.70377" lon="-3.44847">
        <ele>84.25</ele>
        <time>2013-06-08T16:08:14Z</time>
      </trkpt>
      <trkpt lat="48.7039" lon="-3.44849">
        <ele>83.77</ele>
        <time>2013-06-08T16:08:16Z</time>
      </trkpt>
      <trkpt lat="48.70402" lon="-3.44849">
        <ele>83.77</ele>
        <time>2013-06-08T16:08:18Z</time>
      </trkpt>
      <trkpt lat="48.70408" lon="-3.44848">
        <ele>83.77</ele>
        <time>2013-06-08T16:08:19Z</time>
      </trkpt>
      <trkpt lat="48.70479" lon="-3.44824">
        <ele>83.77</ele>
        <time>2013-06-08T16:08:31Z</time>
      </trkpt>
      <trkpt lat="48.7049" lon="-3.4482">
        <ele>83.29</ele>
        <time>2013-06-08T16:08:33Z</time>
      </trkpt>
      <trkpt lat="48.70496" lon="-3.44818">
        <ele>83.29</ele>
        <time>2013-06-08T16:08:34Z</time>
      </trkpt>
      <trkpt lat="48.70502" lon="-3.44816">
        <ele>83.29</ele>
        <time>2013-06-08T16:08:35Z</time>
      </trkpt>
      <trkpt lat="48.70508" lon="-3.44816">
        <ele>84.25</ele>
        <time>2013-06-08T16:08:36Z</time>
      </trkpt>
      <trkpt lat="48.70514" lon="-3.44816">
        <ele>83.77</ele>
        <time>2013-06-08T16:08:37Z</time>
      </trkpt>
      <trkpt lat="48.70571" lon="-3.44818">
        <ele>84.25</ele>
        <time>2013-06-08T16:08:47Z</time>
      </trkpt>
      <trkpt lat="48.70668" lon="-3.44799">
        <ele>81.37</ele>
        <time>2013-06-08T16:09:02Z</time>
      </trkpt>
      <trkpt lat="48.70675" lon="-3.44799">
        <ele>80.89</ele>
        <time>2013-06-08T16:09:03Z</time>
      </trkpt>
      <trkpt lat="48.70727" lon="-3.44809">
        <ele>77.52</ele>
        <time>2013-06-08T16:09:09Z</time>
      </trkpt>
      <trkpt lat="48.70746" lon="-3.44814">
        <ele>76.56</ele>
        <time>2013-06-08T16:09:11Z</time>
      </trkpt>
      <trkpt lat="48.70774" lon="-3.44827">
        <ele>75.12</ele>
        <time>2013-06-08T16:09:14Z</time>
      </trkpt>
      <trkpt lat="48.70825" lon="-3.44855">
        <ele>71.76</ele>
        <time>2013-06-08T16:09:20Z</time>
      </trkpt>
      <trkpt lat="48.70833" lon="-3.44859">
        <ele>71.27</ele>
        <time>2013-06-08T16:09:21Z</time>
      </trkpt>
      <trkpt lat="48.70848" lon="-3.44869">
        <ele>70.79</ele>
        <time>2013-06-08T16:09:23Z</time>
      </trkpt>
      <trkpt lat="48.70937" lon="-3.44938">
        <ele>68.87</ele>
        <time>2013-06-08T16:09:37Z</time>
      </trkpt>
      <trkpt lat="48.71028" lon="-3.44989">
        <ele>67.91</ele>
        <time>2013-06-08T16:09:51Z</time>
      </trkpt>
      <trkpt lat="48.7114" lon="-3.44994">
        <ele>66.95</ele>
        <time>2013-06-08T16:10:07Z</time>
      </trkpt>
      <trkpt lat="48.71188" lon="-3.4501">
        <ele>66.95</ele>
        <time>2013-06-08T16:10:14Z</time>
      </trkpt>
      <trkpt lat="48.71297" lon="-3.45061">
        <ele>65.99</ele>
        <time>2013-06-08T16:10:30Z</time>
      </trkpt>
      <trkpt lat="48.7141" lon="-3.45127">
        <ele>65.51</ele>
        <time>2013-06-08T16:10:47Z</time>
      </trkpt>
      <trkpt lat="48.71519" lon="-3.45206">
        <ele>65.51</ele>
        <time>2013-06-08T16:11:04Z</time>
      </trkpt>
      <trkpt lat="48.71569" lon="-3.45243">
        <ele>64.07</ele>
        <time>2013-06-08T16:11:12Z</time>
      </trkpt>
      <trkpt lat="48.71574" lon="-3.4525">
        <ele>64.07</ele>
        <time>2013-06-08T16:11:13Z</time>
      </trkpt>
      <trkpt lat="48.71578" lon="-3.45256">
        <ele>64.07</ele>
        <time>2013-06-08T16:11:14Z</time>
      </trkpt>
      <trkpt lat="48.71582" lon="-3.45263">
        <ele>63.58</ele>
        <time>2013-06-08T16:11:15Z</time>
      </trkpt>
      <trkpt lat="48.71586" lon="-3.45272">
        <ele>63.58</ele>
        <time>2013-06-08T16:11:16Z</time>
      </trkpt>
      <trkpt lat="48.71645" lon="-3.45429">
        <ele>60.7</ele>
        <time>2013-06-08T16:11:32Z</time>
      </trkpt>
      <trkpt lat="48.71699" lon="-3.45564">
        <ele>57.34</ele>
        <time>2013-06-08T16:11:46Z</time>
      </trkpt>
      <trkpt lat="48.71719" lon="-3.45605">
        <ele>56.37</ele>
        <time>2013-06-08T16:11:50Z</time>
      </trkpt>
      <trkpt lat="48.71725" lon="-3.45613">
        <ele>56.37</ele>
        <time>2013-06-08T16:11:51Z</time>
      </trkpt>
      <trkpt lat="48.71731" lon="-3.45621">
        <ele>56.37</ele>
        <time>2013-06-08T16:11:52Z</time>
      </trkpt>
      <trkpt lat="48.71795" lon="-3.45687">
        <ele>53.49</ele>
        <time>2013-06-08T16:12:01Z</time>
      </trkpt>
      <trkpt lat="48.71809" lon="-3.45702">
        <ele>52.53</ele>
        <time>2013-06-08T16:12:03Z</time>
      </trkpt>
      <trkpt lat="48.7186" lon="-3.45754">
        <ele>49.16</ele>
        <time>2013-06-08T16:12:10Z</time>
      </trkpt>
      <trkpt lat="48.71917" lon="-3.45814">
        <ele>47.24</ele>
        <time>2013-06-08T16:12:18Z</time>
      </trkpt>
      <trkpt lat="48.71923" lon="-3.45823">
        <ele>47.24</ele>
        <time>2013-06-08T16:12:19Z</time>
      </trkpt>
      <trkpt lat="48.71928" lon="-3.45833">
        <ele>46.76</ele>
        <time>2013-06-08T16:12:20Z</time>
      </trkpt>
      <trkpt lat="48.71932" lon="-3.45844">
        <ele>46.76</ele>
        <time>2013-06-08T16:12:21Z</time>
      </trkpt>
      <trkpt lat="48.71936" lon="-3.45855">
        <ele>46.28</ele>
        <time>2013-06-08T16:12:22Z</time>
      </trkpt>
      <trkpt lat="48.71939" lon="-3.45866">
        <ele>45.32</ele>
        <time>2013-06-08T16:12:23Z</time>
      </trkpt>
      <trkpt lat="48.71942" lon="-3.45878">
        <ele>44.84</ele>
        <time>2013-06-08T16:12:24Z</time>
      </trkpt>
      <trkpt lat="48.71964" lon="-3.45961">
        <ele>42.92</ele>
        <time>2013-06-08T16:12:31Z</time>
      </trkpt>
      <trkpt lat="48.7197" lon="-3.45972">
        <ele>42.44</ele>
        <time>2013-06-08T16:12:32Z</time>
      </trkpt>
      <trkpt lat="48.71976" lon="-3.45981">
        <ele>42.44</ele>
        <time>2013-06-08T16:12:33Z</time>
      </trkpt>
      <trkpt lat="48.71982" lon="-3.4599">
        <ele>41.95</ele>
        <time>2013-06-08T16:12:34Z</time>
      </trkpt>
      <trkpt lat="48.71989" lon="-3.45997">
        <ele>41.95</ele>
        <time>2013-06-08T16:12:35Z</time>
      </trkpt>
      <trkpt lat="48.71997" lon="-3.46003">
        <ele>41.95</ele>
        <time>2013-06-08T16:12:36Z</time>
      </trkpt>
      <trkpt lat="48.72005" lon="-3.46008">
        <ele>41.47</ele>
        <time>2013-06-08T16:12:37Z</time>
      </trkpt>
      <trkpt lat="48.72012" lon="-3.46012">
        <ele>40.51</ele>
        <time>2013-06-08T16:12:38Z</time>
      </trkpt>
      <trkpt lat="48.72021" lon="-3.46014">
        <ele>40.99</ele>
        <time>2013-06-08T16:12:39Z</time>
      </trkpt>
      <trkpt lat="48.72029" lon="-3.46015">
        <ele>40.51</ele>
        <time>2013-06-08T16:12:40Z</time>
      </trkpt>
      <trkpt lat="48.72037" lon="-3.46015">
        <ele>40.03</ele>
        <time>2013-06-08T16:12:41Z</time>
      </trkpt>
      <trkpt lat="48.72046" lon="-3.46014">
        <ele>40.03</ele>
        <time>2013-06-08T16:12:42Z</time>
      </trkpt>
      <trkpt lat="48.72053" lon="-3.46012">
        <ele>39.07</ele>
        <time>2013-06-08T16:12:43Z</time>
      </trkpt>
      <trkpt lat="48.72061" lon="-3.4601">
        <ele>39.07</ele>
        <time>2013-06-08T16:12:44Z</time>
      </trkpt>
      <trkpt lat="48.72076" lon="-3.46002">
        <ele>39.07</ele>
        <time>2013-06-08T16:12:46Z</time>
      </trkpt>
      <trkpt lat="48.72083" lon="-3.45997">
        <ele>39.55</ele>
        <time>2013-06-08T16:12:47Z</time>
      </trkpt>
      <trkpt lat="48.72132" lon="-3.45962">
        <ele>36.19</ele>
        <time>2013-06-08T16:12:54Z</time>
      </trkpt>
      <trkpt lat="48.72154" lon="-3.4595">
        <ele>35.71</ele>
        <time>2013-06-08T16:12:57Z</time>
      </trkpt>
      <trkpt lat="48.72161" lon="-3.45949">
        <ele>35.71</ele>
        <time>2013-06-08T16:12:58Z</time>
      </trkpt>
      <trkpt lat="48.72169" lon="-3.45949">
        <ele>35.23</ele>
        <time>2013-06-08T16:12:59Z</time>
      </trkpt>
      <trkpt lat="48.72177" lon="-3.4595">
        <ele>35.23</ele>
        <time>2013-06-08T16:13:00Z</time>
      </trkpt>
      <trkpt lat="48.72184" lon="-3.45953">
        <ele>35.71</ele>
        <time>2013-06-08T16:13:01Z</time>
      </trkpt>
      <trkpt lat="48.72192" lon="-3.45957">
        <ele>35.71</ele>
        <time>2013-06-08T16:13:02Z</time>
      </trkpt>
      <trkpt lat="48.72214" lon="-3.45968">
        <ele>32.34</ele>
        <time>2013-06-08T16:13:05Z</time>
      </trkpt>
      <trkpt lat="48.72287" lon="-3.46003">
        <ele>29.46</ele>
        <time>2013-06-08T16:13:15Z</time>
      </trkpt>
      <trkpt lat="48.72317" lon="-3.46008">
        <ele>28.02</ele>
        <time>2013-06-08T16:13:19Z</time>
      </trkpt>
      <trkpt lat="48.72325" lon="-3.46007">
        <ele>27.53</ele>
        <time>2013-06-08T16:13:20Z</time>
      </trkpt>
      <trkpt lat="48.72421" lon="-3.45991">
        <ele>24.17</ele>
        <time>2013-06-08T16:13:33Z</time>
      </trkpt>
      <trkpt lat="48.72428" lon="-3.45994">
        <ele>23.69</ele>
        <time>2013-06-08T16:13:34Z</time>
      </trkpt>
      <trkpt lat="48.72502" lon="-3.46027">
        <ele>20.32</ele>
        <time>2013-06-08T16:13:44Z</time>
      </trkpt>
      <trkpt lat="48.72545" lon="-3.46035">
        <ele>19.36</ele>
        <time>2013-06-08T16:13:50Z</time>
      </trkpt>
      <trkpt lat="48.72552" lon="-3.46034">
        <ele>18.88</ele>
        <time>2013-06-08T16:13:51Z</time>
      </trkpt>
      <trkpt lat="48.7256" lon="-3.46032">
        <ele>19.36</ele>
        <time>2013-06-08T16:13:52Z</time>
      </trkpt>
      <trkpt lat="48.72621" lon="-3.46015">
        <ele>16</ele>
        <time>2013-06-08T16:14:00Z</time>
      </trkpt>
      <trkpt lat="48.72629" lon="-3.46013">
        <ele>15.52</ele>
        <time>2013-06-08T16:14:01Z</time>
      </trkpt>
      <trkpt lat="48.72686" lon="-3.46001">
        <ele>12.63</ele>
        <time>2013-06-08T16:14:08Z</time>
      </trkpt>
      <trkpt lat="48.72749" lon="-3.45984">
        <ele>9.27</ele>
        <time>2013-06-08T16:14:17Z</time>
      </trkpt>
      <trkpt lat="48.72772" lon="-3.45972">
        <ele>8.31</ele>
        <time>2013-06-08T16:14:25Z</time>
      </trkpt>
      <trkpt lat="48.72776" lon="-3.45971">
        <ele>8.31</ele>
        <time>2013-06-08T16:14:26Z</time>
      </trkpt>
      <trkpt lat="48.72781" lon="-3.45972">
        <ele>8.31</ele>
        <time>2013-06-08T16:14:27Z</time>
      </trkpt>
      <trkpt lat="48.72786" lon="-3.45974">
        <ele>8.31</ele>
        <time>2013-06-08T16:14:28Z</time>
      </trkpt>
      <trkpt lat="48.72792" lon="-3.45976">
        <ele>8.79</ele>
        <time>2013-06-08T16:14:29Z</time>
      </trkpt>
      <trkpt lat="48.72797" lon="-3.45976">
        <ele>8.79</ele>
        <time>2013-06-08T16:14:30Z</time>
      </trkpt>
      <trkpt lat="48.72803" lon="-3.45975">
        <ele>9.27</ele>
        <time>2013-06-08T16:14:31Z</time>
      </trkpt>
      <trkpt lat="48.72808" lon="-3.45974">
        <ele>8.79</ele>
        <time>2013-06-08T16:14:32Z</time>
      </trkpt>
      <trkpt lat="48.72866" lon="-3.45959">
        <ele>9.75</ele>
        <time>2013-06-08T16:14:43Z</time>
      </trkpt>
      <trkpt lat="48.72872" lon="-3.4596">
        <ele>9.27</ele>
        <time>2013-06-08T16:14:44Z</time>
      </trkpt>
      <trkpt lat="48.72876" lon="-3.45963">
        <ele>9.27</ele>
        <time>2013-06-08T16:14:45Z</time>
      </trkpt>
      <trkpt lat="48.72881" lon="-3.45967">
        <ele>8.79</ele>
        <time>2013-06-08T16:14:46Z</time>
      </trkpt>
      <trkpt lat="48.72885" lon="-3.45972">
        <ele>9.75</ele>
        <time>2013-06-08T16:14:47Z</time>
      </trkpt>
      <trkpt lat="48.72888" lon="-3.45977">
        <ele>8.79</ele>
        <time>2013-06-08T16:14:48Z</time>
      </trkpt>
      <trkpt lat="48.7289" lon="-3.45982">
        <ele>8.79</ele>
        <time>2013-06-08T16:14:49Z</time>
      </trkpt>
      <trkpt lat="48.72892" lon="-3.45987">
        <ele>8.79</ele>
        <time>2013-06-08T16:14:50Z</time>
      </trkpt>
      <trkpt lat="48.72904" lon="-3.46002">
        <ele>8.79</ele>
        <time>2013-06-08T16:14:54Z</time>
      </trkpt>
      <trkpt lat="48.72912" lon="-3.4601">
        <ele>9.75</ele>
        <time>2013-06-08T16:14:56Z</time>
      </trkpt>
      <trkpt lat="48.72922" lon="-3.46018">
        <ele>10.71</ele>
        <time>2013-06-08T16:14:58Z</time>
      </trkpt>
      <trkpt lat="48.72941" lon="-3.46028">
        <ele>9.75</ele>
        <time>2013-06-08T16:15:02Z</time>
      </trkpt>
      <trkpt lat="48.72951" lon="-3.46032">
        <ele>9.27</ele>
        <time>2013-06-08T16:15:04Z</time>
      </trkpt>
      <trkpt lat="48.72988" lon="-3.46048">
        <ele>9.27</ele>
        <time>2013-06-08T16:15:11Z</time>
      </trkpt>
      <trkpt lat="48.72999" lon="-3.46049">
        <ele>8.31</ele>
        <time>2013-06-08T16:15:13Z</time>
      </trkpt>
      <trkpt lat="48.73033" lon="-3.46036">
        <ele>9.75</ele>
        <time>2013-06-08T16:15:20Z</time>
      </trkpt>
      <trkpt lat="48.73037" lon="-3.46033">
        <ele>9.27</ele>
        <time>2013-06-08T16:15:21Z</time>
      </trkpt>
      <trkpt lat="48.73041" lon="-3.46029">
        <ele>8.79</ele>
        <time>2013-06-08T16:15:22Z</time>
      </trkpt>
      <trkpt lat="48.73044" lon="-3.46025">
        <ele>8.79</ele>
        <time>2013-06-08T16:15:23Z</time>
      </trkpt>
      <trkpt lat="48.73047" lon="-3.4602">
        <ele>8.79</ele>
        <time>2013-06-08T16:15:24Z</time>
      </trkpt>
      <trkpt lat="48.73068" lon="-3.45988">
        <ele>9.75</ele>
        <time>2013-06-08T16:15:32Z</time>
      </trkpt>
      <trkpt lat="48.73072" lon="-3.45987">
        <ele>9.75</ele>
        <time>2013-06-08T16:15:33Z</time>
      </trkpt>
      <trkpt lat="48.73076" lon="-3.45986">
        <ele>9.75</ele>
        <time>2013-06-08T16:15:34Z</time>
      </trkpt>
      <trkpt lat="48.73085" lon="-3.45986">
        <ele>8.79</ele>
        <time>2013-06-08T16:15:36Z</time>
      </trkpt>
      <trkpt lat="48.73089" lon="-3.45988">
        <ele>8.31</ele>
        <time>2013-06-08T16:15:37Z</time>
      </trkpt>
      <trkpt lat="48.73099" lon="-3.45994">
        <ele>8.31</ele>
        <time>2013-06-08T16:15:39Z</time>
      </trkpt>
      <trkpt lat="48.73104" lon="-3.45998">
        <ele>7.83</ele>
        <time>2013-06-08T16:15:40Z</time>
      </trkpt>
      <trkpt lat="48.73108" lon="-3.46003">
        <ele>7.83</ele>
        <time>2013-06-08T16:15:41Z</time>
      </trkpt>
      <trkpt lat="48.73156" lon="-3.46067">
        <ele>7.83</ele>
        <time>2013-06-08T16:15:54Z</time>
      </trkpt>
      <trkpt lat="48.73175" lon="-3.46093">
        <ele>8.31</ele>
        <time>2013-06-08T16:15:59Z</time>
      </trkpt>
      <trkpt lat="48.73186" lon="-3.46107">
        <ele>8.31</ele>
        <time>2013-06-08T16:16:02Z</time>
      </trkpt>
      <trkpt lat="48.73189" lon="-3.46112">
        <ele>8.31</ele>
        <time>2013-06-08T16:16:03Z</time>
      </trkpt>
      <trkpt lat="48.73193" lon="-3.46116">
        <ele>8.31</ele>
        <time>2013-06-08T16:16:04Z</time>
      </trkpt>
      <trkpt lat="48.73196" lon="-3.4612">
        <ele>8.31</ele>
        <time>2013-06-08T16:16:05Z</time>
      </trkpt>
      <trkpt lat="48.73199" lon="-3.46125">
        <ele>8.31</ele>
        <time>2013-06-08T16:16:06Z</time>
      </trkpt>
      <trkpt lat="48.73209" lon="-3.46141">
        <ele>8.31</ele>
        <time>2013-06-08T16:16:09Z</time>
      </trkpt>
      <trkpt lat="48.73234" lon="-3.46172">
        <ele>8.79</ele>
        <time>2013-06-08T16:16:17Z</time>
      </trkpt>
      <trkpt lat="48.73236" lon="-3.46171">
        <ele>9.27</ele>
        <time>2013-06-08T16:16:18Z</time>
      </trkpt>
      <trkpt lat="48.73237" lon="-3.46168">
        <ele>9.27</ele>
        <time>2013-06-08T16:16:19Z</time>
      </trkpt>
      <trkpt lat="48.73241" lon="-3.46158">
        <ele>9.75</ele>
        <time>2013-06-08T16:16:21Z</time>
      </trkpt>
      <trkpt lat="48.73242" lon="-3.46152">
        <ele>10.23</ele>
        <time>2013-06-08T16:16:22Z</time>
      </trkpt>
      <trkpt lat="48.73244" lon="-3.46147">
        <ele>10.23</ele>
        <time>2013-06-08T16:16:23Z</time>
      </trkpt>
      <trkpt lat="48.7325" lon="-3.46127">
        <ele>11.19</ele>
        <time>2013-06-08T16:16:27Z</time>
      </trkpt>
      <trkpt lat="48.73251" lon="-3.46121">
        <ele>11.67</ele>
        <time>2013-06-08T16:16:28Z</time>
      </trkpt>
      <trkpt lat="48.73253" lon="-3.46116">
        <ele>12.15</ele>
        <time>2013-06-08T16:16:29Z</time>
      </trkpt>
      <trkpt lat="48.73255" lon="-3.4611">
        <ele>12.63</ele>
        <time>2013-06-08T16:16:30Z</time>
      </trkpt>
      <trkpt lat="48.73256" lon="-3.46104">
        <ele>12.63</ele>
        <time>2013-06-08T16:16:31Z</time>
      </trkpt>
      <trkpt lat="48.73257" lon="-3.46098">
        <ele>13.12</ele>
        <time>2013-06-08T16:16:32Z</time>
      </trkpt>
      <trkpt lat="48.73259" lon="-3.46092">
        <ele>13.6</ele>
        <time>2013-06-08T16:16:33Z</time>
      </trkpt>
      <trkpt lat="48.7326" lon="-3.46087">
        <ele>13.6</ele>
        <time>2013-06-08T16:16:34Z</time>
      </trkpt>
      <trkpt lat="48.73263" lon="-3.46082">
        <ele>13.6</ele>
        <time>2013-06-08T16:16:35Z</time>
      </trkpt>
      <trkpt lat="48.73268" lon="-3.46066">
        <ele>14.08</ele>
        <time>2013-06-08T16:16:38Z</time>
      </trkpt>
      <trkpt lat="48.7327" lon="-3.46061">
        <ele>14.56</ele>
        <time>2013-06-08T16:16:39Z</time>
      </trkpt>
      <trkpt lat="48.73271" lon="-3.46056">
        <ele>15.04</ele>
        <time>2013-06-08T16:16:40Z</time>
      </trkpt>
      <trkpt lat="48.73279" lon="-3.46021">
        <ele>16</ele>
        <time>2013-06-08T16:16:51Z</time>
      </trkpt>
      <trkpt lat="48.73278" lon="-3.4602">
        <ele>16</ele>
        <time>2013-06-08T16:17:07Z</time>
      </trkpt>
      <trkpt lat="48.73278" lon="-3.46018">
        <ele>16</ele>
        <time>2013-06-08T16:17:08Z</time>
      </trkpt>
      <trkpt lat="48.73278" lon="-3.46016">
        <ele>16.48</ele>
        <time>2013-06-08T16:17:09Z</time>
      </trkpt>
      <trkpt lat="48.73279" lon="-3.46013">
        <ele>16.48</ele>
        <time>2013-06-08T16:17:10Z</time>
      </trkpt>
      <trkpt lat="48.7328" lon="-3.4601">
        <ele>16.96</ele>
        <time>2013-06-08T16:17:11Z</time>
      </trkpt>
      <trkpt lat="48.73282" lon="-3.46007">
        <ele>17.44</ele>
        <time>2013-06-08T16:17:12Z</time>
      </trkpt>
      <trkpt lat="48.73284" lon="-3.46004">
        <ele>17.92</ele>
        <time>2013-06-08T16:17:13Z</time>
      </trkpt>
      <trkpt lat="48.73286" lon="-3.46">
        <ele>17.92</ele>
        <time>2013-06-08T16:17:14Z</time>
      </trkpt>
      <trkpt lat="48.73289" lon="-3.45995">
        <ele>17.44</ele>
        <time>2013-06-08T16:17:15Z</time>
      </trkpt>
      <trkpt lat="48.73291" lon="-3.45991">
        <ele>17.44</ele>
        <time>2013-06-08T16:17:16Z</time>
      </trkpt>
      <trkpt lat="48.73293" lon="-3.45986">
        <ele>16.96</ele>
        <time>2013-06-08T16:17:17Z</time>
      </trkpt>
      <trkpt lat="48.73295" lon="-3.45981">
        <ele>17.44</ele>
        <time>2013-06-08T16:17:18Z</time>
      </trkpt>
      <trkpt lat="48.73297" lon="-3.45976">
        <ele>17.44</ele>
        <time>2013-06-08T16:17:19Z</time>
      </trkpt>
      <trkpt lat="48.733" lon="-3.4597">
        <ele>16.96</ele>
        <time>2013-06-08T16:17:20Z</time>
      </trkpt>
      <trkpt lat="48.73308" lon="-3.45958">
        <ele>16.48</ele>
        <time>2013-06-08T16:17:22Z</time>
      </trkpt>
      <trkpt lat="48.73314" lon="-3.45954">
        <ele>16</ele>
        <time>2013-06-08T16:17:23Z</time>
      </trkpt>
      <trkpt lat="48.7332" lon="-3.45951">
        <ele>16</ele>
        <time>2013-06-08T16:17:24Z</time>
      </trkpt>
      <trkpt lat="48.73344" lon="-3.4594">
        <ele>14.56</ele>
        <time>2013-06-08T16:17:27Z</time>
      </trkpt>
      <trkpt lat="48.73398" lon="-3.45919">
        <ele>13.6</ele>
        <time>2013-06-08T16:17:34Z</time>
      </trkpt>
      <trkpt lat="48.73438" lon="-3.45886">
        <ele>14.56</ele>
        <time>2013-06-08T16:17:41Z</time>
      </trkpt>
      <trkpt lat="48.73441" lon="-3.4588">
        <ele>15.04</ele>
        <time>2013-06-08T16:17:42Z</time>
      </trkpt>
      <trkpt lat="48.73444" lon="-3.45873">
        <ele>14.56</ele>
        <time>2013-06-08T16:17:43Z</time>
      </trkpt>
      <trkpt lat="48.73446" lon="-3.45866">
        <ele>14.08</ele>
        <time>2013-06-08T16:17:44Z</time>
      </trkpt>
      <trkpt lat="48.73448" lon="-3.45859">
        <ele>14.56</ele>
        <time>2013-06-08T16:17:45Z</time>
      </trkpt>
      <trkpt lat="48.73456" lon="-3.45827">
        <ele>14.56</ele>
        <time>2013-06-08T16:17:49Z</time>
      </trkpt>
      <trkpt lat="48.73456" lon="-3.45781">
        <ele>14.56</ele>
        <time>2013-06-08T16:17:55Z</time>
      </trkpt>
      <trkpt lat="48.73454" lon="-3.45773">
        <ele>14.56</ele>
        <time>2013-06-08T16:17:56Z</time>
      </trkpt>
      <trkpt lat="48.73434" lon="-3.45712">
        <ele>15.04</ele>
        <time>2013-06-08T16:18:05Z</time>
      </trkpt>
      <trkpt lat="48.73434" lon="-3.45695">
        <ele>15.04</ele>
        <time>2013-06-08T16:18:08Z</time>
      </trkpt>
      <trkpt lat="48.73436" lon="-3.45689">
        <ele>15.04</ele>
        <time>2013-06-08T16:18:09Z</time>
      </trkpt>
      <trkpt lat="48.7344" lon="-3.45683">
        <ele>15.04</ele>
        <time>2013-06-08T16:18:10Z</time>
      </trkpt>
      <trkpt lat="48.73449" lon="-3.45666">
        <ele>15.04</ele>
        <time>2013-06-08T16:18:13Z</time>
      </trkpt>
      <trkpt lat="48.73453" lon="-3.4566">
        <ele>15.04</ele>
        <time>2013-06-08T16:18:14Z</time>
      </trkpt>
      <trkpt lat="48.73457" lon="-3.45654">
        <ele>15.04</ele>
        <time>2013-06-08T16:18:15Z</time>
      </trkpt>
      <trkpt lat="48.7346" lon="-3.45646">
        <ele>15.04</ele>
        <time>2013-06-08T16:18:16Z</time>
      </trkpt>
      <trkpt lat="48.73463" lon="-3.45638">
        <ele>15.04</ele>
        <time>2013-06-08T16:18:17Z</time>
      </trkpt>
      <trkpt lat="48.73466" lon="-3.4563">
        <ele>15.04</ele>
        <time>2013-06-08T16:18:18Z</time>
      </trkpt>
      <trkpt lat="48.73472" lon="-3.45614">
        <ele>15.04</ele>
        <time>2013-06-08T16:18:20Z</time>
      </trkpt>
      <trkpt lat="48.73475" lon="-3.45606">
        <ele>15.04</ele>
        <time>2013-06-08T16:18:21Z</time>
      </trkpt>
      <trkpt lat="48.73477" lon="-3.45598">
        <ele>15.04</ele>
        <time>2013-06-08T16:18:22Z</time>
      </trkpt>
      <trkpt lat="48.73486" lon="-3.45558">
        <ele>15.04</ele>
        <time>2013-06-08T16:18:27Z</time>
      </trkpt>
      <trkpt lat="48.73488" lon="-3.45552">
        <ele>15.52</ele>
        <time>2013-06-08T16:18:28Z</time>
      </trkpt>
      <trkpt lat="48.73491" lon="-3.45546">
        <ele>15.52</ele>
        <time>2013-06-08T16:18:29Z</time>
      </trkpt>
      <trkpt lat="48.73493" lon="-3.45541">
        <ele>15.52</ele>
        <time>2013-06-08T16:18:30Z</time>
      </trkpt>
      <trkpt lat="48.73495" lon="-3.45538">
        <ele>15.52</ele>
        <time>2013-06-08T16:18:31Z</time>
      </trkpt>
      <trkpt lat="48.73496" lon="-3.45539">
        <ele>15.04</ele>
        <time>2013-06-08T16:18:40Z</time>
      </trkpt>
      <trkpt lat="48.73496" lon="-3.45537">
        <ele>16</ele>
        <time>2013-06-08T16:18:41Z</time>
      </trkpt>
      <trkpt lat="48.73496" lon="-3.45534">
        <ele>15.52</ele>
        <time>2013-06-08T16:18:42Z</time>
      </trkpt>
      <trkpt lat="48.73499" lon="-3.45532">
        <ele>16</ele>
        <time>2013-06-08T16:18:43Z</time>
      </trkpt>
      <trkpt lat="48.73503" lon="-3.45531">
        <ele>16</ele>
        <time>2013-06-08T16:18:44Z</time>
      </trkpt>
      <trkpt lat="48.73508" lon="-3.45531">
        <ele>16</ele>
        <time>2013-06-08T16:18:45Z</time>
      </trkpt>
      <trkpt lat="48.73512" lon="-3.45531">
        <ele>16</ele>
        <time>2013-06-08T16:18:46Z</time>
      </trkpt>
      <trkpt lat="48.73517" lon="-3.45531">
        <ele>17.44</ele>
        <time>2013-06-08T16:18:47Z</time>
      </trkpt>
      <trkpt lat="48.73522" lon="-3.45531">
        <ele>16.96</ele>
        <time>2013-06-08T16:18:48Z</time>
      </trkpt>
      <trkpt lat="48.73541" lon="-3.45528">
        <ele>16.96</ele>
        <time>2013-06-08T16:18:52Z</time>
      </trkpt>
      <trkpt lat="48.73576" lon="-3.45511">
        <ele>18.88</ele>
        <time>2013-06-08T16:19:01Z</time>
      </trkpt>
      <trkpt lat="48.73615" lon="-3.45507">
        <ele>20.81</ele>
        <time>2013-06-08T16:19:10Z</time>
      </trkpt>
      <trkpt lat="48.73624" lon="-3.45508">
        <ele>21.29</ele>
        <time>2013-06-08T16:19:12Z</time>
      </trkpt>
      <trkpt lat="48.73672" lon="-3.45524">
        <ele>24.65</ele>
        <time>2013-06-08T16:19:24Z</time>
      </trkpt>
      <trkpt lat="48.73676" lon="-3.45524">
        <ele>24.17</ele>
        <time>2013-06-08T16:19:25Z</time>
      </trkpt>
      <trkpt lat="48.73717" lon="-3.45515">
        <ele>27.53</ele>
        <time>2013-06-08T16:19:36Z</time>
      </trkpt>
      <trkpt lat="48.73754" lon="-3.45509">
        <ele>29.94</ele>
        <time>2013-06-08T16:19:46Z</time>
      </trkpt>
      <trkpt lat="48.7379" lon="-3.45498">
        <ele>31.86</ele>
        <time>2013-06-08T16:19:56Z</time>
      </trkpt>
      <trkpt lat="48.73826" lon="-3.45496">
        <ele>33.3</ele>
        <time>2013-06-08T16:20:06Z</time>
      </trkpt>
      <trkpt lat="48.73885" lon="-3.4549">
        <ele>36.67</ele>
        <time>2013-06-08T16:20:20Z</time>
      </trkpt>
      <trkpt lat="48.73889" lon="-3.4549">
        <ele>36.67</ele>
        <time>2013-06-08T16:20:21Z</time>
      </trkpt>
      <trkpt lat="48.73946" lon="-3.45518">
        <ele>38.59</ele>
        <time>2013-06-08T16:20:36Z</time>
      </trkpt>
      <trkpt lat="48.73971" lon="-3.4553">
        <ele>39.55</ele>
        <time>2013-06-08T16:20:43Z</time>
      </trkpt>
      <trkpt lat="48.73988" lon="-3.45535">
        <ele>40.03</ele>
        <time>2013-06-08T16:20:47Z</time>
      </trkpt>
      <trkpt lat="48.74" lon="-3.45537">
        <ele>41.47</ele>
        <time>2013-06-08T16:20:50Z</time>
      </trkpt>
      <trkpt lat="48.74004" lon="-3.45538">
        <ele>41.47</ele>
        <time>2013-06-08T16:20:51Z</time>
      </trkpt>
      <trkpt lat="48.74047" lon="-3.45548">
        <ele>43.4</ele>
        <time>2013-06-08T16:21:02Z</time>
      </trkpt>
      <trkpt lat="48.74051" lon="-3.4555">
        <ele>43.88</ele>
        <time>2013-06-08T16:21:03Z</time>
      </trkpt>
      <trkpt lat="48.74096" lon="-3.45575">
        <ele>46.28</ele>
        <time>2013-06-08T16:21:15Z</time>
      </trkpt>
      <trkpt lat="48.741" lon="-3.45577">
        <ele>46.28</ele>
        <time>2013-06-08T16:21:16Z</time>
      </trkpt>
      <trkpt lat="48.74154" lon="-3.4558">
        <ele>49.65</ele>
        <time>2013-06-08T16:21:29Z</time>
      </trkpt>
      <trkpt lat="48.7417" lon="-3.45579">
        <ele>50.61</ele>
        <time>2013-06-08T16:21:33Z</time>
      </trkpt>
      <trkpt lat="48.74199" lon="-3.45576">
        <ele>52.05</ele>
        <time>2013-06-08T16:21:40Z</time>
      </trkpt>
      <trkpt lat="48.74204" lon="-3.45575">
        <ele>52.05</ele>
        <time>2013-06-08T16:21:41Z</time>
      </trkpt>
      <trkpt lat="48.74208" lon="-3.45575">
        <ele>52.05</ele>
        <time>2013-06-08T16:21:42Z</time>
      </trkpt>
      <trkpt lat="48.74267" lon="-3.45568">
        <ele>55.41</ele>
        <time>2013-06-08T16:21:56Z</time>
      </trkpt>
      <trkpt lat="48.7428" lon="-3.45563">
        <ele>56.37</ele>
        <time>2013-06-08T16:21:59Z</time>
      </trkpt>
      <trkpt lat="48.74305" lon="-3.45538">
        <ele>57.34</ele>
        <time>2013-06-08T16:22:07Z</time>
      </trkpt>
      <trkpt lat="48.74333" lon="-3.45515">
        <ele>59.26</ele>
        <time>2013-06-08T16:22:14Z</time>
      </trkpt>
      <trkpt lat="48.74337" lon="-3.45512">
        <ele>59.74</ele>
        <time>2013-06-08T16:22:15Z</time>
      </trkpt>
      <trkpt lat="48.74347" lon="-3.45503">
        <ele>60.22</ele>
        <time>2013-06-08T16:22:18Z</time>
      </trkpt>
      <trkpt lat="48.7435" lon="-3.45499">
        <ele>60.22</ele>
        <time>2013-06-08T16:22:19Z</time>
      </trkpt>
      <trkpt lat="48.74395" lon="-3.45443">
        <ele>63.58</ele>
        <time>2013-06-08T16:22:36Z</time>
      </trkpt>
      <trkpt lat="48.74402" lon="-3.45394">
        <ele>64.07</ele>
        <time>2013-06-08T16:22:46Z</time>
      </trkpt>
      <trkpt lat="48.74398" lon="-3.45336">
        <ele>67.43</ele>
        <time>2013-06-08T16:22:57Z</time>
      </trkpt>
      <trkpt lat="48.74397" lon="-3.45319">
        <ele>67.43</ele>
        <time>2013-06-08T16:23:00Z</time>
      </trkpt>
      <trkpt lat="48.74398" lon="-3.45269">
        <ele>68.87</ele>
        <time>2013-06-08T16:23:07Z</time>
      </trkpt>
      <trkpt lat="48.74399" lon="-3.45263">
        <ele>69.35</ele>
        <time>2013-06-08T16:23:08Z</time>
      </trkpt>
      <trkpt lat="48.74402" lon="-3.45258">
        <ele>69.83</ele>
        <time>2013-06-08T16:23:09Z</time>
      </trkpt>
      <trkpt lat="48.74405" lon="-3.45254">
        <ele>69.35</ele>
        <time>2013-06-08T16:23:10Z</time>
      </trkpt>
      <trkpt lat="48.74409" lon="-3.45253">
        <ele>68.87</ele>
        <time>2013-06-08T16:23:11Z</time>
      </trkpt>
      <trkpt lat="48.74413" lon="-3.45254">
        <ele>68.87</ele>
        <time>2013-06-08T16:23:12Z</time>
      </trkpt>
      <trkpt lat="48.74418" lon="-3.45258">
        <ele>68.87</ele>
        <time>2013-06-08T16:23:13Z</time>
      </trkpt>
      <trkpt lat="48.74422" lon="-3.45263">
        <ele>68.39</ele>
        <time>2013-06-08T16:23:14Z</time>
      </trkpt>
      <trkpt lat="48.74427" lon="-3.45269">
        <ele>68.39</ele>
        <time>2013-06-08T16:23:15Z</time>
      </trkpt>
      <trkpt lat="48.74479" lon="-3.45332">
        <ele>65.51</ele>
        <time>2013-06-08T16:23:24Z</time>
      </trkpt>
      <trkpt lat="48.74524" lon="-3.45389">
        <ele>61.18</ele>
        <time>2013-06-08T16:23:30Z</time>
      </trkpt>
      <trkpt lat="48.74538" lon="-3.45412">
        <ele>60.7</ele>
        <time>2013-06-08T16:23:32Z</time>
      </trkpt>
      <trkpt lat="48.74561" lon="-3.45456">
        <ele>60.7</ele>
        <time>2013-06-08T16:23:36Z</time>
      </trkpt>
      <trkpt lat="48.74568" lon="-3.45471">
        <ele>60.22</ele>
        <time>2013-06-08T16:23:38Z</time>
      </trkpt>
      <trkpt lat="48.74595" lon="-3.4551">
        <ele>63.1</ele>
        <time>2013-06-08T16:23:48Z</time>
      </trkpt>
      <trkpt lat="48.74598" lon="-3.4551">
        <ele>63.1</ele>
        <time>2013-06-08T16:23:49Z</time>
      </trkpt>
      <trkpt lat="48.74601" lon="-3.45508">
        <ele>64.07</ele>
        <time>2013-06-08T16:23:50Z</time>
      </trkpt>
      <trkpt lat="48.74604" lon="-3.45504">
        <ele>64.07</ele>
        <time>2013-06-08T16:23:51Z</time>
      </trkpt>
      <trkpt lat="48.74607" lon="-3.455">
        <ele>64.55</ele>
        <time>2013-06-08T16:23:52Z</time>
      </trkpt>
      <trkpt lat="48.74609" lon="-3.45495">
        <ele>65.03</ele>
        <time>2013-06-08T16:23:53Z</time>
      </trkpt>
      <trkpt lat="48.74622" lon="-3.45469">
        <ele>67.43</ele>
        <time>2013-06-08T16:23:59Z</time>
      </trkpt>
      <trkpt lat="48.74626" lon="-3.45469">
        <ele>67.43</ele>
        <time>2013-06-08T16:24:00Z</time>
      </trkpt>
      <trkpt lat="48.7463" lon="-3.45471">
        <ele>67.91</ele>
        <time>2013-06-08T16:24:01Z</time>
      </trkpt>
      <trkpt lat="48.74634" lon="-3.45475">
        <ele>67.91</ele>
        <time>2013-06-08T16:24:02Z</time>
      </trkpt>
      <trkpt lat="48.74638" lon="-3.45478">
        <ele>68.39</ele>
        <time>2013-06-08T16:24:03Z</time>
      </trkpt>
      <trkpt lat="48.74641" lon="-3.45482">
        <ele>68.39</ele>
        <time>2013-06-08T16:24:04Z</time>
      </trkpt>
      <trkpt lat="48.74644" lon="-3.45485">
        <ele>68.87</ele>
        <time>2013-06-08T16:24:05Z</time>
      </trkpt>
      <trkpt lat="48.74672" lon="-3.45512">
        <ele>70.79</ele>
        <time>2013-06-08T16:24:17Z</time>
      </trkpt>
      <trkpt lat="48.74684" lon="-3.45521">
        <ele>71.76</ele>
        <time>2013-06-08T16:24:24Z</time>
      </trkpt>
      <trkpt lat="48.74686" lon="-3.45521">
        <ele>71.76</ele>
        <time>2013-06-08T16:24:25Z</time>
      </trkpt>
      <trkpt lat="48.74688" lon="-3.45519">
        <ele>71.76</ele>
        <time>2013-06-08T16:24:26Z</time>
      </trkpt>
      <trkpt lat="48.7469" lon="-3.45518">
        <ele>71.76</ele>
        <time>2013-06-08T16:24:27Z</time>
      </trkpt>
      <trkpt lat="48.74692" lon="-3.45515">
        <ele>71.76</ele>
        <time>2013-06-08T16:24:28Z</time>
      </trkpt>
      <trkpt lat="48.74693" lon="-3.45512">
        <ele>71.76</ele>
        <time>2013-06-08T16:24:29Z</time>
      </trkpt>
      <trkpt lat="48.74693" lon="-3.45508">
        <ele>72.24</ele>
        <time>2013-06-08T16:24:30Z</time>
      </trkpt>
      <trkpt lat="48.74692" lon="-3.45504">
        <ele>72.72</ele>
        <time>2013-06-08T16:24:31Z</time>
      </trkpt>
      <trkpt lat="48.74691" lon="-3.45497">
        <ele>72.24</ele>
        <time>2013-06-08T16:24:44Z</time>
      </trkpt>
      <trkpt lat="48.74692" lon="-3.45495">
        <ele>73.2</ele>
        <time>2013-06-08T16:25:10Z</time>
      </trkpt>
    </trkseg>
  </trk>
</gpx>